<?xml version="1.0" encoding="UTF-8"?>
<gpx version="1.1" creator="https://www.youtrack.es" xsi:schemaLocation="http://www.topografix.com/GPX/1/1 http://www.topografix.com/GPX/1/1/gpx.xsd http://www.garmin.com/xmlschemas/GpxExtensions/v3 http://www.garmin.com/xmlschemas/GpxExtensionsv3.xsd http://www.garmin.com/xmlschemas/TrackPointExtension/v1 http://www.garmin.com/xmlschemas/TrackPointExtensionv1.xsd" xmlns:gpxtpx="http://www.garmin.com/xmlschemas/TrackPointExtension/v1" xmlns:gpxx="http://www.garmin.com/xmlschemas/GpxExtensions/v3" xmlns:xsi="http://www.w3.org/2001/XMLSchema-instance">
  <metadata>
    <link href="https://www.youtrack.es">
      <text>YouTrack.es</text>
    </link>
    <time>2026-05-10T13:41:38Z</time>
  </metadata>
  <trk>
    <src>https://www.youtrack.es</src>
    <link href="https://www.youtrack.es/ruta/20903-dia-4">
      <text>YouTrack.es</text>
    </link>
    <trkseg>
      <trkpt lat="43.449153900146484" lon="-3.8489482402801514">
        <ele>-9.079999923706055</ele>
        <time>2021-04-04T16:28:34Z</time>
      </trkpt>
      <trkpt lat="43.449161529541016" lon="-3.8489582538604736">
        <ele>-9.079999923706055</ele>
        <time>2021-04-04T16:28:35Z</time>
      </trkpt>
      <trkpt lat="43.449161529541016" lon="-3.848961114883423">
        <ele>-9.079999923706055</ele>
        <time>2021-04-04T16:28:36Z</time>
      </trkpt>
      <trkpt lat="43.44916534423828" lon="-3.848965644836426">
        <ele>-9.079999923706055</ele>
        <time>2021-04-04T16:28:37Z</time>
      </trkpt>
      <trkpt lat="43.449161529541016" lon="-3.8489773273468018">
        <ele>-10.261817932128906</ele>
        <time>2021-04-04T16:28:38Z</time>
      </trkpt>
      <trkpt lat="43.449161529541016" lon="-3.848985433578491">
        <ele>-10.261817932128906</ele>
        <time>2021-04-04T16:28:39Z</time>
      </trkpt>
      <trkpt lat="43.44916534423828" lon="-3.848985433578491">
        <ele>-10.261817932128906</ele>
        <time>2021-04-04T16:28:40Z</time>
      </trkpt>
      <trkpt lat="43.44917297363281" lon="-3.848970413208008">
        <ele>-10.261817932128906</ele>
        <time>2021-04-04T16:28:41Z</time>
      </trkpt>
      <trkpt lat="43.44918441772461" lon="-3.848949670791626">
        <ele>-10.261817932128906</ele>
        <time>2021-04-04T16:28:42Z</time>
      </trkpt>
      <trkpt lat="43.449195861816406" lon="-3.8489396572113037">
        <ele>-11.443635940551758</ele>
        <time>2021-04-04T16:28:43Z</time>
      </trkpt>
      <trkpt lat="43.449222564697266" lon="-3.848933219909668">
        <ele>-11.443635940551758</ele>
        <time>2021-04-04T16:28:44Z</time>
      </trkpt>
      <trkpt lat="43.44926452636719" lon="-3.8489201068878174">
        <ele>-11.443635940551758</ele>
        <time>2021-04-04T16:28:46Z</time>
      </trkpt>
      <trkpt lat="43.44931411743164" lon="-3.8488669395446777">
        <ele>-11.443635940551758</ele>
        <time>2021-04-04T16:28:49Z</time>
      </trkpt>
      <trkpt lat="43.4493293762207" lon="-3.8487460613250732">
        <ele>-11.443635940551758</ele>
        <time>2021-04-04T16:28:52Z</time>
      </trkpt>
      <trkpt lat="43.44933319091797" lon="-3.8486387729644775">
        <ele>-11.443635940551758</ele>
        <time>2021-04-04T16:28:54Z</time>
      </trkpt>
      <trkpt lat="43.4493408203125" lon="-3.848508358001709">
        <ele>-11.443635940551758</ele>
        <time>2021-04-04T16:28:56Z</time>
      </trkpt>
      <trkpt lat="43.4493408203125" lon="-3.8484408855438232">
        <ele>-11.443635940551758</ele>
        <time>2021-04-04T16:28:57Z</time>
      </trkpt>
      <trkpt lat="43.449344635009766" lon="-3.8482933044433594">
        <ele>-11.443635940551758</ele>
        <time>2021-04-04T16:28:59Z</time>
      </trkpt>
      <trkpt lat="43.4493522644043" lon="-3.8482179641723633">
        <ele>-11.443635940551758</ele>
        <time>2021-04-04T16:29:00Z</time>
      </trkpt>
      <trkpt lat="43.4493522644043" lon="-3.848134994506836">
        <ele>-11.443635940551758</ele>
        <time>2021-04-04T16:29:01Z</time>
      </trkpt>
      <trkpt lat="43.44935607910156" lon="-3.848057270050049">
        <ele>-11.443635940551758</ele>
        <time>2021-04-04T16:29:02Z</time>
      </trkpt>
      <trkpt lat="43.44935989379883" lon="-3.847978353500366">
        <ele>-11.443635940551758</ele>
        <time>2021-04-04T16:29:03Z</time>
      </trkpt>
      <trkpt lat="43.44935989379883" lon="-3.8478939533233643">
        <ele>-11.443635940551758</ele>
        <time>2021-04-04T16:29:04Z</time>
      </trkpt>
      <trkpt lat="43.44935989379883" lon="-3.847810745239258">
        <ele>-11.443635940551758</ele>
        <time>2021-04-04T16:29:05Z</time>
      </trkpt>
      <trkpt lat="43.449363708496094" lon="-3.84773325920105">
        <ele>-11.443635940551758</ele>
        <time>2021-04-04T16:29:06Z</time>
      </trkpt>
      <trkpt lat="43.449363708496094" lon="-3.847649574279785">
        <ele>-11.443635940551758</ele>
        <time>2021-04-04T16:29:07Z</time>
      </trkpt>
      <trkpt lat="43.44936752319336" lon="-3.8475658893585205">
        <ele>-11.443635940551758</ele>
        <time>2021-04-04T16:29:08Z</time>
      </trkpt>
      <trkpt lat="43.44936752319336" lon="-3.8474879264831543">
        <ele>-11.443635940551758</ele>
        <time>2021-04-04T16:29:09Z</time>
      </trkpt>
      <trkpt lat="43.44936752319336" lon="-3.847403049468994">
        <ele>-11.443635940551758</ele>
        <time>2021-04-04T16:29:10Z</time>
      </trkpt>
      <trkpt lat="43.449371337890625" lon="-3.8473243713378906">
        <ele>-11.443635940551758</ele>
        <time>2021-04-04T16:29:11Z</time>
      </trkpt>
      <trkpt lat="43.449371337890625" lon="-3.8472440242767334">
        <ele>-11.443635940551758</ele>
        <time>2021-04-04T16:29:12Z</time>
      </trkpt>
      <trkpt lat="43.449371337890625" lon="-3.8471622467041016">
        <ele>-11.443635940551758</ele>
        <time>2021-04-04T16:29:13Z</time>
      </trkpt>
      <trkpt lat="43.449371337890625" lon="-3.847074031829834">
        <ele>-11.443635940551758</ele>
        <time>2021-04-04T16:29:14Z</time>
      </trkpt>
      <trkpt lat="43.44937515258789" lon="-3.8469855785369873">
        <ele>-11.443635940551758</ele>
        <time>2021-04-04T16:29:15Z</time>
      </trkpt>
      <trkpt lat="43.44937515258789" lon="-3.846898078918457">
        <ele>-11.443635940551758</ele>
        <time>2021-04-04T16:29:16Z</time>
      </trkpt>
      <trkpt lat="43.44937515258789" lon="-3.8468105792999268">
        <ele>-11.443635940551758</ele>
        <time>2021-04-04T16:29:17Z</time>
      </trkpt>
      <trkpt lat="43.449378967285156" lon="-3.846721649169922">
        <ele>-11.443635940551758</ele>
        <time>2021-04-04T16:29:18Z</time>
      </trkpt>
      <trkpt lat="43.44938278198242" lon="-3.8466386795043945">
        <ele>-11.443635940551758</ele>
        <time>2021-04-04T16:29:19Z</time>
      </trkpt>
      <trkpt lat="43.44938659667969" lon="-3.846552610397339">
        <ele>-11.443635940551758</ele>
        <time>2021-04-04T16:29:20Z</time>
      </trkpt>
      <trkpt lat="43.44939041137695" lon="-3.84645938873291">
        <ele>-11.443635940551758</ele>
        <time>2021-04-04T16:29:21Z</time>
      </trkpt>
      <trkpt lat="43.44939422607422" lon="-3.846367597579956">
        <ele>-11.443635940551758</ele>
        <time>2021-04-04T16:29:22Z</time>
      </trkpt>
      <trkpt lat="43.449398040771484" lon="-3.8462767601013184">
        <ele>-11.443635940551758</ele>
        <time>2021-04-04T16:29:23Z</time>
      </trkpt>
      <trkpt lat="43.44940185546875" lon="-3.846184730529785">
        <ele>-11.443635940551758</ele>
        <time>2021-04-04T16:29:24Z</time>
      </trkpt>
      <trkpt lat="43.44940948486328" lon="-3.846092939376831">
        <ele>-11.443635940551758</ele>
        <time>2021-04-04T16:29:25Z</time>
      </trkpt>
      <trkpt lat="43.44941329956055" lon="-3.846001386642456">
        <ele>-11.443635940551758</ele>
        <time>2021-04-04T16:29:26Z</time>
      </trkpt>
      <trkpt lat="43.44941711425781" lon="-3.8459091186523438">
        <ele>-11.443635940551758</ele>
        <time>2021-04-04T16:29:27Z</time>
      </trkpt>
      <trkpt lat="43.44942092895508" lon="-3.845815658569336">
        <ele>-11.443635940551758</ele>
        <time>2021-04-04T16:29:28Z</time>
      </trkpt>
      <trkpt lat="43.44942855834961" lon="-3.845721960067749">
        <ele>-12.716362953186035</ele>
        <time>2021-04-04T16:29:29Z</time>
      </trkpt>
      <trkpt lat="43.449432373046875" lon="-3.845628023147583">
        <ele>-12.716362953186035</ele>
        <time>2021-04-04T16:29:30Z</time>
      </trkpt>
      <trkpt lat="43.44943618774414" lon="-3.8455393314361572">
        <ele>-12.716362953186035</ele>
        <time>2021-04-04T16:29:31Z</time>
      </trkpt>
      <trkpt lat="43.44944381713867" lon="-3.845442295074463">
        <ele>-12.716362953186035</ele>
        <time>2021-04-04T16:29:32Z</time>
      </trkpt>
      <trkpt lat="43.44944763183594" lon="-3.845346450805664">
        <ele>-12.716362953186035</ele>
        <time>2021-04-04T16:29:33Z</time>
      </trkpt>
      <trkpt lat="43.4494514465332" lon="-3.8452513217926025">
        <ele>-13.898180961608887</ele>
        <time>2021-04-04T16:29:34Z</time>
      </trkpt>
      <trkpt lat="43.44945526123047" lon="-3.845156669616699">
        <ele>-13.898180961608887</ele>
        <time>2021-04-04T16:29:35Z</time>
      </trkpt>
      <trkpt lat="43.449459075927734" lon="-3.845062255859375">
        <ele>-13.898180961608887</ele>
        <time>2021-04-04T16:29:36Z</time>
      </trkpt>
      <trkpt lat="43.449466705322266" lon="-3.84496808052063">
        <ele>-13.898180961608887</ele>
        <time>2021-04-04T16:29:37Z</time>
      </trkpt>
      <trkpt lat="43.44947052001953" lon="-3.8448739051818848">
        <ele>-13.898180961608887</ele>
        <time>2021-04-04T16:29:38Z</time>
      </trkpt>
      <trkpt lat="43.4494743347168" lon="-3.844780445098877">
        <ele>-13.898180961608887</ele>
        <time>2021-04-04T16:29:39Z</time>
      </trkpt>
      <trkpt lat="43.44948196411133" lon="-3.8446927070617676">
        <ele>-13.898180961608887</ele>
        <time>2021-04-04T16:29:40Z</time>
      </trkpt>
      <trkpt lat="43.449493408203125" lon="-3.844597339630127">
        <ele>-13.898180961608887</ele>
        <time>2021-04-04T16:29:41Z</time>
      </trkpt>
      <trkpt lat="43.449501037597656" lon="-3.8445024490356445">
        <ele>-13.898180961608887</ele>
        <time>2021-04-04T16:29:42Z</time>
      </trkpt>
      <trkpt lat="43.44951248168945" lon="-3.8444080352783203">
        <ele>-13.898180961608887</ele>
        <time>2021-04-04T16:29:43Z</time>
      </trkpt>
      <trkpt lat="43.44952392578125" lon="-3.844320774078369">
        <ele>-13.898180961608887</ele>
        <time>2021-04-04T16:29:44Z</time>
      </trkpt>
      <trkpt lat="43.44953536987305" lon="-3.844224691390991">
        <ele>-13.898180961608887</ele>
        <time>2021-04-04T16:29:45Z</time>
      </trkpt>
      <trkpt lat="43.449546813964844" lon="-3.8441295623779297">
        <ele>-13.898180961608887</ele>
        <time>2021-04-04T16:29:46Z</time>
      </trkpt>
      <trkpt lat="43.449554443359375" lon="-3.844036340713501">
        <ele>-13.898180961608887</ele>
        <time>2021-04-04T16:29:47Z</time>
      </trkpt>
      <trkpt lat="43.449562072753906" lon="-3.8439433574676514">
        <ele>-13.898180961608887</ele>
        <time>2021-04-04T16:29:48Z</time>
      </trkpt>
      <trkpt lat="43.4495735168457" lon="-3.8438515663146973">
        <ele>-13.898180961608887</ele>
        <time>2021-04-04T16:29:49Z</time>
      </trkpt>
      <trkpt lat="43.449581146240234" lon="-3.8437602519989014">
        <ele>-13.898180961608887</ele>
        <time>2021-04-04T16:29:50Z</time>
      </trkpt>
      <trkpt lat="43.44959259033203" lon="-3.8436689376831055">
        <ele>-13.898180961608887</ele>
        <time>2021-04-04T16:29:51Z</time>
      </trkpt>
      <trkpt lat="43.44960403442383" lon="-3.843576669692993">
        <ele>-13.898180961608887</ele>
        <time>2021-04-04T16:29:52Z</time>
      </trkpt>
      <trkpt lat="43.44961166381836" lon="-3.8434910774230957">
        <ele>-15.079998970031738</ele>
        <time>2021-04-04T16:29:53Z</time>
      </trkpt>
      <trkpt lat="43.449623107910156" lon="-3.8433969020843506">
        <ele>-15.079998970031738</ele>
        <time>2021-04-04T16:29:54Z</time>
      </trkpt>
      <trkpt lat="43.44963455200195" lon="-3.8433051109313965">
        <ele>-15.079998970031738</ele>
        <time>2021-04-04T16:29:55Z</time>
      </trkpt>
      <trkpt lat="43.44964599609375" lon="-3.8432135581970215">
        <ele>-15.079998970031738</ele>
        <time>2021-04-04T16:29:56Z</time>
      </trkpt>
      <trkpt lat="43.44965744018555" lon="-3.843122720718384">
        <ele>-15.079998970031738</ele>
        <time>2021-04-04T16:29:57Z</time>
      </trkpt>
      <trkpt lat="43.44967269897461" lon="-3.8430376052856445">
        <ele>-15.079998970031738</ele>
        <time>2021-04-04T16:29:58Z</time>
      </trkpt>
      <trkpt lat="43.449684143066406" lon="-3.8429436683654785">
        <ele>-15.079998970031738</ele>
        <time>2021-04-04T16:29:59Z</time>
      </trkpt>
      <trkpt lat="43.449703216552734" lon="-3.842850685119629">
        <ele>-15.079998970031738</ele>
        <time>2021-04-04T16:30:00Z</time>
      </trkpt>
      <trkpt lat="43.4497184753418" lon="-3.8427579402923584">
        <ele>-15.079998970031738</ele>
        <time>2021-04-04T16:30:01Z</time>
      </trkpt>
      <trkpt lat="43.44973373413086" lon="-3.8426663875579834">
        <ele>-15.079998970031738</ele>
        <time>2021-04-04T16:30:02Z</time>
      </trkpt>
      <trkpt lat="43.449745178222656" lon="-3.8425745964050293">
        <ele>-15.079998970031738</ele>
        <time>2021-04-04T16:30:03Z</time>
      </trkpt>
      <trkpt lat="43.44975662231445" lon="-3.8424839973449707">
        <ele>-15.079998970031738</ele>
        <time>2021-04-04T16:30:04Z</time>
      </trkpt>
      <trkpt lat="43.44976806640625" lon="-3.8423945903778076">
        <ele>-15.079998970031738</ele>
        <time>2021-04-04T16:30:05Z</time>
      </trkpt>
      <trkpt lat="43.44977951049805" lon="-3.8423056602478027">
        <ele>-15.079998970031738</ele>
        <time>2021-04-04T16:30:06Z</time>
      </trkpt>
      <trkpt lat="43.449790954589844" lon="-3.842216730117798">
        <ele>-15.079998970031738</ele>
        <time>2021-04-04T16:30:07Z</time>
      </trkpt>
      <trkpt lat="43.44980239868164" lon="-3.842127561569214">
        <ele>-15.079998970031738</ele>
        <time>2021-04-04T16:30:08Z</time>
      </trkpt>
      <trkpt lat="43.44981384277344" lon="-3.8420379161834717">
        <ele>-15.079998970031738</ele>
        <time>2021-04-04T16:30:09Z</time>
      </trkpt>
      <trkpt lat="43.44982147216797" lon="-3.8419549465179443">
        <ele>-15.079998970031738</ele>
        <time>2021-04-04T16:30:10Z</time>
      </trkpt>
      <trkpt lat="43.449832916259766" lon="-3.8418636322021484">
        <ele>-15.079998970031738</ele>
        <time>2021-04-04T16:30:11Z</time>
      </trkpt>
      <trkpt lat="43.44984436035156" lon="-3.8417723178863525">
        <ele>-15.079998970031738</ele>
        <time>2021-04-04T16:30:12Z</time>
      </trkpt>
      <trkpt lat="43.44985580444336" lon="-3.8416807651519775">
        <ele>-15.079998970031738</ele>
        <time>2021-04-04T16:30:13Z</time>
      </trkpt>
      <trkpt lat="43.449867248535156" lon="-3.8415896892547607">
        <ele>-15.079998970031738</ele>
        <time>2021-04-04T16:30:14Z</time>
      </trkpt>
      <trkpt lat="43.44987869262695" lon="-3.841498374938965">
        <ele>-15.079998970031738</ele>
        <time>2021-04-04T16:30:15Z</time>
      </trkpt>
      <trkpt lat="43.44989013671875" lon="-3.8414130210876465">
        <ele>-15.079998970031738</ele>
        <time>2021-04-04T16:30:16Z</time>
      </trkpt>
      <trkpt lat="43.44990158081055" lon="-3.8413257598876953">
        <ele>-15.079998970031738</ele>
        <time>2021-04-04T16:30:17Z</time>
      </trkpt>
      <trkpt lat="43.449913024902344" lon="-3.8412303924560547">
        <ele>-15.079998970031738</ele>
        <time>2021-04-04T16:30:18Z</time>
      </trkpt>
      <trkpt lat="43.449928283691406" lon="-3.8411433696746826">
        <ele>-15.079998970031738</ele>
        <time>2021-04-04T16:30:19Z</time>
      </trkpt>
      <trkpt lat="43.44994354248047" lon="-3.8410494327545166">
        <ele>-15.079998970031738</ele>
        <time>2021-04-04T16:30:20Z</time>
      </trkpt>
      <trkpt lat="43.44995880126953" lon="-3.840956926345825">
        <ele>-15.079998970031738</ele>
        <time>2021-04-04T16:30:21Z</time>
      </trkpt>
      <trkpt lat="43.44997787475586" lon="-3.8408665657043457">
        <ele>-15.079998970031738</ele>
        <time>2021-04-04T16:30:22Z</time>
      </trkpt>
      <trkpt lat="43.45000076293945" lon="-3.840777635574341">
        <ele>-16.534543991088867</ele>
        <time>2021-04-04T16:30:23Z</time>
      </trkpt>
      <trkpt lat="43.45002365112305" lon="-3.8406903743743896">
        <ele>-16.534543991088867</ele>
        <time>2021-04-04T16:30:24Z</time>
      </trkpt>
      <trkpt lat="43.45004653930664" lon="-3.8406035900115967">
        <ele>-16.534543991088867</ele>
        <time>2021-04-04T16:30:25Z</time>
      </trkpt>
      <trkpt lat="43.4500732421875" lon="-3.84051775932312">
        <ele>-16.534543991088867</ele>
        <time>2021-04-04T16:30:26Z</time>
      </trkpt>
      <trkpt lat="43.450096130371094" lon="-3.840433359146118">
        <ele>-16.534543991088867</ele>
        <time>2021-04-04T16:30:27Z</time>
      </trkpt>
      <trkpt lat="43.45012283325195" lon="-3.8403549194335938">
        <ele>-17.71636199951172</ele>
        <time>2021-04-04T16:30:28Z</time>
      </trkpt>
      <trkpt lat="43.45015335083008" lon="-3.840270757675171">
        <ele>-17.71636199951172</ele>
        <time>2021-04-04T16:30:29Z</time>
      </trkpt>
      <trkpt lat="43.45018005371094" lon="-3.8401880264282227">
        <ele>-17.71636199951172</ele>
        <time>2021-04-04T16:30:30Z</time>
      </trkpt>
      <trkpt lat="43.45021057128906" lon="-3.8401060104370117">
        <ele>-17.71636199951172</ele>
        <time>2021-04-04T16:30:31Z</time>
      </trkpt>
      <trkpt lat="43.45024108886719" lon="-3.84002423286438">
        <ele>-17.71636199951172</ele>
        <time>2021-04-04T16:30:32Z</time>
      </trkpt>
      <trkpt lat="43.45026779174805" lon="-3.83994460105896">
        <ele>-17.71636199951172</ele>
        <time>2021-04-04T16:30:33Z</time>
      </trkpt>
      <trkpt lat="43.45029830932617" lon="-3.8398659229278564">
        <ele>-17.71636199951172</ele>
        <time>2021-04-04T16:30:34Z</time>
      </trkpt>
      <trkpt lat="43.45032501220703" lon="-3.8397886753082275">
        <ele>-17.71636199951172</ele>
        <time>2021-04-04T16:30:35Z</time>
      </trkpt>
      <trkpt lat="43.450355529785156" lon="-3.839711904525757">
        <ele>-17.71636199951172</ele>
        <time>2021-04-04T16:30:36Z</time>
      </trkpt>
      <trkpt lat="43.450382232666016" lon="-3.8396356105804443">
        <ele>-17.71636199951172</ele>
        <time>2021-04-04T16:30:37Z</time>
      </trkpt>
      <trkpt lat="43.45041275024414" lon="-3.839559555053711">
        <ele>-17.71636199951172</ele>
        <time>2021-04-04T16:30:38Z</time>
      </trkpt>
      <trkpt lat="43.450443267822266" lon="-3.8394830226898193">
        <ele>-17.71636199951172</ele>
        <time>2021-04-04T16:30:39Z</time>
      </trkpt>
      <trkpt lat="43.45047378540039" lon="-3.839406728744507">
        <ele>-17.71636199951172</ele>
        <time>2021-04-04T16:30:40Z</time>
      </trkpt>
      <trkpt lat="43.450504302978516" lon="-3.8393349647521973">
        <ele>-17.71636199951172</ele>
        <time>2021-04-04T16:30:41Z</time>
      </trkpt>
      <trkpt lat="43.45053482055664" lon="-3.839261770248413">
        <ele>-17.71636199951172</ele>
        <time>2021-04-04T16:30:42Z</time>
      </trkpt>
      <trkpt lat="43.450565338134766" lon="-3.8391823768615723">
        <ele>-17.71636199951172</ele>
        <time>2021-04-04T16:30:43Z</time>
      </trkpt>
      <trkpt lat="43.450599670410156" lon="-3.839103937149048">
        <ele>-17.71636199951172</ele>
        <time>2021-04-04T16:30:44Z</time>
      </trkpt>
      <trkpt lat="43.45063018798828" lon="-3.8390259742736816">
        <ele>-17.71636199951172</ele>
        <time>2021-04-04T16:30:45Z</time>
      </trkpt>
      <trkpt lat="43.450660705566406" lon="-3.8389487266540527">
        <ele>-17.71636199951172</ele>
        <time>2021-04-04T16:30:46Z</time>
      </trkpt>
      <trkpt lat="43.4506950378418" lon="-3.8388712406158447">
        <ele>-17.71636199951172</ele>
        <time>2021-04-04T16:30:47Z</time>
      </trkpt>
      <trkpt lat="43.45072555541992" lon="-3.8387949466705322">
        <ele>-17.71636199951172</ele>
        <time>2021-04-04T16:30:48Z</time>
      </trkpt>
      <trkpt lat="43.45075988769531" lon="-3.838718891143799">
        <ele>-17.71636199951172</ele>
        <time>2021-04-04T16:30:49Z</time>
      </trkpt>
      <trkpt lat="43.45079040527344" lon="-3.8386433124542236">
        <ele>-17.71636199951172</ele>
        <time>2021-04-04T16:30:50Z</time>
      </trkpt>
      <trkpt lat="43.45082092285156" lon="-3.838568925857544">
        <ele>-17.71636199951172</ele>
        <time>2021-04-04T16:30:51Z</time>
      </trkpt>
      <trkpt lat="43.45085144042969" lon="-3.8384997844696045">
        <ele>-17.71636199951172</ele>
        <time>2021-04-04T16:30:52Z</time>
      </trkpt>
      <trkpt lat="43.45087814331055" lon="-3.8384299278259277">
        <ele>-17.71636199951172</ele>
        <time>2021-04-04T16:30:53Z</time>
      </trkpt>
      <trkpt lat="43.450904846191406" lon="-3.8383543491363525">
        <ele>-17.71636199951172</ele>
        <time>2021-04-04T16:30:54Z</time>
      </trkpt>
      <trkpt lat="43.450931549072266" lon="-3.838284969329834">
        <ele>-17.71636199951172</ele>
        <time>2021-04-04T16:30:55Z</time>
      </trkpt>
      <trkpt lat="43.450958251953125" lon="-3.8382151126861572">
        <ele>-17.71636199951172</ele>
        <time>2021-04-04T16:30:56Z</time>
      </trkpt>
      <trkpt lat="43.450984954833984" lon="-3.8381457328796387">
        <ele>-17.71636199951172</ele>
        <time>2021-04-04T16:30:57Z</time>
      </trkpt>
      <trkpt lat="43.451011657714844" lon="-3.8380720615386963">
        <ele>-17.71636199951172</ele>
        <time>2021-04-04T16:30:58Z</time>
      </trkpt>
      <trkpt lat="43.4510383605957" lon="-3.8379995822906494">
        <ele>-17.71636199951172</ele>
        <time>2021-04-04T16:30:59Z</time>
      </trkpt>
      <trkpt lat="43.45106506347656" lon="-3.8379287719726563">
        <ele>-17.71636199951172</ele>
        <time>2021-04-04T16:31:00Z</time>
      </trkpt>
      <trkpt lat="43.45109176635742" lon="-3.8378586769104004">
        <ele>-17.71636199951172</ele>
        <time>2021-04-04T16:31:01Z</time>
      </trkpt>
      <trkpt lat="43.45112228393555" lon="-3.8377883434295654">
        <ele>-17.71636199951172</ele>
        <time>2021-04-04T16:31:02Z</time>
      </trkpt>
      <trkpt lat="43.45115280151367" lon="-3.8377182483673096">
        <ele>-17.71636199951172</ele>
        <time>2021-04-04T16:31:03Z</time>
      </trkpt>
      <trkpt lat="43.45117950439453" lon="-3.8376479148864746">
        <ele>-17.71636199951172</ele>
        <time>2021-04-04T16:31:04Z</time>
      </trkpt>
      <trkpt lat="43.451210021972656" lon="-3.8375773429870605">
        <ele>-17.71636199951172</ele>
        <time>2021-04-04T16:31:05Z</time>
      </trkpt>
      <trkpt lat="43.45124053955078" lon="-3.8375067710876465">
        <ele>-17.71636199951172</ele>
        <time>2021-04-04T16:31:06Z</time>
      </trkpt>
      <trkpt lat="43.451271057128906" lon="-3.8374359607696533">
        <ele>-17.71636199951172</ele>
        <time>2021-04-04T16:31:07Z</time>
      </trkpt>
      <trkpt lat="43.451297760009766" lon="-3.8373653888702393">
        <ele>-17.71636199951172</ele>
        <time>2021-04-04T16:31:08Z</time>
      </trkpt>
      <trkpt lat="43.45132827758789" lon="-3.837294101715088">
        <ele>-17.71636199951172</ele>
        <time>2021-04-04T16:31:09Z</time>
      </trkpt>
      <trkpt lat="43.451358795166016" lon="-3.8372232913970947">
        <ele>-17.71636199951172</ele>
        <time>2021-04-04T16:31:10Z</time>
      </trkpt>
      <trkpt lat="43.45138931274414" lon="-3.8371520042419434">
        <ele>-17.71636199951172</ele>
        <time>2021-04-04T16:31:11Z</time>
      </trkpt>
      <trkpt lat="43.451416015625" lon="-3.837085723876953">
        <ele>-17.71636199951172</ele>
        <time>2021-04-04T16:31:12Z</time>
      </trkpt>
      <trkpt lat="43.451446533203125" lon="-3.837012767791748">
        <ele>-17.71636199951172</ele>
        <time>2021-04-04T16:31:13Z</time>
      </trkpt>
      <trkpt lat="43.451473236083984" lon="-3.836940288543701">
        <ele>-17.71636199951172</ele>
        <time>2021-04-04T16:31:14Z</time>
      </trkpt>
      <trkpt lat="43.45150375366211" lon="-3.8368687629699707">
        <ele>-17.71636199951172</ele>
        <time>2021-04-04T16:31:15Z</time>
      </trkpt>
      <trkpt lat="43.45153045654297" lon="-3.836801290512085">
        <ele>-17.71636199951172</ele>
        <time>2021-04-04T16:31:16Z</time>
      </trkpt>
      <trkpt lat="43.45155715942383" lon="-3.836726427078247">
        <ele>-17.71636199951172</ele>
        <time>2021-04-04T16:31:17Z</time>
      </trkpt>
      <trkpt lat="43.45158386230469" lon="-3.8366520404815674">
        <ele>-17.71636199951172</ele>
        <time>2021-04-04T16:31:18Z</time>
      </trkpt>
      <trkpt lat="43.45161056518555" lon="-3.836577892303467">
        <ele>-17.71636199951172</ele>
        <time>2021-04-04T16:31:19Z</time>
      </trkpt>
      <trkpt lat="43.451637268066406" lon="-3.836503744125366">
        <ele>-17.71636199951172</ele>
        <time>2021-04-04T16:31:20Z</time>
      </trkpt>
      <trkpt lat="43.451663970947266" lon="-3.836428642272949">
        <ele>-17.71636199951172</ele>
        <time>2021-04-04T16:31:21Z</time>
      </trkpt>
      <trkpt lat="43.451690673828125" lon="-3.836353063583374">
        <ele>-17.71636199951172</ele>
        <time>2021-04-04T16:31:22Z</time>
      </trkpt>
      <trkpt lat="43.45171356201172" lon="-3.8362820148468018">
        <ele>-17.71636199951172</ele>
        <time>2021-04-04T16:31:23Z</time>
      </trkpt>
      <trkpt lat="43.45174026489258" lon="-3.836209297180176">
        <ele>-17.71636199951172</ele>
        <time>2021-04-04T16:31:24Z</time>
      </trkpt>
      <trkpt lat="43.45176315307617" lon="-3.8361356258392334">
        <ele>-16.534543991088867</ele>
        <time>2021-04-04T16:31:25Z</time>
      </trkpt>
      <trkpt lat="43.45178985595703" lon="-3.836056709289551">
        <ele>-16.534543991088867</ele>
        <time>2021-04-04T16:31:26Z</time>
      </trkpt>
      <trkpt lat="43.451812744140625" lon="-3.835984230041504">
        <ele>-15.352725982666016</ele>
        <time>2021-04-04T16:31:27Z</time>
      </trkpt>
      <trkpt lat="43.45183563232422" lon="-3.835906982421875">
        <ele>-15.352725982666016</ele>
        <time>2021-04-04T16:31:28Z</time>
      </trkpt>
      <trkpt lat="43.45185852050781" lon="-3.8358304500579834">
        <ele>-15.352725982666016</ele>
        <time>2021-04-04T16:31:29Z</time>
      </trkpt>
      <trkpt lat="43.451881408691406" lon="-3.83575439453125">
        <ele>-15.352725982666016</ele>
        <time>2021-04-04T16:31:30Z</time>
      </trkpt>
      <trkpt lat="43.451900482177734" lon="-3.8356783390045166">
        <ele>-15.352725982666016</ele>
        <time>2021-04-04T16:31:31Z</time>
      </trkpt>
      <trkpt lat="43.45192337036133" lon="-3.8356029987335205">
        <ele>-14.170907974243164</ele>
        <time>2021-04-04T16:31:32Z</time>
      </trkpt>
      <trkpt lat="43.451942443847656" lon="-3.8355278968811035">
        <ele>-14.170907974243164</ele>
        <time>2021-04-04T16:31:33Z</time>
      </trkpt>
      <trkpt lat="43.451961517333984" lon="-3.8354532718658447">
        <ele>3.330453872680664</ele>
        <time>2021-04-04T16:31:34Z</time>
      </trkpt>
      <trkpt lat="43.45198440551758" lon="-3.8353776931762695">
        <ele>3.330453872680664</ele>
        <time>2021-04-04T16:31:35Z</time>
      </trkpt>
      <trkpt lat="43.452003479003906" lon="-3.8353025913238525">
        <ele>3.330453872680664</ele>
        <time>2021-04-04T16:31:36Z</time>
      </trkpt>
      <trkpt lat="43.4520263671875" lon="-3.83522629737854">
        <ele>3.330453872680664</ele>
        <time>2021-04-04T16:31:37Z</time>
      </trkpt>
      <trkpt lat="43.452049255371094" lon="-3.8351497650146484">
        <ele>3.330453872680664</ele>
        <time>2021-04-04T16:31:38Z</time>
      </trkpt>
      <trkpt lat="43.45207214355469" lon="-3.8350722789764404">
        <ele>3.330453872680664</ele>
        <time>2021-04-04T16:31:39Z</time>
      </trkpt>
      <trkpt lat="43.45209503173828" lon="-3.834994316101074">
        <ele>3.330453872680664</ele>
        <time>2021-04-04T16:31:40Z</time>
      </trkpt>
      <trkpt lat="43.452117919921875" lon="-3.834916353225708">
        <ele>3.330453872680664</ele>
        <time>2021-04-04T16:31:41Z</time>
      </trkpt>
      <trkpt lat="43.4521369934082" lon="-3.834838390350342">
        <ele>3.330453872680664</ele>
        <time>2021-04-04T16:31:42Z</time>
      </trkpt>
      <trkpt lat="43.45215606689453" lon="-3.8347599506378174">
        <ele>3.330453872680664</ele>
        <time>2021-04-04T16:31:43Z</time>
      </trkpt>
      <trkpt lat="43.452178955078125" lon="-3.834681272506714">
        <ele>3.330453872680664</ele>
        <time>2021-04-04T16:31:44Z</time>
      </trkpt>
      <trkpt lat="43.45220184326172" lon="-3.8346025943756104">
        <ele>2.1486358642578125</ele>
        <time>2021-04-04T16:31:45Z</time>
      </trkpt>
      <trkpt lat="43.45222473144531" lon="-3.834524631500244">
        <ele>2.1486358642578125</ele>
        <time>2021-04-04T16:31:46Z</time>
      </trkpt>
      <trkpt lat="43.45224380493164" lon="-3.834451913833618">
        <ele>2.1486358642578125</ele>
        <time>2021-04-04T16:31:47Z</time>
      </trkpt>
      <trkpt lat="43.452266693115234" lon="-3.8343727588653564">
        <ele>2.1486358642578125</ele>
        <time>2021-04-04T16:31:48Z</time>
      </trkpt>
      <trkpt lat="43.45228576660156" lon="-3.834294080734253">
        <ele>2.1486358642578125</ele>
        <time>2021-04-04T16:31:49Z</time>
      </trkpt>
      <trkpt lat="43.452308654785156" lon="-3.834216594696045">
        <ele>2.1486358642578125</ele>
        <time>2021-04-04T16:31:50Z</time>
      </trkpt>
      <trkpt lat="43.45233154296875" lon="-3.834139108657837">
        <ele>0.8759078979492188</ele>
        <time>2021-04-04T16:31:51Z</time>
      </trkpt>
      <trkpt lat="43.45235061645508" lon="-3.8340609073638916">
        <ele>0.8759078979492188</ele>
        <time>2021-04-04T16:31:52Z</time>
      </trkpt>
      <trkpt lat="43.45237350463867" lon="-3.8339879512786865">
        <ele>0.8759078979492188</ele>
        <time>2021-04-04T16:31:53Z</time>
      </trkpt>
      <trkpt lat="43.452392578125" lon="-3.833914279937744">
        <ele>0.8759078979492188</ele>
        <time>2021-04-04T16:31:54Z</time>
      </trkpt>
      <trkpt lat="43.452415466308594" lon="-3.833833932876587">
        <ele>0.8759078979492188</ele>
        <time>2021-04-04T16:31:55Z</time>
      </trkpt>
      <trkpt lat="43.45243453979492" lon="-3.8337557315826416">
        <ele>0.8759078979492188</ele>
        <time>2021-04-04T16:31:56Z</time>
      </trkpt>
      <trkpt lat="43.452457427978516" lon="-3.8336777687072754">
        <ele>-0.396820068359375</ele>
        <time>2021-04-04T16:31:57Z</time>
      </trkpt>
      <trkpt lat="43.45248031616211" lon="-3.8336002826690674">
        <ele>-0.396820068359375</ele>
        <time>2021-04-04T16:31:58Z</time>
      </trkpt>
      <trkpt lat="43.45249938964844" lon="-3.833523750305176">
        <ele>-0.396820068359375</ele>
        <time>2021-04-04T16:31:59Z</time>
      </trkpt>
      <trkpt lat="43.45252227783203" lon="-3.833446979522705">
        <ele>-0.396820068359375</ele>
        <time>2021-04-04T16:32:00Z</time>
      </trkpt>
      <trkpt lat="43.45254135131836" lon="-3.8333709239959717">
        <ele>-0.396820068359375</ele>
        <time>2021-04-04T16:32:01Z</time>
      </trkpt>
      <trkpt lat="43.45256042480469" lon="-3.8333001136779785">
        <ele>-0.396820068359375</ele>
        <time>2021-04-04T16:32:02Z</time>
      </trkpt>
      <trkpt lat="43.452579498291016" lon="-3.8332276344299316">
        <ele>-0.396820068359375</ele>
        <time>2021-04-04T16:32:03Z</time>
      </trkpt>
      <trkpt lat="43.45260238647461" lon="-3.8331496715545654">
        <ele>-0.396820068359375</ele>
        <time>2021-04-04T16:32:04Z</time>
      </trkpt>
      <trkpt lat="43.45262145996094" lon="-3.833073377609253">
        <ele>-0.396820068359375</ele>
        <time>2021-04-04T16:32:05Z</time>
      </trkpt>
      <trkpt lat="43.452640533447266" lon="-3.832998275756836">
        <ele>-0.396820068359375</ele>
        <time>2021-04-04T16:32:06Z</time>
      </trkpt>
      <trkpt lat="43.452659606933594" lon="-3.8329288959503174">
        <ele>-0.396820068359375</ele>
        <time>2021-04-04T16:32:07Z</time>
      </trkpt>
      <trkpt lat="43.45267868041992" lon="-3.8328592777252197">
        <ele>-0.396820068359375</ele>
        <time>2021-04-04T16:32:08Z</time>
      </trkpt>
      <trkpt lat="43.452701568603516" lon="-3.83278489112854">
        <ele>-0.396820068359375</ele>
        <time>2021-04-04T16:32:09Z</time>
      </trkpt>
      <trkpt lat="43.45271682739258" lon="-3.8327174186706543">
        <ele>-0.396820068359375</ele>
        <time>2021-04-04T16:32:10Z</time>
      </trkpt>
      <trkpt lat="43.452735900878906" lon="-3.8326449394226074">
        <ele>-0.396820068359375</ele>
        <time>2021-04-04T16:32:11Z</time>
      </trkpt>
      <trkpt lat="43.452754974365234" lon="-3.8325726985931396">
        <ele>-0.396820068359375</ele>
        <time>2021-04-04T16:32:12Z</time>
      </trkpt>
      <trkpt lat="43.45277404785156" lon="-3.832503318786621">
        <ele>-0.396820068359375</ele>
        <time>2021-04-04T16:32:13Z</time>
      </trkpt>
      <trkpt lat="43.452796936035156" lon="-3.832432270050049">
        <ele>-0.396820068359375</ele>
        <time>2021-04-04T16:32:14Z</time>
      </trkpt>
      <trkpt lat="43.452816009521484" lon="-3.8323662281036377">
        <ele>-0.396820068359375</ele>
        <time>2021-04-04T16:32:15Z</time>
      </trkpt>
      <trkpt lat="43.452857971191406" lon="-3.8322203159332275">
        <ele>-0.396820068359375</ele>
        <time>2021-04-04T16:32:17Z</time>
      </trkpt>
      <trkpt lat="43.452880859375" lon="-3.832145929336548">
        <ele>-0.396820068359375</ele>
        <time>2021-04-04T16:32:18Z</time>
      </trkpt>
      <trkpt lat="43.452903747558594" lon="-3.8320705890655518">
        <ele>-0.396820068359375</ele>
        <time>2021-04-04T16:32:19Z</time>
      </trkpt>
      <trkpt lat="43.45292663574219" lon="-3.83199405670166">
        <ele>-0.396820068359375</ele>
        <time>2021-04-04T16:32:20Z</time>
      </trkpt>
      <trkpt lat="43.45294952392578" lon="-3.831916570663452">
        <ele>-0.396820068359375</ele>
        <time>2021-04-04T16:32:21Z</time>
      </trkpt>
      <trkpt lat="43.45296859741211" lon="-3.831838369369507">
        <ele>-0.396820068359375</ele>
        <time>2021-04-04T16:32:22Z</time>
      </trkpt>
      <trkpt lat="43.4529914855957" lon="-3.8317596912384033">
        <ele>-0.396820068359375</ele>
        <time>2021-04-04T16:32:23Z</time>
      </trkpt>
      <trkpt lat="43.4530143737793" lon="-3.831681728363037">
        <ele>-0.396820068359375</ele>
        <time>2021-04-04T16:32:24Z</time>
      </trkpt>
      <trkpt lat="43.453033447265625" lon="-3.831604242324829">
        <ele>-0.396820068359375</ele>
        <time>2021-04-04T16:32:25Z</time>
      </trkpt>
      <trkpt lat="43.45305633544922" lon="-3.8315279483795166">
        <ele>-0.396820068359375</ele>
        <time>2021-04-04T16:32:26Z</time>
      </trkpt>
      <trkpt lat="43.45307922363281" lon="-3.8314526081085205">
        <ele>-0.396820068359375</ele>
        <time>2021-04-04T16:32:27Z</time>
      </trkpt>
      <trkpt lat="43.45309829711914" lon="-3.8313796520233154">
        <ele>-0.396820068359375</ele>
        <time>2021-04-04T16:32:28Z</time>
      </trkpt>
      <trkpt lat="43.453121185302734" lon="-3.831307888031006">
        <ele>-0.396820068359375</ele>
        <time>2021-04-04T16:32:29Z</time>
      </trkpt>
      <trkpt lat="43.45314407348633" lon="-3.831238031387329">
        <ele>-0.396820068359375</ele>
        <time>2021-04-04T16:32:30Z</time>
      </trkpt>
      <trkpt lat="43.45317077636719" lon="-3.8311684131622314">
        <ele>1.1486339569091797</ele>
        <time>2021-04-04T16:32:31Z</time>
      </trkpt>
      <trkpt lat="43.45319366455078" lon="-3.8310999870300293">
        <ele>2.8759069442749023</ele>
        <time>2021-04-04T16:32:32Z</time>
      </trkpt>
      <trkpt lat="43.453216552734375" lon="-3.831031560897827">
        <ele>2.8759069442749023</ele>
        <time>2021-04-04T16:32:33Z</time>
      </trkpt>
      <trkpt lat="43.45323944091797" lon="-3.8309643268585205">
        <ele>4.421361923217773</ele>
        <time>2021-04-04T16:32:34Z</time>
      </trkpt>
      <trkpt lat="43.45326232910156" lon="-3.8308966159820557">
        <ele>4.421361923217773</ele>
        <time>2021-04-04T16:32:35Z</time>
      </trkpt>
      <trkpt lat="43.453285217285156" lon="-3.8308300971984863">
        <ele>5.875907897949219</ele>
        <time>2021-04-04T16:32:36Z</time>
      </trkpt>
      <trkpt lat="43.453304290771484" lon="-3.830763339996338">
        <ele>5.875907897949219</ele>
        <time>2021-04-04T16:32:37Z</time>
      </trkpt>
      <trkpt lat="43.45332336425781" lon="-3.8306970596313477">
        <ele>5.875907897949219</ele>
        <time>2021-04-04T16:32:38Z</time>
      </trkpt>
      <trkpt lat="43.45334243774414" lon="-3.8306312561035156">
        <ele>7.05772590637207</ele>
        <time>2021-04-04T16:32:39Z</time>
      </trkpt>
      <trkpt lat="43.45336151123047" lon="-3.830566883087158">
        <ele>7.05772590637207</ele>
        <time>2021-04-04T16:32:40Z</time>
      </trkpt>
      <trkpt lat="43.453399658203125" lon="-3.8304402828216553">
        <ele>7.05772590637207</ele>
        <time>2021-04-04T16:32:42Z</time>
      </trkpt>
      <trkpt lat="43.45341873168945" lon="-3.8303816318511963">
        <ele>8.239543914794922</ele>
        <time>2021-04-04T16:32:43Z</time>
      </trkpt>
      <trkpt lat="43.453453063964844" lon="-3.830254316329956">
        <ele>8.239543914794922</ele>
        <time>2021-04-04T16:32:45Z</time>
      </trkpt>
      <trkpt lat="43.453487396240234" lon="-3.8301286697387695">
        <ele>9.5122709274292</ele>
        <time>2021-04-04T16:32:47Z</time>
      </trkpt>
      <trkpt lat="43.453521728515625" lon="-3.830004930496216">
        <ele>9.5122709274292</ele>
        <time>2021-04-04T16:32:49Z</time>
      </trkpt>
      <trkpt lat="43.453556060791016" lon="-3.829885244369507">
        <ele>9.5122709274292</ele>
        <time>2021-04-04T16:32:51Z</time>
      </trkpt>
      <trkpt lat="43.45358657836914" lon="-3.829772710800171">
        <ele>9.5122709274292</ele>
        <time>2021-04-04T16:32:53Z</time>
      </trkpt>
      <trkpt lat="43.45362091064453" lon="-3.8296549320220947">
        <ele>9.5122709274292</ele>
        <time>2021-04-04T16:32:55Z</time>
      </trkpt>
      <trkpt lat="43.453651428222656" lon="-3.8295373916625977">
        <ele>9.5122709274292</ele>
        <time>2021-04-04T16:32:57Z</time>
      </trkpt>
      <trkpt lat="43.45366668701172" lon="-3.8294780254364014">
        <ele>9.5122709274292</ele>
        <time>2021-04-04T16:32:58Z</time>
      </trkpt>
      <trkpt lat="43.45368957519531" lon="-3.8293635845184326">
        <ele>9.5122709274292</ele>
        <time>2021-04-04T16:33:00Z</time>
      </trkpt>
      <trkpt lat="43.45370864868164" lon="-3.8292782306671143">
        <ele>9.5122709274292</ele>
        <time>2021-04-04T16:33:02Z</time>
      </trkpt>
      <trkpt lat="43.45371627807617" lon="-3.8292040824890137">
        <ele>9.5122709274292</ele>
        <time>2021-04-04T16:33:04Z</time>
      </trkpt>
      <trkpt lat="43.45370864868164" lon="-3.8291163444519043">
        <ele>9.5122709274292</ele>
        <time>2021-04-04T16:33:06Z</time>
      </trkpt>
      <trkpt lat="43.45368576049805" lon="-3.8290116786956787">
        <ele>9.5122709274292</ele>
        <time>2021-04-04T16:33:08Z</time>
      </trkpt>
      <trkpt lat="43.45366287231445" lon="-3.828890562057495">
        <ele>9.5122709274292</ele>
        <time>2021-04-04T16:33:10Z</time>
      </trkpt>
      <trkpt lat="43.45366287231445" lon="-3.82875394821167">
        <ele>9.5122709274292</ele>
        <time>2021-04-04T16:33:12Z</time>
      </trkpt>
      <trkpt lat="43.45372009277344" lon="-3.8285655975341797">
        <ele>9.5122709274292</ele>
        <time>2021-04-04T16:33:15Z</time>
      </trkpt>
      <trkpt lat="43.45375061035156" lon="-3.8285157680511475">
        <ele>8.330452919006348</ele>
        <time>2021-04-04T16:33:16Z</time>
      </trkpt>
      <trkpt lat="43.45383071899414" lon="-3.828434944152832">
        <ele>8.330452919006348</ele>
        <time>2021-04-04T16:33:18Z</time>
      </trkpt>
      <trkpt lat="43.45387268066406" lon="-3.8283965587615967">
        <ele>8.330452919006348</ele>
        <time>2021-04-04T16:33:19Z</time>
      </trkpt>
      <trkpt lat="43.45391845703125" lon="-3.8283579349517822">
        <ele>8.330452919006348</ele>
        <time>2021-04-04T16:33:20Z</time>
      </trkpt>
      <trkpt lat="43.45396041870117" lon="-3.8283159732818604">
        <ele>8.330452919006348</ele>
        <time>2021-04-04T16:33:21Z</time>
      </trkpt>
      <trkpt lat="43.454002380371094" lon="-3.8282697200775146">
        <ele>8.330452919006348</ele>
        <time>2021-04-04T16:33:22Z</time>
      </trkpt>
      <trkpt lat="43.454071044921875" lon="-3.8281662464141846">
        <ele>8.330452919006348</ele>
        <time>2021-04-04T16:33:24Z</time>
      </trkpt>
      <trkpt lat="43.4541015625" lon="-3.8281073570251465">
        <ele>9.603179931640625</ele>
        <time>2021-04-04T16:33:25Z</time>
      </trkpt>
      <trkpt lat="43.45412826538086" lon="-3.828050374984741">
        <ele>9.603179931640625</ele>
        <time>2021-04-04T16:33:26Z</time>
      </trkpt>
      <trkpt lat="43.45418930053711" lon="-3.827929735183716">
        <ele>9.603179931640625</ele>
        <time>2021-04-04T16:33:28Z</time>
      </trkpt>
      <trkpt lat="43.4542236328125" lon="-3.8278744220733643">
        <ele>10.875906944274902</ele>
        <time>2021-04-04T16:33:29Z</time>
      </trkpt>
      <trkpt lat="43.454261779785156" lon="-3.827822685241699">
        <ele>10.875906944274902</ele>
        <time>2021-04-04T16:33:30Z</time>
      </trkpt>
      <trkpt lat="43.45429992675781" lon="-3.827775239944458">
        <ele>12.239543914794922</ele>
        <time>2021-04-04T16:33:31Z</time>
      </trkpt>
      <trkpt lat="43.45433807373047" lon="-3.8277313709259033">
        <ele>12.239543914794922</ele>
        <time>2021-04-04T16:33:32Z</time>
      </trkpt>
      <trkpt lat="43.45442581176758" lon="-3.8276562690734863">
        <ele>13.421361923217773</ele>
        <time>2021-04-04T16:33:34Z</time>
      </trkpt>
      <trkpt lat="43.454471588134766" lon="-3.827624559402466">
        <ele>13.421361923217773</ele>
        <time>2021-04-04T16:33:35Z</time>
      </trkpt>
      <trkpt lat="43.45456314086914" lon="-3.8275742530822754">
        <ele>14.603179931640625</ele>
        <time>2021-04-04T16:33:37Z</time>
      </trkpt>
      <trkpt lat="43.45465850830078" lon="-3.8275349140167236">
        <ele>14.603179931640625</ele>
        <time>2021-04-04T16:33:39Z</time>
      </trkpt>
      <trkpt lat="43.45470428466797" lon="-3.82751727104187">
        <ele>14.603179931640625</ele>
        <time>2021-04-04T16:33:40Z</time>
      </trkpt>
      <trkpt lat="43.45479202270508" lon="-3.827488422393799">
        <ele>15.784997940063477</ele>
        <time>2021-04-04T16:33:42Z</time>
      </trkpt>
      <trkpt lat="43.45487594604492" lon="-3.8274660110473633">
        <ele>15.784997940063477</ele>
        <time>2021-04-04T16:33:44Z</time>
      </trkpt>
      <trkpt lat="43.454952239990234" lon="-3.8274474143981934">
        <ele>17.057723999023438</ele>
        <time>2021-04-04T16:33:46Z</time>
      </trkpt>
      <trkpt lat="43.45502853393555" lon="-3.8274285793304443">
        <ele>17.057723999023438</ele>
        <time>2021-04-04T16:33:48Z</time>
      </trkpt>
      <trkpt lat="43.45509719848633" lon="-3.827409267425537">
        <ele>18.33045196533203</ele>
        <time>2021-04-04T16:33:50Z</time>
      </trkpt>
      <trkpt lat="43.45516586303711" lon="-3.8273937702178955">
        <ele>18.33045196533203</ele>
        <time>2021-04-04T16:33:52Z</time>
      </trkpt>
      <trkpt lat="43.455230712890625" lon="-3.8273820877075195">
        <ele>19.512269973754883</ele>
        <time>2021-04-04T16:33:54Z</time>
      </trkpt>
      <trkpt lat="43.455299377441406" lon="-3.827364921569824">
        <ele>19.512269973754883</ele>
        <time>2021-04-04T16:33:56Z</time>
      </trkpt>
      <trkpt lat="43.45536804199219" lon="-3.8273513317108154">
        <ele>19.512269973754883</ele>
        <time>2021-04-04T16:33:58Z</time>
      </trkpt>
      <trkpt lat="43.4554328918457" lon="-3.827338695526123">
        <ele>20.784997940063477</ele>
        <time>2021-04-04T16:34:00Z</time>
      </trkpt>
      <trkpt lat="43.45549774169922" lon="-3.8273210525512695">
        <ele>20.784997940063477</ele>
        <time>2021-04-04T16:34:02Z</time>
      </trkpt>
      <trkpt lat="43.455562591552734" lon="-3.827302932739258">
        <ele>20.784997940063477</ele>
        <time>2021-04-04T16:34:04Z</time>
      </trkpt>
      <trkpt lat="43.45563888549805" lon="-3.8272807598114014">
        <ele>22.14863395690918</ele>
        <time>2021-04-04T16:34:06Z</time>
      </trkpt>
      <trkpt lat="43.455711364746094" lon="-3.8272550106048584">
        <ele>22.14863395690918</ele>
        <time>2021-04-04T16:34:08Z</time>
      </trkpt>
      <trkpt lat="43.455787658691406" lon="-3.8272271156311035">
        <ele>22.14863395690918</ele>
        <time>2021-04-04T16:34:10Z</time>
      </trkpt>
      <trkpt lat="43.45585632324219" lon="-3.8271989822387695">
        <ele>23.42136001586914</ele>
        <time>2021-04-04T16:34:12Z</time>
      </trkpt>
      <trkpt lat="43.45591735839844" lon="-3.8271772861480713">
        <ele>23.42136001586914</ele>
        <time>2021-04-04T16:34:14Z</time>
      </trkpt>
      <trkpt lat="43.45597839355469" lon="-3.8271546363830566">
        <ele>24.603179931640625</ele>
        <time>2021-04-04T16:34:16Z</time>
      </trkpt>
      <trkpt lat="43.4560432434082" lon="-3.827131986618042">
        <ele>24.603179931640625</ele>
        <time>2021-04-04T16:34:18Z</time>
      </trkpt>
      <trkpt lat="43.45609664916992" lon="-3.827113389968872">
        <ele>25.966815948486328</ele>
        <time>2021-04-04T16:34:20Z</time>
      </trkpt>
      <trkpt lat="43.456153869628906" lon="-3.8270950317382813">
        <ele>25.966815948486328</ele>
        <time>2021-04-04T16:34:22Z</time>
      </trkpt>
      <trkpt lat="43.456214904785156" lon="-3.827075958251953">
        <ele>27.33045196533203</ele>
        <time>2021-04-04T16:34:24Z</time>
      </trkpt>
      <trkpt lat="43.45627212524414" lon="-3.8270559310913086">
        <ele>27.33045196533203</ele>
        <time>2021-04-04T16:34:26Z</time>
      </trkpt>
      <trkpt lat="43.45633316040039" lon="-3.8270342350006104">
        <ele>28.51226806640625</ele>
        <time>2021-04-04T16:34:28Z</time>
      </trkpt>
      <trkpt lat="43.45639419555664" lon="-3.827017307281494">
        <ele>28.51226806640625</ele>
        <time>2021-04-04T16:34:30Z</time>
      </trkpt>
      <trkpt lat="43.45645523071289" lon="-3.8269999027252197">
        <ele>28.51226806640625</ele>
        <time>2021-04-04T16:34:32Z</time>
      </trkpt>
      <trkpt lat="43.456520080566406" lon="-3.826976776123047">
        <ele>28.51226806640625</ele>
        <time>2021-04-04T16:34:34Z</time>
      </trkpt>
      <trkpt lat="43.45658493041992" lon="-3.826948642730713">
        <ele>28.51226806640625</ele>
        <time>2021-04-04T16:34:36Z</time>
      </trkpt>
      <trkpt lat="43.45664978027344" lon="-3.826918363571167">
        <ele>29.875904083251953</ele>
        <time>2021-04-04T16:34:38Z</time>
      </trkpt>
      <trkpt lat="43.45671463012695" lon="-3.8268885612487793">
        <ele>29.875904083251953</ele>
        <time>2021-04-04T16:34:40Z</time>
      </trkpt>
      <trkpt lat="43.45677947998047" lon="-3.82685923576355">
        <ele>29.875904083251953</ele>
        <time>2021-04-04T16:34:42Z</time>
      </trkpt>
      <trkpt lat="43.45684051513672" lon="-3.826829433441162">
        <ele>31.3304500579834</ele>
        <time>2021-04-04T16:34:44Z</time>
      </trkpt>
      <trkpt lat="43.456905364990234" lon="-3.8267970085144043">
        <ele>31.3304500579834</ele>
        <time>2021-04-04T16:34:46Z</time>
      </trkpt>
      <trkpt lat="43.45697021484375" lon="-3.826770782470703">
        <ele>32.51226806640625</ele>
        <time>2021-04-04T16:34:48Z</time>
      </trkpt>
      <trkpt lat="43.457035064697266" lon="-3.826747417449951">
        <ele>32.51226806640625</ele>
        <time>2021-04-04T16:34:50Z</time>
      </trkpt>
      <trkpt lat="43.45710372924805" lon="-3.826721429824829">
        <ele>32.51226806640625</ele>
        <time>2021-04-04T16:34:52Z</time>
      </trkpt>
      <trkpt lat="43.457176208496094" lon="-3.8266942501068115">
        <ele>33.87590408325195</ele>
        <time>2021-04-04T16:34:54Z</time>
      </trkpt>
      <trkpt lat="43.457244873046875" lon="-3.8266682624816895">
        <ele>33.87590408325195</ele>
        <time>2021-04-04T16:34:56Z</time>
      </trkpt>
      <trkpt lat="43.457313537597656" lon="-3.826643228530884">
        <ele>33.87590408325195</ele>
        <time>2021-04-04T16:34:58Z</time>
      </trkpt>
      <trkpt lat="43.4573860168457" lon="-3.826620578765869">
        <ele>35.05772399902344</ele>
        <time>2021-04-04T16:35:00Z</time>
      </trkpt>
      <trkpt lat="43.457454681396484" lon="-3.826598882675171">
        <ele>35.05772399902344</ele>
        <time>2021-04-04T16:35:02Z</time>
      </trkpt>
      <trkpt lat="43.457523345947266" lon="-3.8265769481658936">
        <ele>35.05772399902344</ele>
        <time>2021-04-04T16:35:04Z</time>
      </trkpt>
      <trkpt lat="43.45759582519531" lon="-3.8265540599823">
        <ele>35.05772399902344</ele>
        <time>2021-04-04T16:35:06Z</time>
      </trkpt>
      <trkpt lat="43.457664489746094" lon="-3.8265292644500732">
        <ele>36.239540100097656</ele>
        <time>2021-04-04T16:35:08Z</time>
      </trkpt>
      <trkpt lat="43.45773696899414" lon="-3.8265087604522705">
        <ele>37.60317611694336</ele>
        <time>2021-04-04T16:35:10Z</time>
      </trkpt>
      <trkpt lat="43.457801818847656" lon="-3.826486349105835">
        <ele>37.60317611694336</ele>
        <time>2021-04-04T16:35:12Z</time>
      </trkpt>
      <trkpt lat="43.45787048339844" lon="-3.826467752456665">
        <ele>37.60317611694336</ele>
        <time>2021-04-04T16:35:14Z</time>
      </trkpt>
      <trkpt lat="43.45793914794922" lon="-3.8264479637145996">
        <ele>37.60317611694336</ele>
        <time>2021-04-04T16:35:16Z</time>
      </trkpt>
      <trkpt lat="43.4580078125" lon="-3.8264260292053223">
        <ele>37.60317611694336</ele>
        <time>2021-04-04T16:35:18Z</time>
      </trkpt>
      <trkpt lat="43.45807647705078" lon="-3.826402425765991">
        <ele>37.60317611694336</ele>
        <time>2021-04-04T16:35:20Z</time>
      </trkpt>
      <trkpt lat="43.45814895629883" lon="-3.826380729675293">
        <ele>37.60317611694336</ele>
        <time>2021-04-04T16:35:22Z</time>
      </trkpt>
      <trkpt lat="43.45821762084961" lon="-3.826350688934326">
        <ele>37.60317611694336</ele>
        <time>2021-04-04T16:35:24Z</time>
      </trkpt>
      <trkpt lat="43.45827865600586" lon="-3.826303720474243">
        <ele>37.60317611694336</ele>
        <time>2021-04-04T16:35:26Z</time>
      </trkpt>
      <trkpt lat="43.458343505859375" lon="-3.826240062713623">
        <ele>37.60317611694336</ele>
        <time>2021-04-04T16:35:28Z</time>
      </trkpt>
      <trkpt lat="43.45842361450195" lon="-3.826179027557373">
        <ele>37.60317611694336</ele>
        <time>2021-04-04T16:35:30Z</time>
      </trkpt>
      <trkpt lat="43.4585075378418" lon="-3.8261425495147705">
        <ele>37.60317611694336</ele>
        <time>2021-04-04T16:35:32Z</time>
      </trkpt>
      <trkpt lat="43.45859146118164" lon="-3.8261559009552">
        <ele>37.60317611694336</ele>
        <time>2021-04-04T16:35:34Z</time>
      </trkpt>
      <trkpt lat="43.45866394042969" lon="-3.8262157440185547">
        <ele>37.60317611694336</ele>
        <time>2021-04-04T16:35:36Z</time>
      </trkpt>
      <trkpt lat="43.4587287902832" lon="-3.8262860774993896">
        <ele>38.96681213378906</ele>
        <time>2021-04-04T16:35:38Z</time>
      </trkpt>
      <trkpt lat="43.45879364013672" lon="-3.826349973678589">
        <ele>38.96681213378906</ele>
        <time>2021-04-04T16:35:40Z</time>
      </trkpt>
      <trkpt lat="43.45884704589844" lon="-3.8264009952545166">
        <ele>40.14862823486328</ele>
        <time>2021-04-04T16:35:42Z</time>
      </trkpt>
      <trkpt lat="43.45888137817383" lon="-3.8264477252960205">
        <ele>40.14862823486328</ele>
        <time>2021-04-04T16:35:45Z</time>
      </trkpt>
      <trkpt lat="43.458885192871094" lon="-3.826530933380127">
        <ele>41.51226806640625</ele>
        <time>2021-04-04T16:36:09Z</time>
      </trkpt>
      <trkpt lat="43.45897674560547" lon="-3.826554775238037">
        <ele>41.51226806640625</ele>
        <time>2021-04-04T16:36:12Z</time>
      </trkpt>
      <trkpt lat="43.45905303955078" lon="-3.826577663421631">
        <ele>41.51226806640625</ele>
        <time>2021-04-04T16:36:14Z</time>
      </trkpt>
      <trkpt lat="43.45912551879883" lon="-3.8266143798828125">
        <ele>42.87590026855469</ele>
        <time>2021-04-04T16:36:16Z</time>
      </trkpt>
      <trkpt lat="43.4592170715332" lon="-3.8266353607177734">
        <ele>42.87590026855469</ele>
        <time>2021-04-04T16:36:18Z</time>
      </trkpt>
      <trkpt lat="43.45926284790039" lon="-3.8266329765319824">
        <ele>42.87590026855469</ele>
        <time>2021-04-04T16:36:19Z</time>
      </trkpt>
      <trkpt lat="43.45935821533203" lon="-3.8266077041625977">
        <ele>42.87590026855469</ele>
        <time>2021-04-04T16:36:21Z</time>
      </trkpt>
      <trkpt lat="43.45945739746094" lon="-3.826568603515625">
        <ele>42.87590026855469</ele>
        <time>2021-04-04T16:36:23Z</time>
      </trkpt>
      <trkpt lat="43.45954132080078" lon="-3.826524257659912">
        <ele>42.87590026855469</ele>
        <time>2021-04-04T16:36:25Z</time>
      </trkpt>
      <trkpt lat="43.45961380004883" lon="-3.82647705078125">
        <ele>42.87590026855469</ele>
        <time>2021-04-04T16:36:27Z</time>
      </trkpt>
      <trkpt lat="43.45967483520508" lon="-3.826430320739746">
        <ele>42.87590026855469</ele>
        <time>2021-04-04T16:36:29Z</time>
      </trkpt>
      <trkpt lat="43.45972442626953" lon="-3.8263907432556152">
        <ele>42.87590026855469</ele>
        <time>2021-04-04T16:36:31Z</time>
      </trkpt>
      <trkpt lat="43.45976257324219" lon="-3.8263585567474365">
        <ele>42.87590026855469</ele>
        <time>2021-04-04T16:36:33Z</time>
      </trkpt>
      <trkpt lat="43.459800720214844" lon="-3.826324701309204">
        <ele>42.87590026855469</ele>
        <time>2021-04-04T16:36:36Z</time>
      </trkpt>
      <trkpt lat="43.45991516113281" lon="-3.8262240886688232">
        <ele>42.87590026855469</ele>
        <time>2021-04-04T16:36:40Z</time>
      </trkpt>
      <trkpt lat="43.46001052856445" lon="-3.826141357421875">
        <ele>44.330448150634766</ele>
        <time>2021-04-04T16:36:43Z</time>
      </trkpt>
      <trkpt lat="43.46010208129883" lon="-3.826061964035034">
        <ele>44.330448150634766</ele>
        <time>2021-04-04T16:36:45Z</time>
      </trkpt>
      <trkpt lat="43.46015167236328" lon="-3.8260183334350586">
        <ele>44.330448150634766</ele>
        <time>2021-04-04T16:36:46Z</time>
      </trkpt>
      <trkpt lat="43.46019744873047" lon="-3.8259782791137695">
        <ele>44.330448150634766</ele>
        <time>2021-04-04T16:36:47Z</time>
      </trkpt>
      <trkpt lat="43.46025466918945" lon="-3.825927972793579">
        <ele>44.330448150634766</ele>
        <time>2021-04-04T16:36:48Z</time>
      </trkpt>
      <trkpt lat="43.460304260253906" lon="-3.825880765914917">
        <ele>45.60317611694336</ele>
        <time>2021-04-04T16:36:49Z</time>
      </trkpt>
      <trkpt lat="43.46035385131836" lon="-3.8258349895477295">
        <ele>45.60317611694336</ele>
        <time>2021-04-04T16:36:50Z</time>
      </trkpt>
      <trkpt lat="43.46040725708008" lon="-3.8257896900177">
        <ele>45.60317611694336</ele>
        <time>2021-04-04T16:36:51Z</time>
      </trkpt>
      <trkpt lat="43.4604606628418" lon="-3.825741767883301">
        <ele>45.60317611694336</ele>
        <time>2021-04-04T16:36:52Z</time>
      </trkpt>
      <trkpt lat="43.46051788330078" lon="-3.825693368911743">
        <ele>45.60317611694336</ele>
        <time>2021-04-04T16:36:53Z</time>
      </trkpt>
      <trkpt lat="43.460567474365234" lon="-3.8256490230560303">
        <ele>45.60317611694336</ele>
        <time>2021-04-04T16:36:54Z</time>
      </trkpt>
      <trkpt lat="43.46062088012695" lon="-3.82560396194458">
        <ele>45.60317611694336</ele>
        <time>2021-04-04T16:36:55Z</time>
      </trkpt>
      <trkpt lat="43.460670471191406" lon="-3.825557231903076">
        <ele>44.05772399902344</ele>
        <time>2021-04-04T16:36:56Z</time>
      </trkpt>
      <trkpt lat="43.46071243286133" lon="-3.8255107402801514">
        <ele>44.05772399902344</ele>
        <time>2021-04-04T16:36:57Z</time>
      </trkpt>
      <trkpt lat="43.46075439453125" lon="-3.8254623413085938">
        <ele>42.784996032714844</ele>
        <time>2021-04-04T16:36:58Z</time>
      </trkpt>
      <trkpt lat="43.460792541503906" lon="-3.825416088104248">
        <ele>42.784996032714844</ele>
        <time>2021-04-04T16:36:59Z</time>
      </trkpt>
      <trkpt lat="43.4608268737793" lon="-3.825369358062744">
        <ele>41.60317611694336</ele>
        <time>2021-04-04T16:37:00Z</time>
      </trkpt>
      <trkpt lat="43.46088790893555" lon="-3.8252675533294678">
        <ele>41.60317611694336</ele>
        <time>2021-04-04T16:37:02Z</time>
      </trkpt>
      <trkpt lat="43.46091842651367" lon="-3.825209379196167">
        <ele>41.60317611694336</ele>
        <time>2021-04-04T16:37:03Z</time>
      </trkpt>
      <trkpt lat="43.46097183227539" lon="-3.8250696659088135">
        <ele>40.330448150634766</ele>
        <time>2021-04-04T16:37:05Z</time>
      </trkpt>
      <trkpt lat="43.46099853515625" lon="-3.8249893188476563">
        <ele>40.330448150634766</ele>
        <time>2021-04-04T16:37:06Z</time>
      </trkpt>
      <trkpt lat="43.46102523803711" lon="-3.8249011039733887">
        <ele>40.330448150634766</ele>
        <time>2021-04-04T16:37:07Z</time>
      </trkpt>
      <trkpt lat="43.461055755615234" lon="-3.824808359146118">
        <ele>40.330448150634766</ele>
        <time>2021-04-04T16:37:08Z</time>
      </trkpt>
      <trkpt lat="43.46107482910156" lon="-3.8247203826904297">
        <ele>40.330448150634766</ele>
        <time>2021-04-04T16:37:09Z</time>
      </trkpt>
      <trkpt lat="43.461090087890625" lon="-3.8246309757232666">
        <ele>40.330448150634766</ele>
        <time>2021-04-04T16:37:10Z</time>
      </trkpt>
      <trkpt lat="43.46110153198242" lon="-3.8245463371276855">
        <ele>40.330448150634766</ele>
        <time>2021-04-04T16:37:11Z</time>
      </trkpt>
      <trkpt lat="43.46111297607422" lon="-3.824460744857788">
        <ele>40.330448150634766</ele>
        <time>2021-04-04T16:37:12Z</time>
      </trkpt>
      <trkpt lat="43.46113204956055" lon="-3.824368715286255">
        <ele>40.330448150634766</ele>
        <time>2021-04-04T16:37:13Z</time>
      </trkpt>
      <trkpt lat="43.46114730834961" lon="-3.8242759704589844">
        <ele>40.330448150634766</ele>
        <time>2021-04-04T16:37:14Z</time>
      </trkpt>
      <trkpt lat="43.46116256713867" lon="-3.8241899013519287">
        <ele>40.330448150634766</ele>
        <time>2021-04-04T16:37:15Z</time>
      </trkpt>
      <trkpt lat="43.461185455322266" lon="-3.824099063873291">
        <ele>38.96681213378906</ele>
        <time>2021-04-04T16:37:16Z</time>
      </trkpt>
      <trkpt lat="43.46120071411133" lon="-3.8240103721618652">
        <ele>38.96681213378906</ele>
        <time>2021-04-04T16:37:17Z</time>
      </trkpt>
      <trkpt lat="43.461219787597656" lon="-3.8239243030548096">
        <ele>38.96681213378906</ele>
        <time>2021-04-04T16:37:18Z</time>
      </trkpt>
      <trkpt lat="43.46123504638672" lon="-3.8238413333892822">
        <ele>38.96681213378906</ele>
        <time>2021-04-04T16:37:19Z</time>
      </trkpt>
      <trkpt lat="43.46125030517578" lon="-3.823760747909546">
        <ele>37.784996032714844</ele>
        <time>2021-04-04T16:37:20Z</time>
      </trkpt>
      <trkpt lat="43.461265563964844" lon="-3.8236870765686035">
        <ele>37.784996032714844</ele>
        <time>2021-04-04T16:37:21Z</time>
      </trkpt>
      <trkpt lat="43.461280822753906" lon="-3.8236145973205566">
        <ele>37.784996032714844</ele>
        <time>2021-04-04T16:37:22Z</time>
      </trkpt>
      <trkpt lat="43.461299896240234" lon="-3.823537588119507">
        <ele>36.421356201171875</ele>
        <time>2021-04-04T16:37:23Z</time>
      </trkpt>
      <trkpt lat="43.46131896972656" lon="-3.823457717895508">
        <ele>36.421356201171875</ele>
        <time>2021-04-04T16:37:24Z</time>
      </trkpt>
      <trkpt lat="43.46133804321289" lon="-3.823383092880249">
        <ele>34.96681213378906</ele>
        <time>2021-04-04T16:37:25Z</time>
      </trkpt>
      <trkpt lat="43.46135330200195" lon="-3.823312997817993">
        <ele>34.96681213378906</ele>
        <time>2021-04-04T16:37:26Z</time>
      </trkpt>
      <trkpt lat="43.46137237548828" lon="-3.8232383728027344">
        <ele>33.69408416748047</ele>
        <time>2021-04-04T16:37:27Z</time>
      </trkpt>
      <trkpt lat="43.46139144897461" lon="-3.8231654167175293">
        <ele>33.69408416748047</ele>
        <time>2021-04-04T16:37:28Z</time>
      </trkpt>
      <trkpt lat="43.46141052246094" lon="-3.8230929374694824">
        <ele>33.69408416748047</ele>
        <time>2021-04-04T16:37:29Z</time>
      </trkpt>
      <trkpt lat="43.46142578125" lon="-3.823028564453125">
        <ele>33.69408416748047</ele>
        <time>2021-04-04T16:37:30Z</time>
      </trkpt>
      <trkpt lat="43.461448669433594" lon="-3.822964906692505">
        <ele>33.69408416748047</ele>
        <time>2021-04-04T16:37:31Z</time>
      </trkpt>
      <trkpt lat="43.46146774291992" lon="-3.822903633117676">
        <ele>33.69408416748047</ele>
        <time>2021-04-04T16:37:32Z</time>
      </trkpt>
      <trkpt lat="43.461509704589844" lon="-3.822786331176758">
        <ele>33.69408416748047</ele>
        <time>2021-04-04T16:37:34Z</time>
      </trkpt>
      <trkpt lat="43.46152877807617" lon="-3.8226659297943115">
        <ele>35.14862823486328</ele>
        <time>2021-04-04T16:37:36Z</time>
      </trkpt>
      <trkpt lat="43.4615364074707" lon="-3.8225290775299072">
        <ele>35.14862823486328</ele>
        <time>2021-04-04T16:37:38Z</time>
      </trkpt>
      <trkpt lat="43.461544036865234" lon="-3.822373628616333">
        <ele>36.330448150634766</ele>
        <time>2021-04-04T16:37:40Z</time>
      </trkpt>
      <trkpt lat="43.461551666259766" lon="-3.8222906589508057">
        <ele>36.330448150634766</ele>
        <time>2021-04-04T16:37:41Z</time>
      </trkpt>
      <trkpt lat="43.4615592956543" lon="-3.8222060203552246">
        <ele>36.330448150634766</ele>
        <time>2021-04-04T16:37:42Z</time>
      </trkpt>
      <trkpt lat="43.46156311035156" lon="-3.822117567062378">
        <ele>36.330448150634766</ele>
        <time>2021-04-04T16:37:43Z</time>
      </trkpt>
      <trkpt lat="43.46158218383789" lon="-3.8219449520111084">
        <ele>36.330448150634766</ele>
        <time>2021-04-04T16:37:45Z</time>
      </trkpt>
      <trkpt lat="43.46159362792969" lon="-3.82186222076416">
        <ele>36.330448150634766</ele>
        <time>2021-04-04T16:37:46Z</time>
      </trkpt>
      <trkpt lat="43.46160888671875" lon="-3.821784019470215">
        <ele>36.330448150634766</ele>
        <time>2021-04-04T16:37:47Z</time>
      </trkpt>
      <trkpt lat="43.46162796020508" lon="-3.821711778640747">
        <ele>36.330448150634766</ele>
        <time>2021-04-04T16:37:48Z</time>
      </trkpt>
      <trkpt lat="43.46165084838867" lon="-3.821645975112915">
        <ele>36.330448150634766</ele>
        <time>2021-04-04T16:37:49Z</time>
      </trkpt>
      <trkpt lat="43.46167755126953" lon="-3.8215858936309814">
        <ele>36.330448150634766</ele>
        <time>2021-04-04T16:37:50Z</time>
      </trkpt>
      <trkpt lat="43.461708068847656" lon="-3.8215420246124268">
        <ele>36.330448150634766</ele>
        <time>2021-04-04T16:37:51Z</time>
      </trkpt>
      <trkpt lat="43.46176528930664" lon="-3.821458339691162">
        <ele>36.330448150634766</ele>
        <time>2021-04-04T16:37:53Z</time>
      </trkpt>
      <trkpt lat="43.46181106567383" lon="-3.8213629722595215">
        <ele>36.330448150634766</ele>
        <time>2021-04-04T16:37:55Z</time>
      </trkpt>
      <trkpt lat="43.46185302734375" lon="-3.821239948272705">
        <ele>36.330448150634766</ele>
        <time>2021-04-04T16:37:57Z</time>
      </trkpt>
      <trkpt lat="43.46187210083008" lon="-3.8211684226989746">
        <ele>36.330448150634766</ele>
        <time>2021-04-04T16:37:58Z</time>
      </trkpt>
      <trkpt lat="43.461891174316406" lon="-3.8210949897766113">
        <ele>36.330448150634766</ele>
        <time>2021-04-04T16:37:59Z</time>
      </trkpt>
      <trkpt lat="43.461910247802734" lon="-3.8210248947143555">
        <ele>36.330448150634766</ele>
        <time>2021-04-04T16:38:00Z</time>
      </trkpt>
      <trkpt lat="43.46192932128906" lon="-3.820960283279419">
        <ele>37.51226806640625</ele>
        <time>2021-04-04T16:38:01Z</time>
      </trkpt>
      <trkpt lat="43.46194076538086" lon="-3.8208982944488525">
        <ele>36.14862823486328</ele>
        <time>2021-04-04T16:38:02Z</time>
      </trkpt>
      <trkpt lat="43.46196746826172" lon="-3.8207879066467285">
        <ele>34.87590026855469</ele>
        <time>2021-04-04T16:38:04Z</time>
      </trkpt>
      <trkpt lat="43.461978912353516" lon="-3.8207030296325684">
        <ele>33.603172302246094</ele>
        <time>2021-04-04T16:38:06Z</time>
      </trkpt>
      <trkpt lat="43.46199417114258" lon="-3.8206369876861572">
        <ele>33.603172302246094</ele>
        <time>2021-04-04T16:38:08Z</time>
      </trkpt>
      <trkpt lat="43.462005615234375" lon="-3.8205573558807373">
        <ele>31.69408416748047</ele>
        <time>2021-04-04T16:38:11Z</time>
      </trkpt>
      <trkpt lat="43.46201705932617" lon="-3.820479393005371">
        <ele>31.69408416748047</ele>
        <time>2021-04-04T16:38:14Z</time>
      </trkpt>
      <trkpt lat="43.46204376220703" lon="-3.8203814029693604">
        <ele>30.239538192749023</ele>
        <time>2021-04-04T16:38:17Z</time>
      </trkpt>
      <trkpt lat="43.462074279785156" lon="-3.820284366607666">
        <ele>30.239538192749023</ele>
        <time>2021-04-04T16:38:19Z</time>
      </trkpt>
      <trkpt lat="43.46209716796875" lon="-3.820164680480957">
        <ele>30.239538192749023</ele>
        <time>2021-04-04T16:38:21Z</time>
      </trkpt>
      <trkpt lat="43.46211624145508" lon="-3.820030927658081">
        <ele>28.966812133789063</ele>
        <time>2021-04-04T16:38:23Z</time>
      </trkpt>
      <trkpt lat="43.46213150024414" lon="-3.8198859691619873">
        <ele>28.966812133789063</ele>
        <time>2021-04-04T16:38:25Z</time>
      </trkpt>
      <trkpt lat="43.46214294433594" lon="-3.8198082447052">
        <ele>28.966812133789063</ele>
        <time>2021-04-04T16:38:26Z</time>
      </trkpt>
      <trkpt lat="43.462158203125" lon="-3.8197262287139893">
        <ele>27.69408416748047</ele>
        <time>2021-04-04T16:38:27Z</time>
      </trkpt>
      <trkpt lat="43.46217727661133" lon="-3.8196346759796143">
        <ele>27.69408416748047</ele>
        <time>2021-04-04T16:38:28Z</time>
      </trkpt>
      <trkpt lat="43.46217346191406" lon="-3.819512367248535">
        <ele>27.69408416748047</ele>
        <time>2021-04-04T16:38:29Z</time>
      </trkpt>
      <trkpt lat="43.462181091308594" lon="-3.8193957805633545">
        <ele>27.69408416748047</ele>
        <time>2021-04-04T16:38:30Z</time>
      </trkpt>
      <trkpt lat="43.46220779418945" lon="-3.819293737411499">
        <ele>27.69408416748047</ele>
        <time>2021-04-04T16:38:31Z</time>
      </trkpt>
      <trkpt lat="43.46222686767578" lon="-3.819185972213745">
        <ele>27.69408416748047</ele>
        <time>2021-04-04T16:38:32Z</time>
      </trkpt>
      <trkpt lat="43.46224594116211" lon="-3.819084405899048">
        <ele>26.512266159057617</ele>
        <time>2021-04-04T16:38:33Z</time>
      </trkpt>
      <trkpt lat="43.46226501464844" lon="-3.818983316421509">
        <ele>26.512266159057617</ele>
        <time>2021-04-04T16:38:34Z</time>
      </trkpt>
      <trkpt lat="43.4622802734375" lon="-3.818881034851074">
        <ele>26.512266159057617</ele>
        <time>2021-04-04T16:38:35Z</time>
      </trkpt>
      <trkpt lat="43.462303161621094" lon="-3.818779945373535">
        <ele>26.512266159057617</ele>
        <time>2021-04-04T16:38:36Z</time>
      </trkpt>
      <trkpt lat="43.46232223510742" lon="-3.8186800479888916">
        <ele>26.512266159057617</ele>
        <time>2021-04-04T16:38:37Z</time>
      </trkpt>
      <trkpt lat="43.462345123291016" lon="-3.818582773208618">
        <ele>26.512266159057617</ele>
        <time>2021-04-04T16:38:38Z</time>
      </trkpt>
      <trkpt lat="43.462371826171875" lon="-3.8184926509857178">
        <ele>26.512266159057617</ele>
        <time>2021-04-04T16:38:39Z</time>
      </trkpt>
      <trkpt lat="43.462398529052734" lon="-3.8184103965759277">
        <ele>26.512266159057617</ele>
        <time>2021-04-04T16:38:40Z</time>
      </trkpt>
      <trkpt lat="43.46241760253906" lon="-3.818387269973755">
        <ele>26.512266159057617</ele>
        <time>2021-04-04T16:38:41Z</time>
      </trkpt>
      <trkpt lat="43.46244430541992" lon="-3.8183252811431885">
        <ele>26.512266159057617</ele>
        <time>2021-04-04T16:38:43Z</time>
      </trkpt>
      <trkpt lat="43.462459564208984" lon="-3.818253755569458">
        <ele>26.512266159057617</ele>
        <time>2021-04-04T16:38:45Z</time>
      </trkpt>
      <trkpt lat="43.46247863769531" lon="-3.8181569576263428">
        <ele>26.512266159057617</ele>
        <time>2021-04-04T16:38:47Z</time>
      </trkpt>
      <trkpt lat="43.462520599365234" lon="-3.81801176071167">
        <ele>26.512266159057617</ele>
        <time>2021-04-04T16:38:49Z</time>
      </trkpt>
      <trkpt lat="43.46254348754883" lon="-3.8179330825805664">
        <ele>26.512266159057617</ele>
        <time>2021-04-04T16:38:50Z</time>
      </trkpt>
      <trkpt lat="43.462562561035156" lon="-3.8178493976593018">
        <ele>26.512266159057617</ele>
        <time>2021-04-04T16:38:51Z</time>
      </trkpt>
      <trkpt lat="43.462581634521484" lon="-3.8177549839019775">
        <ele>26.512266159057617</ele>
        <time>2021-04-04T16:38:52Z</time>
      </trkpt>
      <trkpt lat="43.46260452270508" lon="-3.8176586627960205">
        <ele>26.512266159057617</ele>
        <time>2021-04-04T16:38:53Z</time>
      </trkpt>
      <trkpt lat="43.462623596191406" lon="-3.81756329536438">
        <ele>26.512266159057617</ele>
        <time>2021-04-04T16:38:54Z</time>
      </trkpt>
      <trkpt lat="43.462642669677734" lon="-3.817474603652954">
        <ele>26.512266159057617</ele>
        <time>2021-04-04T16:38:55Z</time>
      </trkpt>
      <trkpt lat="43.46266555786133" lon="-3.8173890113830566">
        <ele>26.512266159057617</ele>
        <time>2021-04-04T16:38:56Z</time>
      </trkpt>
      <trkpt lat="43.46268844604492" lon="-3.817300319671631">
        <ele>26.512266159057617</ele>
        <time>2021-04-04T16:38:57Z</time>
      </trkpt>
      <trkpt lat="43.462711334228516" lon="-3.817214250564575">
        <ele>26.512266159057617</ele>
        <time>2021-04-04T16:38:58Z</time>
      </trkpt>
      <trkpt lat="43.46273422241211" lon="-3.817131996154785">
        <ele>26.512266159057617</ele>
        <time>2021-04-04T16:38:59Z</time>
      </trkpt>
      <trkpt lat="43.46275329589844" lon="-3.81705641746521">
        <ele>26.512266159057617</ele>
        <time>2021-04-04T16:39:00Z</time>
      </trkpt>
      <trkpt lat="43.462772369384766" lon="-3.81697940826416">
        <ele>26.512266159057617</ele>
        <time>2021-04-04T16:39:01Z</time>
      </trkpt>
      <trkpt lat="43.462791442871094" lon="-3.8168981075286865">
        <ele>26.512266159057617</ele>
        <time>2021-04-04T16:39:02Z</time>
      </trkpt>
      <trkpt lat="43.46281814575195" lon="-3.8168182373046875">
        <ele>26.512266159057617</ele>
        <time>2021-04-04T16:39:03Z</time>
      </trkpt>
      <trkpt lat="43.46283721923828" lon="-3.816739082336426">
        <ele>26.512266159057617</ele>
        <time>2021-04-04T16:39:04Z</time>
      </trkpt>
      <trkpt lat="43.46285629272461" lon="-3.816664218902588">
        <ele>26.512266159057617</ele>
        <time>2021-04-04T16:39:05Z</time>
      </trkpt>
      <trkpt lat="43.46287536621094" lon="-3.8165812492370605">
        <ele>26.512266159057617</ele>
        <time>2021-04-04T16:39:06Z</time>
      </trkpt>
      <trkpt lat="43.462890625" lon="-3.816502332687378">
        <ele>26.512266159057617</ele>
        <time>2021-04-04T16:39:07Z</time>
      </trkpt>
      <trkpt lat="43.46290969848633" lon="-3.8164210319519043">
        <ele>26.512266159057617</ele>
        <time>2021-04-04T16:39:08Z</time>
      </trkpt>
      <trkpt lat="43.46292495727539" lon="-3.816331624984741">
        <ele>26.512266159057617</ele>
        <time>2021-04-04T16:39:09Z</time>
      </trkpt>
      <trkpt lat="43.46294021606445" lon="-3.8162472248077393">
        <ele>26.512266159057617</ele>
        <time>2021-04-04T16:39:10Z</time>
      </trkpt>
      <trkpt lat="43.462955474853516" lon="-3.8161563873291016">
        <ele>26.512266159057617</ele>
        <time>2021-04-04T16:39:11Z</time>
      </trkpt>
      <trkpt lat="43.46297073364258" lon="-3.8160645961761475">
        <ele>26.512266159057617</ele>
        <time>2021-04-04T16:39:12Z</time>
      </trkpt>
      <trkpt lat="43.46298599243164" lon="-3.815974235534668">
        <ele>26.512266159057617</ele>
        <time>2021-04-04T16:39:13Z</time>
      </trkpt>
      <trkpt lat="43.4630012512207" lon="-3.815889358520508">
        <ele>26.512266159057617</ele>
        <time>2021-04-04T16:39:14Z</time>
      </trkpt>
      <trkpt lat="43.4630126953125" lon="-3.815802574157715">
        <ele>25.330448150634766</ele>
        <time>2021-04-04T16:39:15Z</time>
      </trkpt>
      <trkpt lat="43.4630241394043" lon="-3.815706968307495">
        <ele>25.330448150634766</ele>
        <time>2021-04-04T16:39:16Z</time>
      </trkpt>
      <trkpt lat="43.46303939819336" lon="-3.815613269805908">
        <ele>25.330448150634766</ele>
        <time>2021-04-04T16:39:17Z</time>
      </trkpt>
      <trkpt lat="43.46305465698242" lon="-3.815521717071533">
        <ele>25.330448150634766</ele>
        <time>2021-04-04T16:39:18Z</time>
      </trkpt>
      <trkpt lat="43.463069915771484" lon="-3.8154356479644775">
        <ele>25.330448150634766</ele>
        <time>2021-04-04T16:39:19Z</time>
      </trkpt>
      <trkpt lat="43.46308517456055" lon="-3.815350294113159">
        <ele>24.148630142211914</ele>
        <time>2021-04-04T16:39:20Z</time>
      </trkpt>
      <trkpt lat="43.46310043334961" lon="-3.8152658939361572">
        <ele>24.148630142211914</ele>
        <time>2021-04-04T16:39:21Z</time>
      </trkpt>
      <trkpt lat="43.46311950683594" lon="-3.815176010131836">
        <ele>24.148630142211914</ele>
        <time>2021-04-04T16:39:22Z</time>
      </trkpt>
      <trkpt lat="43.463138580322266" lon="-3.8150875568389893">
        <ele>24.148630142211914</ele>
        <time>2021-04-04T16:39:23Z</time>
      </trkpt>
      <trkpt lat="43.46316146850586" lon="-3.815000295639038">
        <ele>24.148630142211914</ele>
        <time>2021-04-04T16:39:24Z</time>
      </trkpt>
      <trkpt lat="43.46317672729492" lon="-3.8149192333221436">
        <ele>24.148630142211914</ele>
        <time>2021-04-04T16:39:25Z</time>
      </trkpt>
      <trkpt lat="43.46319580078125" lon="-3.814831018447876">
        <ele>24.148630142211914</ele>
        <time>2021-04-04T16:39:26Z</time>
      </trkpt>
      <trkpt lat="43.46320724487305" lon="-3.814744234085083">
        <ele>24.148630142211914</ele>
        <time>2021-04-04T16:39:27Z</time>
      </trkpt>
      <trkpt lat="43.46322250366211" lon="-3.8146579265594482">
        <ele>24.148630142211914</ele>
        <time>2021-04-04T16:39:28Z</time>
      </trkpt>
      <trkpt lat="43.463233947753906" lon="-3.8145713806152344">
        <ele>24.148630142211914</ele>
        <time>2021-04-04T16:39:29Z</time>
      </trkpt>
      <trkpt lat="43.46324157714844" lon="-3.814483880996704">
        <ele>24.148630142211914</ele>
        <time>2021-04-04T16:39:30Z</time>
      </trkpt>
      <trkpt lat="43.463253021240234" lon="-3.814396381378174">
        <ele>24.148630142211914</ele>
        <time>2021-04-04T16:39:31Z</time>
      </trkpt>
      <trkpt lat="43.46326446533203" lon="-3.814310312271118">
        <ele>24.148630142211914</ele>
        <time>2021-04-04T16:39:32Z</time>
      </trkpt>
      <trkpt lat="43.463279724121094" lon="-3.81422758102417">
        <ele>24.148630142211914</ele>
        <time>2021-04-04T16:39:33Z</time>
      </trkpt>
      <trkpt lat="43.46329879760742" lon="-3.814146041870117">
        <ele>24.148630142211914</ele>
        <time>2021-04-04T16:39:34Z</time>
      </trkpt>
      <trkpt lat="43.463314056396484" lon="-3.814068078994751">
        <ele>24.148630142211914</ele>
        <time>2021-04-04T16:39:35Z</time>
      </trkpt>
      <trkpt lat="43.46332931518555" lon="-3.813981056213379">
        <ele>24.148630142211914</ele>
        <time>2021-04-04T16:39:36Z</time>
      </trkpt>
      <trkpt lat="43.46334457397461" lon="-3.8138935565948486">
        <ele>22.512266159057617</ele>
        <time>2021-04-04T16:39:37Z</time>
      </trkpt>
      <trkpt lat="43.463356018066406" lon="-3.8138105869293213">
        <ele>22.512266159057617</ele>
        <time>2021-04-04T16:39:38Z</time>
      </trkpt>
      <trkpt lat="43.46336364746094" lon="-3.813718318939209">
        <ele>22.512266159057617</ele>
        <time>2021-04-04T16:39:39Z</time>
      </trkpt>
      <trkpt lat="43.4633674621582" lon="-3.8136253356933594">
        <ele>20.512266159057617</ele>
        <time>2021-04-04T16:39:40Z</time>
      </trkpt>
      <trkpt lat="43.46337127685547" lon="-3.8135313987731934">
        <ele>20.512266159057617</ele>
        <time>2021-04-04T16:39:41Z</time>
      </trkpt>
      <trkpt lat="43.463375091552734" lon="-3.8134305477142334">
        <ele>20.512266159057617</ele>
        <time>2021-04-04T16:39:42Z</time>
      </trkpt>
      <trkpt lat="43.463375091552734" lon="-3.8133316040039063">
        <ele>19.239540100097656</ele>
        <time>2021-04-04T16:39:43Z</time>
      </trkpt>
      <trkpt lat="43.463375091552734" lon="-3.8132412433624268">
        <ele>19.239540100097656</ele>
        <time>2021-04-04T16:39:44Z</time>
      </trkpt>
      <trkpt lat="43.46337127685547" lon="-3.813148021697998">
        <ele>19.239540100097656</ele>
        <time>2021-04-04T16:39:45Z</time>
      </trkpt>
      <trkpt lat="43.463375091552734" lon="-3.8130524158477783">
        <ele>19.239540100097656</ele>
        <time>2021-04-04T16:39:46Z</time>
      </trkpt>
      <trkpt lat="43.463375091552734" lon="-3.812957763671875">
        <ele>18.057722091674805</ele>
        <time>2021-04-04T16:39:47Z</time>
      </trkpt>
      <trkpt lat="43.463375091552734" lon="-3.8128626346588135">
        <ele>18.057722091674805</ele>
        <time>2021-04-04T16:39:48Z</time>
      </trkpt>
      <trkpt lat="43.46337127685547" lon="-3.812774419784546">
        <ele>18.057722091674805</ele>
        <time>2021-04-04T16:39:49Z</time>
      </trkpt>
      <trkpt lat="43.4633674621582" lon="-3.8126773834228516">
        <ele>18.057722091674805</ele>
        <time>2021-04-04T16:39:50Z</time>
      </trkpt>
      <trkpt lat="43.46335983276367" lon="-3.81257963180542">
        <ele>18.057722091674805</ele>
        <time>2021-04-04T16:39:51Z</time>
      </trkpt>
      <trkpt lat="43.46335220336914" lon="-3.8124759197235107">
        <ele>15.966812133789063</ele>
        <time>2021-04-04T16:39:52Z</time>
      </trkpt>
      <trkpt lat="43.46334457397461" lon="-3.812382698059082">
        <ele>14.148630142211914</ele>
        <time>2021-04-04T16:39:53Z</time>
      </trkpt>
      <trkpt lat="43.46333312988281" lon="-3.812290906906128">
        <ele>12.784994125366211</ele>
        <time>2021-04-04T16:39:54Z</time>
      </trkpt>
      <trkpt lat="43.463321685791016" lon="-3.812196969985962">
        <ele>12.784994125366211</ele>
        <time>2021-04-04T16:39:55Z</time>
      </trkpt>
      <trkpt lat="43.46330642700195" lon="-3.81211256980896">
        <ele>10.330448150634766</ele>
        <time>2021-04-04T16:39:56Z</time>
      </trkpt>
      <trkpt lat="43.46329116821289" lon="-3.8120250701904297">
        <ele>10.330448150634766</ele>
        <time>2021-04-04T16:39:57Z</time>
      </trkpt>
      <trkpt lat="43.46327590942383" lon="-3.8119473457336426">
        <ele>10.330448150634766</ele>
        <time>2021-04-04T16:39:58Z</time>
      </trkpt>
      <trkpt lat="43.4632568359375" lon="-3.811872720718384">
        <ele>8.966812133789063</ele>
        <time>2021-04-04T16:39:59Z</time>
      </trkpt>
      <trkpt lat="43.46324157714844" lon="-3.8118040561676025">
        <ele>8.966812133789063</ele>
        <time>2021-04-04T16:40:00Z</time>
      </trkpt>
      <trkpt lat="43.46321105957031" lon="-3.8116869926452637">
        <ele>7.512266159057617</ele>
        <time>2021-04-04T16:40:02Z</time>
      </trkpt>
      <trkpt lat="43.46318435668945" lon="-3.811601400375366">
        <ele>7.512266159057617</ele>
        <time>2021-04-04T16:40:04Z</time>
      </trkpt>
      <trkpt lat="43.46317672729492" lon="-3.8115463256835938">
        <ele>7.512266159057617</ele>
        <time>2021-04-04T16:40:06Z</time>
      </trkpt>
      <trkpt lat="43.463165283203125" lon="-3.8113527297973633">
        <ele>6.330448150634766</ele>
        <time>2021-04-04T16:40:58Z</time>
      </trkpt>
      <trkpt lat="43.46316146850586" lon="-3.8112614154815674">
        <ele>6.330448150634766</ele>
        <time>2021-04-04T16:41:00Z</time>
      </trkpt>
      <trkpt lat="43.46316909790039" lon="-3.8111252784729004">
        <ele>6.330448150634766</ele>
        <time>2021-04-04T16:41:02Z</time>
      </trkpt>
      <trkpt lat="43.463172912597656" lon="-3.8110556602478027">
        <ele>6.330448150634766</ele>
        <time>2021-04-04T16:41:03Z</time>
      </trkpt>
      <trkpt lat="43.46318054199219" lon="-3.8109960556030273">
        <ele>6.330448150634766</ele>
        <time>2021-04-04T16:41:04Z</time>
      </trkpt>
      <trkpt lat="43.46319580078125" lon="-3.810887098312378">
        <ele>6.330448150634766</ele>
        <time>2021-04-04T16:41:06Z</time>
      </trkpt>
      <trkpt lat="43.46320343017578" lon="-3.8107845783233643">
        <ele>6.330448150634766</ele>
        <time>2021-04-04T16:41:08Z</time>
      </trkpt>
      <trkpt lat="43.46319580078125" lon="-3.8106765747070313">
        <ele>7.603175163269043</ele>
        <time>2021-04-04T16:41:10Z</time>
      </trkpt>
      <trkpt lat="43.46318817138672" lon="-3.8105499744415283">
        <ele>7.603175163269043</ele>
        <time>2021-04-04T16:41:12Z</time>
      </trkpt>
      <trkpt lat="43.46318054199219" lon="-3.810481309890747">
        <ele>7.603175163269043</ele>
        <time>2021-04-04T16:41:13Z</time>
      </trkpt>
      <trkpt lat="43.463157653808594" lon="-3.810335397720337">
        <ele>8.966811180114746</ele>
        <time>2021-04-04T16:41:15Z</time>
      </trkpt>
      <trkpt lat="43.46314239501953" lon="-3.8102593421936035">
        <ele>8.966811180114746</ele>
        <time>2021-04-04T16:41:16Z</time>
      </trkpt>
      <trkpt lat="43.46312713623047" lon="-3.8101813793182373">
        <ele>8.966811180114746</ele>
        <time>2021-04-04T16:41:17Z</time>
      </trkpt>
      <trkpt lat="43.463111877441406" lon="-3.810103416442871">
        <ele>8.966811180114746</ele>
        <time>2021-04-04T16:41:18Z</time>
      </trkpt>
      <trkpt lat="43.46309280395508" lon="-3.8100266456604004">
        <ele>8.966811180114746</ele>
        <time>2021-04-04T16:41:19Z</time>
      </trkpt>
      <trkpt lat="43.46307373046875" lon="-3.8099517822265625">
        <ele>10.148629188537598</ele>
        <time>2021-04-04T16:41:20Z</time>
      </trkpt>
      <trkpt lat="43.463050842285156" lon="-3.80987811088562">
        <ele>10.148629188537598</ele>
        <time>2021-04-04T16:41:21Z</time>
      </trkpt>
      <trkpt lat="43.46303176879883" lon="-3.809804677963257">
        <ele>11.33044719696045</ele>
        <time>2021-04-04T16:41:22Z</time>
      </trkpt>
      <trkpt lat="43.463016510009766" lon="-3.8097376823425293">
        <time>2021-04-04T16:41:23Z</time>
      </trkpt>
      <trkpt lat="43.462989807128906" lon="-3.809636354446411">
        <time>2021-04-04T16:41:25Z</time>
      </trkpt>
      <trkpt lat="43.46296691894531" lon="-3.8095593452453613">
        <time>2021-04-04T16:41:27Z</time>
      </trkpt>
      <trkpt lat="43.46295166015625" lon="-3.8094980716705322">
        <time>2021-04-04T16:41:29Z</time>
      </trkpt>
      <trkpt lat="43.46294403076172" lon="-3.80941104888916">
        <time>2021-04-04T16:41:32Z</time>
      </trkpt>
      <trkpt lat="43.46294403076172" lon="-3.8093292713165283">
        <time>2021-04-04T16:41:34Z</time>
      </trkpt>
      <trkpt lat="43.46294403076172" lon="-3.809234619140625">
        <time>2021-04-04T16:41:36Z</time>
      </trkpt>
      <trkpt lat="43.46294021606445" lon="-3.809128761291504">
        <time>2021-04-04T16:41:38Z</time>
      </trkpt>
      <trkpt lat="43.46293640136719" lon="-3.809049606323242">
        <time>2021-04-04T16:41:40Z</time>
      </trkpt>
      <trkpt lat="43.46293640136719" lon="-3.8089473247528076">
        <time>2021-04-04T16:42:03Z</time>
      </trkpt>
      <trkpt lat="43.46421813964844" lon="-3.8086633682250977">
        <ele>40.0</ele>
        <time>2021-04-04T18:51:19Z</time>
      </trkpt>
      <trkpt lat="43.463783264160156" lon="-3.8087117671966553">
        <ele>40.0</ele>
        <time>2021-04-04T18:51:21Z</time>
      </trkpt>
      <trkpt lat="43.46382522583008" lon="-3.808703660964966">
        <ele>40.0</ele>
        <time>2021-04-04T18:51:22Z</time>
      </trkpt>
      <trkpt lat="43.4638557434082" lon="-3.8086977005004883">
        <ele>40.0</ele>
        <time>2021-04-04T18:51:23Z</time>
      </trkpt>
      <trkpt lat="43.46385955810547" lon="-3.80869460105896">
        <ele>40.0</ele>
        <time>2021-04-04T18:51:24Z</time>
      </trkpt>
      <trkpt lat="43.46385955810547" lon="-3.8086979389190674">
        <ele>40.0</ele>
        <time>2021-04-04T18:51:25Z</time>
      </trkpt>
      <trkpt lat="43.4638557434082" lon="-3.808708906173706">
        <ele>38.818180084228516</ele>
        <time>2021-04-04T18:51:26Z</time>
      </trkpt>
      <trkpt lat="43.463844299316406" lon="-3.8088386058807373">
        <ele>38.818180084228516</ele>
        <time>2021-04-04T18:51:30Z</time>
      </trkpt>
      <trkpt lat="43.46383285522461" lon="-3.808955430984497">
        <ele>38.818180084228516</ele>
        <time>2021-04-04T18:51:32Z</time>
      </trkpt>
      <trkpt lat="43.46381759643555" lon="-3.80912709236145">
        <ele>37.54545211791992</ele>
        <time>2021-04-04T18:51:34Z</time>
      </trkpt>
      <trkpt lat="43.463809967041016" lon="-3.8092305660247803">
        <ele>37.54545211791992</ele>
        <time>2021-04-04T18:51:35Z</time>
      </trkpt>
      <trkpt lat="43.463802337646484" lon="-3.8093273639678955">
        <ele>36.27272415161133</ele>
        <time>2021-04-04T18:51:36Z</time>
      </trkpt>
      <trkpt lat="43.46379089355469" lon="-3.809422731399536">
        <ele>36.27272415161133</ele>
        <time>2021-04-04T18:51:37Z</time>
      </trkpt>
      <trkpt lat="43.46379089355469" lon="-3.8095180988311768">
        <ele>36.27272415161133</ele>
        <time>2021-04-04T18:51:38Z</time>
      </trkpt>
      <trkpt lat="43.463802337646484" lon="-3.8096065521240234">
        <ele>36.27272415161133</ele>
        <time>2021-04-04T18:51:39Z</time>
      </trkpt>
      <trkpt lat="43.46382141113281" lon="-3.809683084487915">
        <ele>36.27272415161133</ele>
        <time>2021-04-04T18:51:40Z</time>
      </trkpt>
      <trkpt lat="43.46382141113281" lon="-3.809756278991699">
        <ele>36.27272415161133</ele>
        <time>2021-04-04T18:51:41Z</time>
      </trkpt>
      <trkpt lat="43.463844299316406" lon="-3.8098196983337402">
        <ele>34.18181610107422</ele>
        <time>2021-04-04T18:51:42Z</time>
      </trkpt>
      <trkpt lat="43.46388626098633" lon="-3.8099372386932373">
        <ele>34.18181610107422</ele>
        <time>2021-04-04T18:51:44Z</time>
      </trkpt>
      <trkpt lat="43.46390914916992" lon="-3.810046672821045">
        <ele>32.818180084228516</ele>
        <time>2021-04-04T18:51:46Z</time>
      </trkpt>
      <trkpt lat="43.46391296386719" lon="-3.8101866245269775">
        <ele>32.818180084228516</ele>
        <time>2021-04-04T18:51:48Z</time>
      </trkpt>
      <trkpt lat="43.46390914916992" lon="-3.8102729320526123">
        <ele>32.818180084228516</ele>
        <time>2021-04-04T18:51:49Z</time>
      </trkpt>
      <trkpt lat="43.463897705078125" lon="-3.8103654384613037">
        <ele>32.818180084228516</ele>
        <time>2021-04-04T18:51:50Z</time>
      </trkpt>
      <trkpt lat="43.4638786315918" lon="-3.810453414916992">
        <ele>32.818180084228516</ele>
        <time>2021-04-04T18:51:51Z</time>
      </trkpt>
      <trkpt lat="43.46385955810547" lon="-3.810549259185791">
        <ele>31.636362075805664</ele>
        <time>2021-04-04T18:51:52Z</time>
      </trkpt>
      <trkpt lat="43.463844299316406" lon="-3.810636043548584">
        <ele>31.636362075805664</ele>
        <time>2021-04-04T18:51:53Z</time>
      </trkpt>
      <trkpt lat="43.46383285522461" lon="-3.8107197284698486">
        <ele>31.636362075805664</ele>
        <time>2021-04-04T18:51:54Z</time>
      </trkpt>
      <trkpt lat="43.46381759643555" lon="-3.810789108276367">
        <ele>31.636362075805664</ele>
        <time>2021-04-04T18:51:55Z</time>
      </trkpt>
      <trkpt lat="43.46379852294922" lon="-3.8108479976654053">
        <ele>31.636362075805664</ele>
        <time>2021-04-04T18:51:56Z</time>
      </trkpt>
      <trkpt lat="43.4637565612793" lon="-3.810940742492676">
        <ele>31.636362075805664</ele>
        <time>2021-04-04T18:51:58Z</time>
      </trkpt>
      <trkpt lat="43.46370315551758" lon="-3.810999631881714">
        <ele>31.636362075805664</ele>
        <time>2021-04-04T18:52:00Z</time>
      </trkpt>
      <trkpt lat="43.463626861572266" lon="-3.8110506534576416">
        <ele>31.636362075805664</ele>
        <time>2021-04-04T18:52:02Z</time>
      </trkpt>
      <trkpt lat="43.463523864746094" lon="-3.8110969066619873">
        <ele>31.636362075805664</ele>
        <time>2021-04-04T18:52:04Z</time>
      </trkpt>
      <trkpt lat="43.463470458984375" lon="-3.811115026473999">
        <ele>31.636362075805664</ele>
        <time>2021-04-04T18:52:05Z</time>
      </trkpt>
      <trkpt lat="43.46342086791992" lon="-3.811131715774536">
        <ele>31.636362075805664</ele>
        <time>2021-04-04T18:52:06Z</time>
      </trkpt>
      <trkpt lat="43.46333312988281" lon="-3.811162233352661">
        <ele>31.636362075805664</ele>
        <time>2021-04-04T18:52:08Z</time>
      </trkpt>
      <trkpt lat="43.463260650634766" lon="-3.8111915588378906">
        <ele>31.636362075805664</ele>
        <time>2021-04-04T18:52:10Z</time>
      </trkpt>
      <trkpt lat="43.46318054199219" lon="-3.811213970184326">
        <ele>31.636362075805664</ele>
        <time>2021-04-04T18:52:12Z</time>
      </trkpt>
      <trkpt lat="43.46310043334961" lon="-3.811227321624756">
        <ele>30.454544067382813</ele>
        <time>2021-04-04T18:52:14Z</time>
      </trkpt>
      <trkpt lat="43.46300506591797" lon="-3.8112447261810303">
        <ele>30.454544067382813</ele>
        <time>2021-04-04T18:52:16Z</time>
      </trkpt>
      <trkpt lat="43.46289825439453" lon="-3.811269998550415">
        <ele>30.454544067382813</ele>
        <time>2021-04-04T18:52:18Z</time>
      </trkpt>
      <trkpt lat="43.46284866333008" lon="-3.8112869262695313">
        <ele>30.454544067382813</ele>
        <time>2021-04-04T18:52:19Z</time>
      </trkpt>
      <trkpt lat="43.46279525756836" lon="-3.8113059997558594">
        <ele>30.454544067382813</ele>
        <time>2021-04-04T18:52:20Z</time>
      </trkpt>
      <trkpt lat="43.462745666503906" lon="-3.8113245964050293">
        <ele>28.727272033691406</ele>
        <time>2021-04-04T18:52:21Z</time>
      </trkpt>
      <trkpt lat="43.46269989013672" lon="-3.8113434314727783">
        <ele>28.727272033691406</ele>
        <time>2021-04-04T18:52:22Z</time>
      </trkpt>
      <trkpt lat="43.4626350402832" lon="-3.811375617980957">
        <ele>28.727272033691406</ele>
        <time>2021-04-04T18:52:24Z</time>
      </trkpt>
      <trkpt lat="43.46259307861328" lon="-3.8113954067230225">
        <ele>27.545454025268555</ele>
        <time>2021-04-04T18:52:26Z</time>
      </trkpt>
      <trkpt lat="43.46254348754883" lon="-3.8114140033721924">
        <ele>27.545454025268555</ele>
        <time>2021-04-04T18:52:29Z</time>
      </trkpt>
      <trkpt lat="43.462398529052734" lon="-3.811570405960083">
        <ele>27.545454025268555</ele>
        <time>2021-04-04T18:53:06Z</time>
      </trkpt>
      <trkpt lat="43.46231460571289" lon="-3.8115763664245605">
        <ele>27.545454025268555</ele>
        <time>2021-04-04T18:53:09Z</time>
      </trkpt>
      <trkpt lat="43.46223831176758" lon="-3.811581611633301">
        <ele>27.545454025268555</ele>
        <time>2021-04-04T18:53:11Z</time>
      </trkpt>
      <trkpt lat="43.462158203125" lon="-3.8115975856781006">
        <ele>27.545454025268555</ele>
        <time>2021-04-04T18:53:13Z</time>
      </trkpt>
      <trkpt lat="43.46207046508789" lon="-3.811635971069336">
        <ele>27.545454025268555</ele>
        <time>2021-04-04T18:53:15Z</time>
      </trkpt>
      <trkpt lat="43.46199035644531" lon="-3.8116977214813232">
        <time>2021-04-04T18:53:17Z</time>
      </trkpt>
      <trkpt lat="43.46190643310547" lon="-3.811755418777466">
        <time>2021-04-04T18:53:19Z</time>
      </trkpt>
      <trkpt lat="43.46183776855469" lon="-3.8117852210998535">
        <time>2021-04-04T18:53:21Z</time>
      </trkpt>
      <trkpt lat="43.4618034362793" lon="-3.8118059635162354">
        <time>2021-04-04T18:53:23Z</time>
      </trkpt>
      <trkpt lat="43.46175003051758" lon="-3.8118252754211426">
        <time>2021-04-04T18:53:27Z</time>
      </trkpt>
      <trkpt lat="43.461612701416016" lon="-3.8118696212768555">
        <time>2021-04-04T18:53:42Z</time>
      </trkpt>
      <trkpt lat="43.46155548095703" lon="-3.8118650913238525">
        <time>2021-04-04T18:53:47Z</time>
      </trkpt>
      <trkpt lat="43.46025085449219" lon="-3.812288284301758">
        <ele>47.720001220703125</ele>
        <time>2021-04-04T19:58:51Z</time>
      </trkpt>
      <trkpt lat="43.46023941040039" lon="-3.812340021133423">
        <ele>47.720001220703125</ele>
        <time>2021-04-04T19:58:52Z</time>
      </trkpt>
      <trkpt lat="43.46023941040039" lon="-3.812354564666748">
        <ele>47.720001220703125</ele>
        <time>2021-04-04T19:58:53Z</time>
      </trkpt>
      <trkpt lat="43.460235595703125" lon="-3.8123819828033447">
        <ele>47.720001220703125</ele>
        <time>2021-04-04T19:58:54Z</time>
      </trkpt>
      <trkpt lat="43.460227966308594" lon="-3.8124256134033203">
        <ele>47.720001220703125</ele>
        <time>2021-04-04T19:58:55Z</time>
      </trkpt>
      <trkpt lat="43.4602165222168" lon="-3.8124775886535645">
        <ele>47.720001220703125</ele>
        <time>2021-04-04T19:58:56Z</time>
      </trkpt>
      <trkpt lat="43.4601936340332" lon="-3.812591075897217">
        <ele>47.720001220703125</ele>
        <time>2021-04-04T19:58:58Z</time>
      </trkpt>
      <trkpt lat="43.46017074584961" lon="-3.8127119541168213">
        <ele>47.720001220703125</ele>
        <time>2021-04-04T19:59:00Z</time>
      </trkpt>
      <trkpt lat="43.46015930175781" lon="-3.8127753734588623">
        <ele>47.720001220703125</ele>
        <time>2021-04-04T19:59:01Z</time>
      </trkpt>
      <trkpt lat="43.460140228271484" lon="-3.8129024505615234">
        <ele>47.720001220703125</ele>
        <time>2021-04-04T19:59:03Z</time>
      </trkpt>
      <trkpt lat="43.460121154785156" lon="-3.813035011291504">
        <ele>47.720001220703125</ele>
        <time>2021-04-04T19:59:05Z</time>
      </trkpt>
      <trkpt lat="43.46009826660156" lon="-3.81317138671875">
        <ele>47.720001220703125</ele>
        <time>2021-04-04T19:59:07Z</time>
      </trkpt>
      <trkpt lat="43.46009063720703" lon="-3.813239336013794">
        <ele>48.90182113647461</ele>
        <time>2021-04-04T19:59:08Z</time>
      </trkpt>
      <trkpt lat="43.46007537841797" lon="-3.8133769035339355">
        <ele>48.90182113647461</ele>
        <time>2021-04-04T19:59:10Z</time>
      </trkpt>
      <trkpt lat="43.46006393432617" lon="-3.8135170936584473">
        <ele>48.90182113647461</ele>
        <time>2021-04-04T19:59:12Z</time>
      </trkpt>
      <trkpt lat="43.46005630493164" lon="-3.8135924339294434">
        <ele>48.90182113647461</ele>
        <time>2021-04-04T19:59:13Z</time>
      </trkpt>
      <trkpt lat="43.46004867553711" lon="-3.8136680126190186">
        <ele>48.90182113647461</ele>
        <time>2021-04-04T19:59:14Z</time>
      </trkpt>
      <trkpt lat="43.46004104614258" lon="-3.813744068145752">
        <ele>48.90182113647461</ele>
        <time>2021-04-04T19:59:15Z</time>
      </trkpt>
      <trkpt lat="43.46003341674805" lon="-3.8138186931610107">
        <ele>48.90182113647461</ele>
        <time>2021-04-04T19:59:16Z</time>
      </trkpt>
      <trkpt lat="43.460025787353516" lon="-3.8138933181762695">
        <ele>48.90182113647461</ele>
        <time>2021-04-04T19:59:17Z</time>
      </trkpt>
      <trkpt lat="43.460018157958984" lon="-3.813967704772949">
        <ele>48.90182113647461</ele>
        <time>2021-04-04T19:59:18Z</time>
      </trkpt>
      <trkpt lat="43.46001052856445" lon="-3.814040422439575">
        <ele>50.083641052246094</ele>
        <time>2021-04-04T19:59:19Z</time>
      </trkpt>
      <trkpt lat="43.46000289916992" lon="-3.814112424850464">
        <ele>50.083641052246094</ele>
        <time>2021-04-04T19:59:20Z</time>
      </trkpt>
      <trkpt lat="43.459991455078125" lon="-3.8141844272613525">
        <ele>50.083641052246094</ele>
        <time>2021-04-04T19:59:21Z</time>
      </trkpt>
      <trkpt lat="43.45998001098633" lon="-3.814255952835083">
        <ele>50.083641052246094</ele>
        <time>2021-04-04T19:59:22Z</time>
      </trkpt>
      <trkpt lat="43.45996856689453" lon="-3.8143272399902344">
        <ele>50.083641052246094</ele>
        <time>2021-04-04T19:59:23Z</time>
      </trkpt>
      <trkpt lat="43.45995330810547" lon="-3.8143980503082275">
        <ele>51.26546096801758</ele>
        <time>2021-04-04T19:59:24Z</time>
      </trkpt>
      <trkpt lat="43.459922790527344" lon="-3.8145363330841064">
        <ele>51.26546096801758</ele>
        <time>2021-04-04T19:59:26Z</time>
      </trkpt>
      <trkpt lat="43.459903717041016" lon="-3.814603090286255">
        <ele>51.26546096801758</ele>
        <time>2021-04-04T19:59:27Z</time>
      </trkpt>
      <trkpt lat="43.45988464355469" lon="-3.8146684169769287">
        <ele>51.26546096801758</ele>
        <time>2021-04-04T19:59:28Z</time>
      </trkpt>
      <trkpt lat="43.45986557006836" lon="-3.8147332668304443">
        <ele>51.26546096801758</ele>
        <time>2021-04-04T19:59:29Z</time>
      </trkpt>
      <trkpt lat="43.459842681884766" lon="-3.814798355102539">
        <ele>51.26546096801758</ele>
        <time>2021-04-04T19:59:30Z</time>
      </trkpt>
      <trkpt lat="43.45980453491211" lon="-3.814922571182251">
        <ele>51.26546096801758</ele>
        <time>2021-04-04T19:59:32Z</time>
      </trkpt>
      <trkpt lat="43.45975875854492" lon="-3.8150553703308105">
        <ele>51.26546096801758</ele>
        <time>2021-04-04T19:59:34Z</time>
      </trkpt>
      <trkpt lat="43.45973205566406" lon="-3.815121650695801">
        <ele>51.26546096801758</ele>
        <time>2021-04-04T19:59:35Z</time>
      </trkpt>
      <trkpt lat="43.45970916748047" lon="-3.8151934146881104">
        <ele>51.26546096801758</ele>
        <time>2021-04-04T19:59:36Z</time>
      </trkpt>
      <trkpt lat="43.459686279296875" lon="-3.8152637481689453">
        <ele>51.26546096801758</ele>
        <time>2021-04-04T19:59:37Z</time>
      </trkpt>
      <trkpt lat="43.45966339111328" lon="-3.815333604812622">
        <ele>51.26546096801758</ele>
        <time>2021-04-04T19:59:38Z</time>
      </trkpt>
      <trkpt lat="43.45964050292969" lon="-3.8154027462005615">
        <ele>51.26546096801758</ele>
        <time>2021-04-04T19:59:39Z</time>
      </trkpt>
      <trkpt lat="43.459617614746094" lon="-3.8154706954956055">
        <ele>51.26546096801758</ele>
        <time>2021-04-04T19:59:40Z</time>
      </trkpt>
      <trkpt lat="43.4595947265625" lon="-3.815539598464966">
        <ele>51.26546096801758</ele>
        <time>2021-04-04T19:59:41Z</time>
      </trkpt>
      <trkpt lat="43.459571838378906" lon="-3.815606117248535">
        <ele>51.26546096801758</ele>
        <time>2021-04-04T19:59:42Z</time>
      </trkpt>
      <trkpt lat="43.45954895019531" lon="-3.815673351287842">
        <ele>51.26546096801758</ele>
        <time>2021-04-04T19:59:43Z</time>
      </trkpt>
      <trkpt lat="43.45952606201172" lon="-3.8157401084899902">
        <ele>52.44728088378906</ele>
        <time>2021-04-04T19:59:44Z</time>
      </trkpt>
      <trkpt lat="43.459503173828125" lon="-3.815805673599243">
        <ele>52.44728088378906</ele>
        <time>2021-04-04T19:59:45Z</time>
      </trkpt>
      <trkpt lat="43.45948028564453" lon="-3.8158702850341797">
        <ele>52.44728088378906</ele>
        <time>2021-04-04T19:59:46Z</time>
      </trkpt>
      <trkpt lat="43.45945739746094" lon="-3.8159356117248535">
        <ele>52.44728088378906</ele>
        <time>2021-04-04T19:59:47Z</time>
      </trkpt>
      <trkpt lat="43.459434509277344" lon="-3.8160018920898438">
        <ele>52.44728088378906</ele>
        <time>2021-04-04T19:59:48Z</time>
      </trkpt>
      <trkpt lat="43.459407806396484" lon="-3.8160688877105713">
        <ele>52.44728088378906</ele>
        <time>2021-04-04T19:59:49Z</time>
      </trkpt>
      <trkpt lat="43.45938491821289" lon="-3.816131591796875">
        <ele>52.44728088378906</ele>
        <time>2021-04-04T19:59:50Z</time>
      </trkpt>
      <trkpt lat="43.4593620300293" lon="-3.8161957263946533">
        <ele>53.720008850097656</ele>
        <time>2021-04-04T19:59:51Z</time>
      </trkpt>
      <trkpt lat="43.45933532714844" lon="-3.81626296043396">
        <ele>53.720008850097656</ele>
        <time>2021-04-04T19:59:52Z</time>
      </trkpt>
      <trkpt lat="43.45930862426758" lon="-3.8163275718688965">
        <ele>54.90182876586914</ele>
        <time>2021-04-04T19:59:53Z</time>
      </trkpt>
      <trkpt lat="43.45928192138672" lon="-3.8163907527923584">
        <ele>54.90182876586914</ele>
        <time>2021-04-04T19:59:54Z</time>
      </trkpt>
      <trkpt lat="43.45925521850586" lon="-3.8164472579956055">
        <ele>56.265464782714844</ele>
        <time>2021-04-04T19:59:55Z</time>
      </trkpt>
      <trkpt lat="43.459205627441406" lon="-3.8165640830993652">
        <ele>56.265464782714844</ele>
        <time>2021-04-04T19:59:57Z</time>
      </trkpt>
      <trkpt lat="43.45915603637695" lon="-3.816673994064331">
        <ele>56.265464782714844</ele>
        <time>2021-04-04T19:59:59Z</time>
      </trkpt>
      <trkpt lat="43.459129333496094" lon="-3.816725730895996">
        <ele>57.53819274902344</ele>
        <time>2021-04-04T20:00:00Z</time>
      </trkpt>
      <trkpt lat="43.45907974243164" lon="-3.816840410232544">
        <ele>57.53819274902344</ele>
        <time>2021-04-04T20:00:02Z</time>
      </trkpt>
      <trkpt lat="43.45905303955078" lon="-3.8168981075286865">
        <ele>58.72001266479492</ele>
        <time>2021-04-04T20:00:03Z</time>
      </trkpt>
      <trkpt lat="43.45901107788086" lon="-3.8170106410980225">
        <ele>58.72001266479492</ele>
        <time>2021-04-04T20:00:05Z</time>
      </trkpt>
      <trkpt lat="43.458961486816406" lon="-3.8171260356903076">
        <ele>58.72001266479492</ele>
        <time>2021-04-04T20:00:07Z</time>
      </trkpt>
      <trkpt lat="43.458919525146484" lon="-3.8172380924224854">
        <ele>59.992740631103516</ele>
        <time>2021-04-04T20:00:09Z</time>
      </trkpt>
      <trkpt lat="43.45889663696289" lon="-3.817293643951416">
        <ele>59.992740631103516</ele>
        <time>2021-04-04T20:00:10Z</time>
      </trkpt>
      <trkpt lat="43.458858489990234" lon="-3.8174023628234863">
        <ele>59.992740631103516</ele>
        <time>2021-04-04T20:00:12Z</time>
      </trkpt>
      <trkpt lat="43.458824157714844" lon="-3.8175113201141357">
        <ele>59.992740631103516</ele>
        <time>2021-04-04T20:00:14Z</time>
      </trkpt>
      <trkpt lat="43.45879364013672" lon="-3.8176162242889404">
        <ele>59.992740631103516</ele>
        <time>2021-04-04T20:00:16Z</time>
      </trkpt>
      <trkpt lat="43.458770751953125" lon="-3.817725419998169">
        <ele>61.174560546875</ele>
        <time>2021-04-04T20:00:18Z</time>
      </trkpt>
      <trkpt lat="43.45875549316406" lon="-3.817833662033081">
        <ele>61.174560546875</ele>
        <time>2021-04-04T20:00:20Z</time>
      </trkpt>
      <trkpt lat="43.45874786376953" lon="-3.8179430961608887">
        <ele>61.174560546875</ele>
        <time>2021-04-04T20:00:22Z</time>
      </trkpt>
      <trkpt lat="43.458744049072266" lon="-3.818053960800171">
        <ele>61.174560546875</ele>
        <time>2021-04-04T20:00:24Z</time>
      </trkpt>
      <trkpt lat="43.458740234375" lon="-3.81817364692688">
        <ele>61.174560546875</ele>
        <time>2021-04-04T20:00:26Z</time>
      </trkpt>
      <trkpt lat="43.4587287902832" lon="-3.818300247192383">
        <ele>61.174560546875</ele>
        <time>2021-04-04T20:00:28Z</time>
      </trkpt>
      <trkpt lat="43.458717346191406" lon="-3.818429946899414">
        <ele>61.174560546875</ele>
        <time>2021-04-04T20:00:30Z</time>
      </trkpt>
      <trkpt lat="43.458709716796875" lon="-3.818495988845825">
        <ele>61.174560546875</ele>
        <time>2021-04-04T20:00:31Z</time>
      </trkpt>
      <trkpt lat="43.45869445800781" lon="-3.8186285495758057">
        <ele>61.174560546875</ele>
        <time>2021-04-04T20:00:33Z</time>
      </trkpt>
      <trkpt lat="43.45868682861328" lon="-3.8186957836151123">
        <ele>61.174560546875</ele>
        <time>2021-04-04T20:00:34Z</time>
      </trkpt>
      <trkpt lat="43.45866775512695" lon="-3.8188352584838867">
        <ele>61.174560546875</ele>
        <time>2021-04-04T20:00:36Z</time>
      </trkpt>
      <trkpt lat="43.458656311035156" lon="-3.818906307220459">
        <ele>61.174560546875</ele>
        <time>2021-04-04T20:00:37Z</time>
      </trkpt>
      <trkpt lat="43.458648681640625" lon="-3.8189773559570313">
        <ele>61.174560546875</ele>
        <time>2021-04-04T20:00:38Z</time>
      </trkpt>
      <trkpt lat="43.45863723754883" lon="-3.8190486431121826">
        <ele>61.174560546875</ele>
        <time>2021-04-04T20:00:39Z</time>
      </trkpt>
      <trkpt lat="43.4586296081543" lon="-3.8191213607788086">
        <ele>61.174560546875</ele>
        <time>2021-04-04T20:00:40Z</time>
      </trkpt>
      <trkpt lat="43.4586181640625" lon="-3.819192886352539">
        <ele>61.174560546875</ele>
        <time>2021-04-04T20:00:41Z</time>
      </trkpt>
      <trkpt lat="43.45859909057617" lon="-3.8193397521972656">
        <ele>61.174560546875</ele>
        <time>2021-04-04T20:00:43Z</time>
      </trkpt>
      <trkpt lat="43.458587646484375" lon="-3.819413900375366">
        <ele>61.174560546875</ele>
        <time>2021-04-04T20:00:44Z</time>
      </trkpt>
      <trkpt lat="43.45857238769531" lon="-3.8194897174835205">
        <ele>61.174560546875</ele>
        <time>2021-04-04T20:00:45Z</time>
      </trkpt>
      <trkpt lat="43.458560943603516" lon="-3.8195669651031494">
        <ele>61.174560546875</ele>
        <time>2021-04-04T20:00:46Z</time>
      </trkpt>
      <trkpt lat="43.45854568481445" lon="-3.819645881652832">
        <ele>61.174560546875</ele>
        <time>2021-04-04T20:00:47Z</time>
      </trkpt>
      <trkpt lat="43.458534240722656" lon="-3.8197262287139893">
        <ele>61.174560546875</ele>
        <time>2021-04-04T20:00:48Z</time>
      </trkpt>
      <trkpt lat="43.45852279663086" lon="-3.819809675216675">
        <ele>62.447288513183594</ele>
        <time>2021-04-04T20:00:49Z</time>
      </trkpt>
      <trkpt lat="43.45851516723633" lon="-3.8198935985565186">
        <ele>62.447288513183594</ele>
        <time>2021-04-04T20:00:50Z</time>
      </trkpt>
      <trkpt lat="43.45850372314453" lon="-3.8199782371520996">
        <ele>62.447288513183594</ele>
        <time>2021-04-04T20:00:51Z</time>
      </trkpt>
      <trkpt lat="43.45849609375" lon="-3.8200623989105225">
        <ele>62.447288513183594</ele>
        <time>2021-04-04T20:00:52Z</time>
      </trkpt>
      <trkpt lat="43.45848846435547" lon="-3.8201472759246826">
        <ele>62.447288513183594</ele>
        <time>2021-04-04T20:00:53Z</time>
      </trkpt>
      <trkpt lat="43.45847702026367" lon="-3.820232391357422">
        <ele>62.447288513183594</ele>
        <time>2021-04-04T20:00:54Z</time>
      </trkpt>
      <trkpt lat="43.45846939086914" lon="-3.820314884185791">
        <ele>62.447288513183594</ele>
        <time>2021-04-04T20:00:55Z</time>
      </trkpt>
      <trkpt lat="43.45846176147461" lon="-3.8203959465026855">
        <ele>62.447288513183594</ele>
        <time>2021-04-04T20:00:56Z</time>
      </trkpt>
      <trkpt lat="43.45845413208008" lon="-3.82047438621521">
        <ele>63.62910842895508</ele>
        <time>2021-04-04T20:00:57Z</time>
      </trkpt>
      <trkpt lat="43.45844268798828" lon="-3.8205530643463135">
        <ele>63.62910842895508</ele>
        <time>2021-04-04T20:00:58Z</time>
      </trkpt>
      <trkpt lat="43.45843505859375" lon="-3.820631265640259">
        <ele>63.62910842895508</ele>
        <time>2021-04-04T20:00:59Z</time>
      </trkpt>
      <trkpt lat="43.45842742919922" lon="-3.8207099437713623">
        <ele>63.62910842895508</ele>
        <time>2021-04-04T20:01:00Z</time>
      </trkpt>
      <trkpt lat="43.45841979980469" lon="-3.8207833766937256">
        <ele>63.62910842895508</ele>
        <time>2021-04-04T20:01:01Z</time>
      </trkpt>
      <trkpt lat="43.458412170410156" lon="-3.820863723754883">
        <ele>63.62910842895508</ele>
        <time>2021-04-04T20:01:02Z</time>
      </trkpt>
      <trkpt lat="43.45840072631836" lon="-3.8209433555603027">
        <ele>63.62910842895508</ele>
        <time>2021-04-04T20:01:03Z</time>
      </trkpt>
      <trkpt lat="43.45838928222656" lon="-3.821023941040039">
        <ele>63.62910842895508</ele>
        <time>2021-04-04T20:01:04Z</time>
      </trkpt>
      <trkpt lat="43.45838165283203" lon="-3.821100950241089">
        <ele>63.62910842895508</ele>
        <time>2021-04-04T20:01:05Z</time>
      </trkpt>
      <trkpt lat="43.4583740234375" lon="-3.821187973022461">
        <ele>63.62910842895508</ele>
        <time>2021-04-04T20:01:06Z</time>
      </trkpt>
      <trkpt lat="43.458370208740234" lon="-3.8212759494781494">
        <ele>63.62910842895508</ele>
        <time>2021-04-04T20:01:07Z</time>
      </trkpt>
      <trkpt lat="43.45836639404297" lon="-3.8213653564453125">
        <ele>63.62910842895508</ele>
        <time>2021-04-04T20:01:08Z</time>
      </trkpt>
      <trkpt lat="43.4583625793457" lon="-3.821455955505371">
        <ele>63.62910842895508</ele>
        <time>2021-04-04T20:01:09Z</time>
      </trkpt>
      <trkpt lat="43.45835876464844" lon="-3.821540594100952">
        <ele>63.62910842895508</ele>
        <time>2021-04-04T20:01:10Z</time>
      </trkpt>
      <trkpt lat="43.45835494995117" lon="-3.82163405418396">
        <ele>63.62910842895508</ele>
        <time>2021-04-04T20:01:11Z</time>
      </trkpt>
      <trkpt lat="43.458351135253906" lon="-3.8217265605926514">
        <ele>63.62910842895508</ele>
        <time>2021-04-04T20:01:12Z</time>
      </trkpt>
      <trkpt lat="43.45834732055664" lon="-3.8218131065368652">
        <ele>63.62910842895508</ele>
        <time>2021-04-04T20:01:13Z</time>
      </trkpt>
      <trkpt lat="43.45834732055664" lon="-3.8219010829925537">
        <ele>62.447288513183594</ele>
        <time>2021-04-04T20:01:14Z</time>
      </trkpt>
      <trkpt lat="43.45833969116211" lon="-3.8219950199127197">
        <ele>62.447288513183594</ele>
        <time>2021-04-04T20:01:15Z</time>
      </trkpt>
      <trkpt lat="43.458335876464844" lon="-3.8220880031585693">
        <ele>62.447288513183594</ele>
        <time>2021-04-04T20:01:16Z</time>
      </trkpt>
      <trkpt lat="43.45833206176758" lon="-3.8221800327301025">
        <ele>62.447288513183594</ele>
        <time>2021-04-04T20:01:17Z</time>
      </trkpt>
      <trkpt lat="43.45832824707031" lon="-3.8222711086273193">
        <ele>62.447288513183594</ele>
        <time>2021-04-04T20:01:18Z</time>
      </trkpt>
      <trkpt lat="43.45832443237305" lon="-3.822361946105957">
        <ele>62.447288513183594</ele>
        <time>2021-04-04T20:01:19Z</time>
      </trkpt>
      <trkpt lat="43.45832061767578" lon="-3.8224470615386963">
        <ele>62.447288513183594</ele>
        <time>2021-04-04T20:01:20Z</time>
      </trkpt>
      <trkpt lat="43.458316802978516" lon="-3.8225395679473877">
        <ele>62.447288513183594</ele>
        <time>2021-04-04T20:01:21Z</time>
      </trkpt>
      <trkpt lat="43.45830535888672" lon="-3.8227243423461914">
        <ele>62.447288513183594</ele>
        <time>2021-04-04T20:01:23Z</time>
      </trkpt>
      <trkpt lat="43.45829772949219" lon="-3.8228180408477783">
        <ele>62.447288513183594</ele>
        <time>2021-04-04T20:01:24Z</time>
      </trkpt>
      <trkpt lat="43.458290100097656" lon="-3.822906017303467">
        <ele>62.447288513183594</ele>
        <time>2021-04-04T20:01:25Z</time>
      </trkpt>
      <trkpt lat="43.458316802978516" lon="-3.8231077194213867">
        <ele>62.447288513183594</ele>
        <time>2021-04-04T20:01:27Z</time>
      </trkpt>
      <trkpt lat="43.45832443237305" lon="-3.8232100009918213">
        <ele>62.447288513183594</ele>
        <time>2021-04-04T20:01:28Z</time>
      </trkpt>
      <trkpt lat="43.45832061767578" lon="-3.823301315307617">
        <ele>62.447288513183594</ele>
        <time>2021-04-04T20:01:29Z</time>
      </trkpt>
      <trkpt lat="43.45830535888672" lon="-3.8233799934387207">
        <ele>62.447288513183594</ele>
        <time>2021-04-04T20:01:30Z</time>
      </trkpt>
      <trkpt lat="43.458251953125" lon="-3.8234379291534424">
        <ele>62.447288513183594</ele>
        <time>2021-04-04T20:01:31Z</time>
      </trkpt>
      <trkpt lat="43.45822525024414" lon="-3.823483943939209">
        <ele>61.26546859741211</ele>
        <time>2021-04-04T20:01:32Z</time>
      </trkpt>
      <trkpt lat="43.45817947387695" lon="-3.8235435485839844">
        <ele>61.26546859741211</ele>
        <time>2021-04-04T20:01:34Z</time>
      </trkpt>
      <trkpt lat="43.458106994628906" lon="-3.8235833644866943">
        <ele>61.26546859741211</ele>
        <time>2021-04-04T20:01:36Z</time>
      </trkpt>
      <trkpt lat="43.458030700683594" lon="-3.823611259460449">
        <ele>61.26546859741211</ele>
        <time>2021-04-04T20:01:38Z</time>
      </trkpt>
      <trkpt lat="43.45796203613281" lon="-3.823617935180664">
        <ele>61.26546859741211</ele>
        <time>2021-04-04T20:01:40Z</time>
      </trkpt>
      <trkpt lat="43.457881927490234" lon="-3.8236100673675537">
        <ele>61.26546859741211</ele>
        <time>2021-04-04T20:01:42Z</time>
      </trkpt>
      <trkpt lat="43.457794189453125" lon="-3.823591709136963">
        <ele>60.083648681640625</ele>
        <time>2021-04-04T20:01:44Z</time>
      </trkpt>
      <trkpt lat="43.457698822021484" lon="-3.8235697746276855">
        <ele>60.083648681640625</ele>
        <time>2021-04-04T20:01:46Z</time>
      </trkpt>
      <trkpt lat="43.45764923095703" lon="-3.8235526084899902">
        <ele>60.083648681640625</ele>
        <time>2021-04-04T20:01:47Z</time>
      </trkpt>
      <trkpt lat="43.45759963989258" lon="-3.8235349655151367">
        <ele>60.083648681640625</ele>
        <time>2021-04-04T20:01:48Z</time>
      </trkpt>
      <trkpt lat="43.45749282836914" lon="-3.82350492477417">
        <ele>58.90182876586914</ele>
        <time>2021-04-04T20:01:50Z</time>
      </trkpt>
      <trkpt lat="43.45743179321289" lon="-3.823493242263794">
        <ele>58.90182876586914</ele>
        <time>2021-04-04T20:01:51Z</time>
      </trkpt>
      <trkpt lat="43.45737838745117" lon="-3.8234832286834717">
        <ele>57.265464782714844</ele>
        <time>2021-04-04T20:01:52Z</time>
      </trkpt>
      <trkpt lat="43.45732498168945" lon="-3.823478937149048">
        <ele>57.265464782714844</ele>
        <time>2021-04-04T20:01:53Z</time>
      </trkpt>
      <trkpt lat="43.457275390625" lon="-3.8234753608703613">
        <ele>56.08364486694336</ele>
        <time>2021-04-04T20:01:54Z</time>
      </trkpt>
      <trkpt lat="43.457237243652344" lon="-3.823478937149048">
        <ele>56.08364486694336</ele>
        <time>2021-04-04T20:01:55Z</time>
      </trkpt>
      <trkpt lat="43.457191467285156" lon="-3.823498010635376">
        <ele>54.901824951171875</ele>
        <time>2021-04-04T20:01:57Z</time>
      </trkpt>
      <trkpt lat="43.4571533203125" lon="-3.8235719203948975">
        <ele>54.901824951171875</ele>
        <time>2021-04-04T20:02:00Z</time>
      </trkpt>
      <trkpt lat="43.45713806152344" lon="-3.8236782550811768">
        <ele>54.901824951171875</ele>
        <time>2021-04-04T20:02:02Z</time>
      </trkpt>
      <trkpt lat="43.457115173339844" lon="-3.8237946033477783">
        <ele>53.53818893432617</ele>
        <time>2021-04-04T20:02:04Z</time>
      </trkpt>
      <trkpt lat="43.45706558227539" lon="-3.8239316940307617">
        <ele>53.53818893432617</ele>
        <time>2021-04-04T20:02:06Z</time>
      </trkpt>
      <trkpt lat="43.45703125" lon="-3.8240087032318115">
        <ele>53.53818893432617</ele>
        <time>2021-04-04T20:02:07Z</time>
      </trkpt>
      <trkpt lat="43.457000732421875" lon="-3.824091672897339">
        <ele>51.992733001708984</ele>
        <time>2021-04-04T20:02:08Z</time>
      </trkpt>
      <trkpt lat="43.45697021484375" lon="-3.8241779804229736">
        <ele>51.992733001708984</ele>
        <time>2021-04-04T20:02:09Z</time>
      </trkpt>
      <trkpt lat="43.45694351196289" lon="-3.8242685794830322">
        <ele>50.53818893432617</ele>
        <time>2021-04-04T20:02:10Z</time>
      </trkpt>
      <trkpt lat="43.45691680908203" lon="-3.8243629932403564">
        <ele>50.53818893432617</ele>
        <time>2021-04-04T20:02:11Z</time>
      </trkpt>
      <trkpt lat="43.456886291503906" lon="-3.8244612216949463">
        <ele>49.35636901855469</ele>
        <time>2021-04-04T20:02:12Z</time>
      </trkpt>
      <trkpt lat="43.45685958862305" lon="-3.824564218521118">
        <ele>49.35636901855469</ele>
        <time>2021-04-04T20:02:13Z</time>
      </trkpt>
      <trkpt lat="43.45683288574219" lon="-3.8246634006500244">
        <ele>49.35636901855469</ele>
        <time>2021-04-04T20:02:14Z</time>
      </trkpt>
      <trkpt lat="43.45680236816406" lon="-3.824775218963623">
        <ele>47.992733001708984</ele>
        <time>2021-04-04T20:02:15Z</time>
      </trkpt>
      <trkpt lat="43.45677185058594" lon="-3.824887752532959">
        <ele>47.992733001708984</ele>
        <time>2021-04-04T20:02:16Z</time>
      </trkpt>
      <trkpt lat="43.45674133300781" lon="-3.8249943256378174">
        <ele>47.992733001708984</ele>
        <time>2021-04-04T20:02:17Z</time>
      </trkpt>
      <trkpt lat="43.45671463012695" lon="-3.825104236602783">
        <ele>46.4472770690918</ele>
        <time>2021-04-04T20:02:18Z</time>
      </trkpt>
      <trkpt lat="43.45668411254883" lon="-3.8252220153808594">
        <ele>46.4472770690918</ele>
        <time>2021-04-04T20:02:19Z</time>
      </trkpt>
      <trkpt lat="43.45665740966797" lon="-3.82533597946167">
        <ele>46.4472770690918</ele>
        <time>2021-04-04T20:02:20Z</time>
      </trkpt>
      <trkpt lat="43.45663833618164" lon="-3.8254482746124268">
        <ele>46.4472770690918</ele>
        <time>2021-04-04T20:02:21Z</time>
      </trkpt>
      <trkpt lat="43.456626892089844" lon="-3.825559616088867">
        <ele>45.083641052246094</ele>
        <time>2021-04-04T20:02:22Z</time>
      </trkpt>
      <trkpt lat="43.45661926269531" lon="-3.8256702423095703">
        <ele>45.083641052246094</ele>
        <time>2021-04-04T20:02:23Z</time>
      </trkpt>
      <trkpt lat="43.45661926269531" lon="-3.825779914855957">
        <ele>45.083641052246094</ele>
        <time>2021-04-04T20:02:24Z</time>
      </trkpt>
      <trkpt lat="43.45662307739258" lon="-3.8258843421936035">
        <ele>45.083641052246094</ele>
        <time>2021-04-04T20:02:25Z</time>
      </trkpt>
      <trkpt lat="43.456634521484375" lon="-3.826000452041626">
        <ele>45.083641052246094</ele>
        <time>2021-04-04T20:02:26Z</time>
      </trkpt>
      <trkpt lat="43.45664978027344" lon="-3.826118230819702">
        <ele>43.72000503540039</ele>
        <time>2021-04-04T20:02:27Z</time>
      </trkpt>
      <trkpt lat="43.456668853759766" lon="-3.8262345790863037">
        <ele>43.72000503540039</ele>
        <time>2021-04-04T20:02:28Z</time>
      </trkpt>
      <trkpt lat="43.456687927246094" lon="-3.8263466358184814">
        <ele>43.72000503540039</ele>
        <time>2021-04-04T20:02:29Z</time>
      </trkpt>
      <trkpt lat="43.456703186035156" lon="-3.8264503479003906">
        <ele>42.083641052246094</ele>
        <time>2021-04-04T20:02:30Z</time>
      </trkpt>
      <trkpt lat="43.45671081542969" lon="-3.826538324356079">
        <ele>42.083641052246094</ele>
        <time>2021-04-04T20:02:31Z</time>
      </trkpt>
      <trkpt lat="43.45670700073242" lon="-3.826617956161499">
        <ele>42.083641052246094</ele>
        <time>2021-04-04T20:02:32Z</time>
      </trkpt>
      <trkpt lat="43.45669174194336" lon="-3.826693058013916">
        <ele>40.62909698486328</ele>
        <time>2021-04-04T20:02:33Z</time>
      </trkpt>
      <trkpt lat="43.4566650390625" lon="-3.826756238937378">
        <ele>40.62909698486328</ele>
        <time>2021-04-04T20:02:34Z</time>
      </trkpt>
      <trkpt lat="43.456626892089844" lon="-3.826808214187622">
        <ele>38.810916900634766</ele>
        <time>2021-04-04T20:02:35Z</time>
      </trkpt>
      <trkpt lat="43.45657730102539" lon="-3.8268520832061768">
        <ele>38.810916900634766</ele>
        <time>2021-04-04T20:02:36Z</time>
      </trkpt>
      <trkpt lat="43.45652389526367" lon="-3.826890707015991">
        <ele>37.08364486694336</ele>
        <time>2021-04-04T20:02:37Z</time>
      </trkpt>
      <trkpt lat="43.45646667480469" lon="-3.826925277709961">
        <ele>37.08364486694336</ele>
        <time>2021-04-04T20:02:38Z</time>
      </trkpt>
      <trkpt lat="43.4564094543457" lon="-3.826953649520874">
        <ele>34.99273681640625</ele>
        <time>2021-04-04T20:02:39Z</time>
      </trkpt>
      <trkpt lat="43.45634841918945" lon="-3.826982021331787">
        <ele>34.99273681640625</ele>
        <time>2021-04-04T20:02:40Z</time>
      </trkpt>
      <trkpt lat="43.4562873840332" lon="-3.827007293701172">
        <ele>33.265464782714844</ele>
        <time>2021-04-04T20:02:41Z</time>
      </trkpt>
      <trkpt lat="43.45623016357422" lon="-3.827030658721924">
        <ele>33.265464782714844</ele>
        <time>2021-04-04T20:02:42Z</time>
      </trkpt>
      <trkpt lat="43.45616149902344" lon="-3.827056884765625">
        <ele>31.72001075744629</ele>
        <time>2021-04-04T20:02:43Z</time>
      </trkpt>
      <trkpt lat="43.456092834472656" lon="-3.8270833492279053">
        <ele>31.72001075744629</ele>
        <time>2021-04-04T20:02:44Z</time>
      </trkpt>
      <trkpt lat="43.45602035522461" lon="-3.827108383178711">
        <ele>30.174556732177734</ele>
        <time>2021-04-04T20:02:45Z</time>
      </trkpt>
      <trkpt lat="43.4559440612793" lon="-3.827133893966675">
        <ele>30.174556732177734</ele>
        <time>2021-04-04T20:02:46Z</time>
      </trkpt>
      <trkpt lat="43.45587158203125" lon="-3.8271584510803223">
        <ele>28.81092071533203</ele>
        <time>2021-04-04T20:02:47Z</time>
      </trkpt>
      <trkpt lat="43.45578384399414" lon="-3.8271865844726563">
        <ele>28.81092071533203</ele>
        <time>2021-04-04T20:02:48Z</time>
      </trkpt>
      <trkpt lat="43.45569610595703" lon="-3.8272159099578857">
        <ele>27.447284698486328</ele>
        <time>2021-04-04T20:02:49Z</time>
      </trkpt>
      <trkpt lat="43.455604553222656" lon="-3.827247381210327">
        <ele>27.447284698486328</ele>
        <time>2021-04-04T20:02:50Z</time>
      </trkpt>
      <trkpt lat="43.45551300048828" lon="-3.827280282974243">
        <ele>27.447284698486328</ele>
        <time>2021-04-04T20:02:51Z</time>
      </trkpt>
      <trkpt lat="43.45541763305664" lon="-3.8273138999938965">
        <ele>26.265466690063477</ele>
        <time>2021-04-04T20:02:52Z</time>
      </trkpt>
      <trkpt lat="43.455318450927734" lon="-3.827347755432129">
        <ele>26.265466690063477</ele>
        <time>2021-04-04T20:02:53Z</time>
      </trkpt>
      <trkpt lat="43.45521926879883" lon="-3.8273799419403076">
        <ele>26.265466690063477</ele>
        <time>2021-04-04T20:02:54Z</time>
      </trkpt>
      <trkpt lat="43.45512008666992" lon="-3.827413320541382">
        <ele>26.265466690063477</ele>
        <time>2021-04-04T20:02:55Z</time>
      </trkpt>
      <trkpt lat="43.45501708984375" lon="-3.8274476528167725">
        <ele>26.265466690063477</ele>
        <time>2021-04-04T20:02:56Z</time>
      </trkpt>
      <trkpt lat="43.454917907714844" lon="-3.827482223510742">
        <ele>26.265466690063477</ele>
        <time>2021-04-04T20:02:57Z</time>
      </trkpt>
      <trkpt lat="43.45481872558594" lon="-3.8275179862976074">
        <ele>26.265466690063477</ele>
        <time>2021-04-04T20:02:58Z</time>
      </trkpt>
      <trkpt lat="43.4547233581543" lon="-3.827557325363159">
        <ele>26.265466690063477</ele>
        <time>2021-04-04T20:02:59Z</time>
      </trkpt>
      <trkpt lat="43.45463562011719" lon="-3.8275976181030273">
        <ele>26.265466690063477</ele>
        <time>2021-04-04T20:03:00Z</time>
      </trkpt>
      <trkpt lat="43.45454788208008" lon="-3.8276491165161133">
        <ele>27.447284698486328</ele>
        <time>2021-04-04T20:03:01Z</time>
      </trkpt>
      <trkpt lat="43.454471588134766" lon="-3.8277065753936768">
        <ele>27.447284698486328</ele>
        <time>2021-04-04T20:03:02Z</time>
      </trkpt>
      <trkpt lat="43.45439910888672" lon="-3.827770709991455">
        <ele>27.447284698486328</ele>
        <time>2021-04-04T20:03:03Z</time>
      </trkpt>
      <trkpt lat="43.45433807373047" lon="-3.8278393745422363">
        <ele>27.447284698486328</ele>
        <time>2021-04-04T20:03:04Z</time>
      </trkpt>
      <trkpt lat="43.45429229736328" lon="-3.827911615371704">
        <ele>27.447284698486328</ele>
        <time>2021-04-04T20:03:05Z</time>
      </trkpt>
      <trkpt lat="43.454254150390625" lon="-3.827984571456909">
        <ele>27.447284698486328</ele>
        <time>2021-04-04T20:03:06Z</time>
      </trkpt>
      <trkpt lat="43.4542236328125" lon="-3.828054666519165">
        <ele>27.447284698486328</ele>
        <time>2021-04-04T20:03:07Z</time>
      </trkpt>
      <trkpt lat="43.45420837402344" lon="-3.8281197547912598">
        <ele>27.447284698486328</ele>
        <time>2021-04-04T20:03:08Z</time>
      </trkpt>
      <trkpt lat="43.45418930053711" lon="-3.8282382488250732">
        <ele>27.447284698486328</ele>
        <time>2021-04-04T20:03:10Z</time>
      </trkpt>
      <trkpt lat="43.45418930053711" lon="-3.8283584117889404">
        <ele>27.447284698486328</ele>
        <time>2021-04-04T20:03:12Z</time>
      </trkpt>
      <trkpt lat="43.45420455932617" lon="-3.8284950256347656">
        <ele>27.447284698486328</ele>
        <time>2021-04-04T20:03:14Z</time>
      </trkpt>
      <trkpt lat="43.45420837402344" lon="-3.8285703659057617">
        <ele>27.447284698486328</ele>
        <time>2021-04-04T20:03:15Z</time>
      </trkpt>
      <trkpt lat="43.45420837402344" lon="-3.828644037246704">
        <ele>27.447284698486328</ele>
        <time>2021-04-04T20:03:16Z</time>
      </trkpt>
      <trkpt lat="43.45420455932617" lon="-3.8287222385406494">
        <ele>27.447284698486328</ele>
        <time>2021-04-04T20:03:17Z</time>
      </trkpt>
      <trkpt lat="43.454193115234375" lon="-3.8288004398345947">
        <ele>27.447284698486328</ele>
        <time>2021-04-04T20:03:18Z</time>
      </trkpt>
      <trkpt lat="43.45417022705078" lon="-3.8288791179656982">
        <ele>27.447284698486328</ele>
        <time>2021-04-04T20:03:19Z</time>
      </trkpt>
      <trkpt lat="43.45413589477539" lon="-3.8289496898651123">
        <ele>26.083648681640625</ele>
        <time>2021-04-04T20:03:20Z</time>
      </trkpt>
      <trkpt lat="43.454097747802734" lon="-3.829011917114258">
        <ele>26.083648681640625</ele>
        <time>2021-04-04T20:03:21Z</time>
      </trkpt>
      <trkpt lat="43.45405197143555" lon="-3.8290677070617676">
        <ele>26.083648681640625</ele>
        <time>2021-04-04T20:03:22Z</time>
      </trkpt>
      <trkpt lat="43.45399856567383" lon="-3.8291220664978027">
        <ele>26.083648681640625</ele>
        <time>2021-04-04T20:03:23Z</time>
      </trkpt>
      <trkpt lat="43.453948974609375" lon="-3.829179048538208">
        <ele>24.720012664794922</ele>
        <time>2021-04-04T20:03:24Z</time>
      </trkpt>
      <trkpt lat="43.453895568847656" lon="-3.8292434215545654">
        <ele>24.720012664794922</ele>
        <time>2021-04-04T20:03:25Z</time>
      </trkpt>
      <trkpt lat="43.4538459777832" lon="-3.829315423965454">
        <ele>24.720012664794922</ele>
        <time>2021-04-04T20:03:26Z</time>
      </trkpt>
      <trkpt lat="43.45380401611328" lon="-3.8293941020965576">
        <ele>24.720012664794922</ele>
        <time>2021-04-04T20:03:27Z</time>
      </trkpt>
      <trkpt lat="43.453765869140625" lon="-3.8294789791107178">
        <ele>24.720012664794922</ele>
        <time>2021-04-04T20:03:28Z</time>
      </trkpt>
      <trkpt lat="43.45372772216797" lon="-3.8295693397521973">
        <ele>24.720012664794922</ele>
        <time>2021-04-04T20:03:29Z</time>
      </trkpt>
      <trkpt lat="43.45369338989258" lon="-3.829665422439575">
        <ele>24.720012664794922</ele>
        <time>2021-04-04T20:03:30Z</time>
      </trkpt>
      <trkpt lat="43.45365905761719" lon="-3.8297650814056396">
        <ele>24.720012664794922</ele>
        <time>2021-04-04T20:03:31Z</time>
      </trkpt>
      <trkpt lat="43.45362854003906" lon="-3.829869031906128">
        <ele>24.720012664794922</ele>
        <time>2021-04-04T20:03:32Z</time>
      </trkpt>
      <trkpt lat="43.45359802246094" lon="-3.829977035522461">
        <ele>23.53819465637207</ele>
        <time>2021-04-04T20:03:33Z</time>
      </trkpt>
      <trkpt lat="43.45356369018555" lon="-3.8300869464874268">
        <ele>23.53819465637207</ele>
        <time>2021-04-04T20:03:34Z</time>
      </trkpt>
      <trkpt lat="43.45353317260742" lon="-3.830199718475342">
        <ele>23.53819465637207</ele>
        <time>2021-04-04T20:03:35Z</time>
      </trkpt>
      <trkpt lat="43.45349884033203" lon="-3.8303143978118896">
        <ele>23.53819465637207</ele>
        <time>2021-04-04T20:03:36Z</time>
      </trkpt>
      <trkpt lat="43.45346450805664" lon="-3.8304312229156494">
        <ele>22.265466690063477</ele>
        <time>2021-04-04T20:03:37Z</time>
      </trkpt>
      <trkpt lat="43.453433990478516" lon="-3.8305513858795166">
        <ele>22.265466690063477</ele>
        <time>2021-04-04T20:03:38Z</time>
      </trkpt>
      <trkpt lat="43.45340347290039" lon="-3.8306729793548584">
        <ele>22.265466690063477</ele>
        <time>2021-04-04T20:03:39Z</time>
      </trkpt>
      <trkpt lat="43.453369140625" lon="-3.830796718597412">
        <ele>22.265466690063477</ele>
        <time>2021-04-04T20:03:40Z</time>
      </trkpt>
      <trkpt lat="43.45333480834961" lon="-3.8309216499328613">
        <ele>22.265466690063477</ele>
        <time>2021-04-04T20:03:41Z</time>
      </trkpt>
      <trkpt lat="43.45330047607422" lon="-3.831048011779785">
        <ele>22.265466690063477</ele>
        <time>2021-04-04T20:03:42Z</time>
      </trkpt>
      <trkpt lat="43.453269958496094" lon="-3.8311736583709717">
        <ele>20.901830673217773</ele>
        <time>2021-04-04T20:03:43Z</time>
      </trkpt>
      <trkpt lat="43.4532356262207" lon="-3.8312997817993164">
        <ele>20.901830673217773</ele>
        <time>2021-04-04T20:03:44Z</time>
      </trkpt>
      <trkpt lat="43.45320129394531" lon="-3.8314249515533447">
        <ele>20.901830673217773</ele>
        <time>2021-04-04T20:03:45Z</time>
      </trkpt>
      <trkpt lat="43.45316696166992" lon="-3.8315489292144775">
        <ele>20.901830673217773</ele>
        <time>2021-04-04T20:03:46Z</time>
      </trkpt>
      <trkpt lat="43.453125" lon="-3.8316800594329834">
        <ele>20.901830673217773</ele>
        <time>2021-04-04T20:03:47Z</time>
      </trkpt>
      <trkpt lat="43.45308303833008" lon="-3.8318135738372803">
        <ele>20.901830673217773</ele>
        <time>2021-04-04T20:03:48Z</time>
      </trkpt>
      <trkpt lat="43.45304489135742" lon="-3.8319408893585205">
        <ele>20.901830673217773</ele>
        <time>2021-04-04T20:03:49Z</time>
      </trkpt>
      <trkpt lat="43.453006744384766" lon="-3.8320603370666504">
        <ele>19.720012664794922</ele>
        <time>2021-04-04T20:03:50Z</time>
      </trkpt>
      <trkpt lat="43.45297622680664" lon="-3.8321735858917236">
        <ele>19.720012664794922</ele>
        <time>2021-04-04T20:03:51Z</time>
      </trkpt>
      <trkpt lat="43.452945709228516" lon="-3.8322856426239014">
        <ele>19.720012664794922</ele>
        <time>2021-04-04T20:03:52Z</time>
      </trkpt>
      <trkpt lat="43.45291519165039" lon="-3.8323986530303955">
        <ele>19.720012664794922</ele>
        <time>2021-04-04T20:03:53Z</time>
      </trkpt>
      <trkpt lat="43.452884674072266" lon="-3.832509994506836">
        <ele>19.720012664794922</ele>
        <time>2021-04-04T20:03:54Z</time>
      </trkpt>
      <trkpt lat="43.45285415649414" lon="-3.83261775970459">
        <ele>19.720012664794922</ele>
        <time>2021-04-04T20:03:55Z</time>
      </trkpt>
      <trkpt lat="43.45282745361328" lon="-3.8327250480651855">
        <ele>19.720012664794922</ele>
        <time>2021-04-04T20:03:56Z</time>
      </trkpt>
      <trkpt lat="43.45280075073242" lon="-3.832831382751465">
        <ele>19.720012664794922</ele>
        <time>2021-04-04T20:03:57Z</time>
      </trkpt>
      <trkpt lat="43.45277404785156" lon="-3.8329362869262695">
        <ele>19.720012664794922</ele>
        <time>2021-04-04T20:03:58Z</time>
      </trkpt>
      <trkpt lat="43.4527473449707" lon="-3.833043098449707">
        <ele>19.720012664794922</ele>
        <time>2021-04-04T20:03:59Z</time>
      </trkpt>
      <trkpt lat="43.452720642089844" lon="-3.8331480026245117">
        <ele>19.720012664794922</ele>
        <time>2021-04-04T20:04:00Z</time>
      </trkpt>
      <trkpt lat="43.45269775390625" lon="-3.8332536220550537">
        <ele>19.720012664794922</ele>
        <time>2021-04-04T20:04:01Z</time>
      </trkpt>
      <trkpt lat="43.45267105102539" lon="-3.833359956741333">
        <ele>19.720012664794922</ele>
        <time>2021-04-04T20:04:02Z</time>
      </trkpt>
      <trkpt lat="43.45264434814453" lon="-3.8334670066833496">
        <ele>19.720012664794922</ele>
        <time>2021-04-04T20:04:03Z</time>
      </trkpt>
      <trkpt lat="43.452613830566406" lon="-3.8335750102996826">
        <ele>19.720012664794922</ele>
        <time>2021-04-04T20:04:04Z</time>
      </trkpt>
      <trkpt lat="43.45258712768555" lon="-3.833682060241699">
        <ele>19.720012664794922</ele>
        <time>2021-04-04T20:04:05Z</time>
      </trkpt>
      <trkpt lat="43.45256042480469" lon="-3.8337900638580322">
        <ele>19.720012664794922</ele>
        <time>2021-04-04T20:04:06Z</time>
      </trkpt>
      <trkpt lat="43.45253372192383" lon="-3.833894968032837">
        <ele>19.720012664794922</ele>
        <time>2021-04-04T20:04:07Z</time>
      </trkpt>
      <trkpt lat="43.45250701904297" lon="-3.8339970111846924">
        <ele>19.720012664794922</ele>
        <time>2021-04-04T20:04:08Z</time>
      </trkpt>
      <trkpt lat="43.45248031616211" lon="-3.8340959548950195">
        <ele>19.720012664794922</ele>
        <time>2021-04-04T20:04:09Z</time>
      </trkpt>
      <trkpt lat="43.45245361328125" lon="-3.834196090698242">
        <ele>19.720012664794922</ele>
        <time>2021-04-04T20:04:10Z</time>
      </trkpt>
      <trkpt lat="43.45242691040039" lon="-3.8342974185943604">
        <ele>19.720012664794922</ele>
        <time>2021-04-04T20:04:11Z</time>
      </trkpt>
      <trkpt lat="43.45240020751953" lon="-3.8343992233276367">
        <ele>19.720012664794922</ele>
        <time>2021-04-04T20:04:12Z</time>
      </trkpt>
      <trkpt lat="43.45237350463867" lon="-3.834498882293701">
        <ele>19.720012664794922</ele>
        <time>2021-04-04T20:04:13Z</time>
      </trkpt>
      <trkpt lat="43.45234680175781" lon="-3.8345959186553955">
        <ele>19.720012664794922</ele>
        <time>2021-04-04T20:04:14Z</time>
      </trkpt>
      <trkpt lat="43.45232009887695" lon="-3.8346922397613525">
        <ele>19.720012664794922</ele>
        <time>2021-04-04T20:04:15Z</time>
      </trkpt>
      <trkpt lat="43.452293395996094" lon="-3.834789276123047">
        <ele>19.720012664794922</ele>
        <time>2021-04-04T20:04:16Z</time>
      </trkpt>
      <trkpt lat="43.452266693115234" lon="-3.8348889350891113">
        <ele>19.720012664794922</ele>
        <time>2021-04-04T20:04:17Z</time>
      </trkpt>
      <trkpt lat="43.452239990234375" lon="-3.8349876403808594">
        <ele>19.720012664794922</ele>
        <time>2021-04-04T20:04:18Z</time>
      </trkpt>
      <trkpt lat="43.452213287353516" lon="-3.835083246231079">
        <ele>19.720012664794922</ele>
        <time>2021-04-04T20:04:19Z</time>
      </trkpt>
      <trkpt lat="43.45219039916992" lon="-3.835179567337036">
        <ele>19.720012664794922</ele>
        <time>2021-04-04T20:04:20Z</time>
      </trkpt>
      <trkpt lat="43.45216369628906" lon="-3.8352763652801514">
        <ele>19.720012664794922</ele>
        <time>2021-04-04T20:04:21Z</time>
      </trkpt>
      <trkpt lat="43.4521369934082" lon="-3.8353726863861084">
        <ele>19.720012664794922</ele>
        <time>2021-04-04T20:04:22Z</time>
      </trkpt>
      <trkpt lat="43.45211410522461" lon="-3.835469961166382">
        <ele>19.720012664794922</ele>
        <time>2021-04-04T20:04:23Z</time>
      </trkpt>
      <trkpt lat="43.45208740234375" lon="-3.8355655670166016">
        <ele>19.720012664794922</ele>
        <time>2021-04-04T20:04:24Z</time>
      </trkpt>
      <trkpt lat="43.45206069946289" lon="-3.8356575965881348">
        <ele>19.720012664794922</ele>
        <time>2021-04-04T20:04:25Z</time>
      </trkpt>
      <trkpt lat="43.4520378112793" lon="-3.8357579708099365">
        <ele>19.720012664794922</ele>
        <time>2021-04-04T20:04:26Z</time>
      </trkpt>
      <trkpt lat="43.45201110839844" lon="-3.83585262298584">
        <ele>19.720012664794922</ele>
        <time>2021-04-04T20:04:27Z</time>
      </trkpt>
      <trkpt lat="43.45198440551758" lon="-3.8359439373016357">
        <ele>19.720012664794922</ele>
        <time>2021-04-04T20:04:28Z</time>
      </trkpt>
      <trkpt lat="43.45195388793945" lon="-3.8360376358032227">
        <ele>19.720012664794922</ele>
        <time>2021-04-04T20:04:29Z</time>
      </trkpt>
      <trkpt lat="43.45192337036133" lon="-3.8361306190490723">
        <ele>19.720012664794922</ele>
        <time>2021-04-04T20:04:30Z</time>
      </trkpt>
      <trkpt lat="43.4518928527832" lon="-3.8362233638763428">
        <ele>19.720012664794922</ele>
        <time>2021-04-04T20:04:31Z</time>
      </trkpt>
      <trkpt lat="43.45186233520508" lon="-3.8363163471221924">
        <ele>19.720012664794922</ele>
        <time>2021-04-04T20:04:32Z</time>
      </trkpt>
      <trkpt lat="43.45183563232422" lon="-3.836409330368042">
        <ele>19.720012664794922</ele>
        <time>2021-04-04T20:04:33Z</time>
      </trkpt>
      <trkpt lat="43.451805114746094" lon="-3.836493968963623">
        <ele>19.720012664794922</ele>
        <time>2021-04-04T20:04:34Z</time>
      </trkpt>
      <trkpt lat="43.45177459716797" lon="-3.8365845680236816">
        <ele>19.720012664794922</ele>
        <time>2021-04-04T20:04:35Z</time>
      </trkpt>
      <trkpt lat="43.45174026489258" lon="-3.8366737365722656">
        <ele>19.720012664794922</ele>
        <time>2021-04-04T20:04:36Z</time>
      </trkpt>
      <trkpt lat="43.45170593261719" lon="-3.836763381958008">
        <ele>19.720012664794922</ele>
        <time>2021-04-04T20:04:37Z</time>
      </trkpt>
      <trkpt lat="43.45167541503906" lon="-3.8368523120880127">
        <ele>19.720012664794922</ele>
        <time>2021-04-04T20:04:38Z</time>
      </trkpt>
      <trkpt lat="43.45164108276367" lon="-3.8369357585906982">
        <ele>19.720012664794922</ele>
        <time>2021-04-04T20:04:39Z</time>
      </trkpt>
      <trkpt lat="43.45160675048828" lon="-3.8370249271392822">
        <ele>19.720012664794922</ele>
        <time>2021-04-04T20:04:40Z</time>
      </trkpt>
      <trkpt lat="43.45157241821289" lon="-3.8371129035949707">
        <ele>19.720012664794922</ele>
        <time>2021-04-04T20:04:41Z</time>
      </trkpt>
      <trkpt lat="43.451541900634766" lon="-3.8371939659118652">
        <ele>19.720012664794922</ele>
        <time>2021-04-04T20:04:42Z</time>
      </trkpt>
      <trkpt lat="43.451507568359375" lon="-3.837275743484497">
        <ele>19.720012664794922</ele>
        <time>2021-04-04T20:04:43Z</time>
      </trkpt>
      <trkpt lat="43.451473236083984" lon="-3.837362766265869">
        <ele>19.720012664794922</ele>
        <time>2021-04-04T20:04:44Z</time>
      </trkpt>
      <trkpt lat="43.45143508911133" lon="-3.8374476432800293">
        <ele>19.720012664794922</ele>
        <time>2021-04-04T20:04:45Z</time>
      </trkpt>
      <trkpt lat="43.45140075683594" lon="-3.8375303745269775">
        <ele>19.720012664794922</ele>
        <time>2021-04-04T20:04:46Z</time>
      </trkpt>
      <trkpt lat="43.45136642456055" lon="-3.837610960006714">
        <ele>19.720012664794922</ele>
        <time>2021-04-04T20:04:47Z</time>
      </trkpt>
      <trkpt lat="43.451332092285156" lon="-3.8376917839050293">
        <ele>19.720012664794922</ele>
        <time>2021-04-04T20:04:48Z</time>
      </trkpt>
      <trkpt lat="43.451297760009766" lon="-3.83776593208313">
        <ele>19.720012664794922</ele>
        <time>2021-04-04T20:04:49Z</time>
      </trkpt>
      <trkpt lat="43.451263427734375" lon="-3.837847948074341">
        <ele>19.720012664794922</ele>
        <time>2021-04-04T20:04:50Z</time>
      </trkpt>
      <trkpt lat="43.45122528076172" lon="-3.8379290103912354">
        <ele>19.720012664794922</ele>
        <time>2021-04-04T20:04:51Z</time>
      </trkpt>
      <trkpt lat="43.45119094848633" lon="-3.8380095958709717">
        <ele>19.720012664794922</ele>
        <time>2021-04-04T20:04:52Z</time>
      </trkpt>
      <trkpt lat="43.45115280151367" lon="-3.83809494972229">
        <ele>19.720012664794922</ele>
        <time>2021-04-04T20:04:53Z</time>
      </trkpt>
      <trkpt lat="43.45111846923828" lon="-3.838172674179077">
        <ele>19.720012664794922</ele>
        <time>2021-04-04T20:04:54Z</time>
      </trkpt>
      <trkpt lat="43.45108413696289" lon="-3.838249683380127">
        <ele>19.720012664794922</ele>
        <time>2021-04-04T20:04:55Z</time>
      </trkpt>
      <trkpt lat="43.4510498046875" lon="-3.8383328914642334">
        <ele>19.720012664794922</ele>
        <time>2021-04-04T20:04:56Z</time>
      </trkpt>
      <trkpt lat="43.451019287109375" lon="-3.838408946990967">
        <ele>19.720012664794922</ele>
        <time>2021-04-04T20:04:57Z</time>
      </trkpt>
      <trkpt lat="43.450984954833984" lon="-3.8384852409362793">
        <ele>19.720012664794922</ele>
        <time>2021-04-04T20:04:58Z</time>
      </trkpt>
      <trkpt lat="43.450950622558594" lon="-3.83856201171875">
        <ele>19.720012664794922</ele>
        <time>2021-04-04T20:04:59Z</time>
      </trkpt>
      <trkpt lat="43.45092010498047" lon="-3.8386390209198">
        <ele>19.720012664794922</ele>
        <time>2021-04-04T20:05:00Z</time>
      </trkpt>
      <trkpt lat="43.450889587402344" lon="-3.8387162685394287">
        <ele>19.720012664794922</ele>
        <time>2021-04-04T20:05:01Z</time>
      </trkpt>
      <trkpt lat="43.45085525512695" lon="-3.838798999786377">
        <ele>19.720012664794922</ele>
        <time>2021-04-04T20:05:02Z</time>
      </trkpt>
      <trkpt lat="43.45082092285156" lon="-3.8388757705688477">
        <ele>19.720012664794922</ele>
        <time>2021-04-04T20:05:03Z</time>
      </trkpt>
      <trkpt lat="43.45079040527344" lon="-3.838953733444214">
        <ele>19.720012664794922</ele>
        <time>2021-04-04T20:05:04Z</time>
      </trkpt>
      <trkpt lat="43.45075988769531" lon="-3.83903169631958">
        <ele>19.720012664794922</ele>
        <time>2021-04-04T20:05:05Z</time>
      </trkpt>
      <trkpt lat="43.45072555541992" lon="-3.839109420776367">
        <ele>19.720012664794922</ele>
        <time>2021-04-04T20:05:06Z</time>
      </trkpt>
      <trkpt lat="43.4506950378418" lon="-3.839186906814575">
        <ele>19.720012664794922</ele>
        <time>2021-04-04T20:05:07Z</time>
      </trkpt>
      <trkpt lat="43.45066452026367" lon="-3.839264392852783">
        <ele>19.720012664794922</ele>
        <time>2021-04-04T20:05:08Z</time>
      </trkpt>
      <trkpt lat="43.45063400268555" lon="-3.839340925216675">
        <ele>19.720012664794922</ele>
        <time>2021-04-04T20:05:09Z</time>
      </trkpt>
      <trkpt lat="43.45060348510742" lon="-3.8394176959991455">
        <ele>19.720012664794922</ele>
        <time>2021-04-04T20:05:10Z</time>
      </trkpt>
      <trkpt lat="43.4505729675293" lon="-3.839494228363037">
        <ele>19.720012664794922</ele>
        <time>2021-04-04T20:05:11Z</time>
      </trkpt>
      <trkpt lat="43.45054244995117" lon="-3.839571714401245">
        <ele>19.720012664794922</ele>
        <time>2021-04-04T20:05:12Z</time>
      </trkpt>
      <trkpt lat="43.45051193237305" lon="-3.839646339416504">
        <ele>20.901830673217773</ele>
        <time>2021-04-04T20:05:13Z</time>
      </trkpt>
      <trkpt lat="43.45048141479492" lon="-3.839721918106079">
        <ele>20.901830673217773</ele>
        <time>2021-04-04T20:05:14Z</time>
      </trkpt>
      <trkpt lat="43.4504508972168" lon="-3.839797258377075">
        <ele>20.901830673217773</ele>
        <time>2021-04-04T20:05:15Z</time>
      </trkpt>
      <trkpt lat="43.45042037963867" lon="-3.8398733139038086">
        <ele>20.901830673217773</ele>
        <time>2021-04-04T20:05:16Z</time>
      </trkpt>
      <trkpt lat="43.45038986206055" lon="-3.8399500846862793">
        <ele>20.901830673217773</ele>
        <time>2021-04-04T20:05:17Z</time>
      </trkpt>
      <trkpt lat="43.45035934448242" lon="-3.840027093887329">
        <ele>20.901830673217773</ele>
        <time>2021-04-04T20:05:18Z</time>
      </trkpt>
      <trkpt lat="43.4503288269043" lon="-3.840104341506958">
        <ele>20.901830673217773</ele>
        <time>2021-04-04T20:05:19Z</time>
      </trkpt>
      <trkpt lat="43.45029830932617" lon="-3.8401827812194824">
        <ele>20.901830673217773</ele>
        <time>2021-04-04T20:05:20Z</time>
      </trkpt>
      <trkpt lat="43.45026779174805" lon="-3.8402602672576904">
        <ele>20.901830673217773</ele>
        <time>2021-04-04T20:05:21Z</time>
      </trkpt>
      <trkpt lat="43.45023727416992" lon="-3.8403382301330566">
        <ele>20.901830673217773</ele>
        <time>2021-04-04T20:05:22Z</time>
      </trkpt>
      <trkpt lat="43.45021057128906" lon="-3.840416431427002">
        <ele>20.901830673217773</ele>
        <time>2021-04-04T20:05:23Z</time>
      </trkpt>
      <trkpt lat="43.45018005371094" lon="-3.8404953479766846">
        <ele>20.901830673217773</ele>
        <time>2021-04-04T20:05:24Z</time>
      </trkpt>
      <trkpt lat="43.45015335083008" lon="-3.8405749797821045">
        <ele>20.901830673217773</ele>
        <time>2021-04-04T20:05:25Z</time>
      </trkpt>
      <trkpt lat="43.45012664794922" lon="-3.840656280517578">
        <ele>20.901830673217773</ele>
        <time>2021-04-04T20:05:26Z</time>
      </trkpt>
      <trkpt lat="43.450103759765625" lon="-3.8407375812530518">
        <ele>20.901830673217773</ele>
        <time>2021-04-04T20:05:27Z</time>
      </trkpt>
      <trkpt lat="43.45008087158203" lon="-3.8408203125">
        <ele>20.901830673217773</ele>
        <time>2021-04-04T20:05:28Z</time>
      </trkpt>
      <trkpt lat="43.4500617980957" lon="-3.8409039974212646">
        <ele>20.901830673217773</ele>
        <time>2021-04-04T20:05:29Z</time>
      </trkpt>
      <trkpt lat="43.45003890991211" lon="-3.8409876823425293">
        <ele>22.083648681640625</ele>
        <time>2021-04-04T20:05:30Z</time>
      </trkpt>
      <trkpt lat="43.45002365112305" lon="-3.8410720825195313">
        <ele>22.083648681640625</ele>
        <time>2021-04-04T20:05:31Z</time>
      </trkpt>
      <trkpt lat="43.450008392333984" lon="-3.8411567211151123">
        <ele>22.083648681640625</ele>
        <time>2021-04-04T20:05:32Z</time>
      </trkpt>
      <trkpt lat="43.44999313354492" lon="-3.841235399246216">
        <ele>22.083648681640625</ele>
        <time>2021-04-04T20:05:33Z</time>
      </trkpt>
      <trkpt lat="43.449981689453125" lon="-3.8413219451904297">
        <ele>22.083648681640625</ele>
        <time>2021-04-04T20:05:34Z</time>
      </trkpt>
      <trkpt lat="43.44996643066406" lon="-3.8414087295532227">
        <ele>22.083648681640625</ele>
        <time>2021-04-04T20:05:35Z</time>
      </trkpt>
      <trkpt lat="43.449954986572266" lon="-3.841495990753174">
        <ele>22.083648681640625</ele>
        <time>2021-04-04T20:05:36Z</time>
      </trkpt>
      <trkpt lat="43.44994354248047" lon="-3.841583728790283">
        <ele>22.083648681640625</ele>
        <time>2021-04-04T20:05:37Z</time>
      </trkpt>
      <trkpt lat="43.44993209838867" lon="-3.8416709899902344">
        <ele>22.083648681640625</ele>
        <time>2021-04-04T20:05:38Z</time>
      </trkpt>
      <trkpt lat="43.449920654296875" lon="-3.8417587280273438">
        <ele>22.083648681640625</ele>
        <time>2021-04-04T20:05:39Z</time>
      </trkpt>
      <trkpt lat="43.44990921020508" lon="-3.841850757598877">
        <ele>22.083648681640625</ele>
        <time>2021-04-04T20:05:40Z</time>
      </trkpt>
      <trkpt lat="43.44989776611328" lon="-3.8419346809387207">
        <ele>22.083648681640625</ele>
        <time>2021-04-04T20:05:41Z</time>
      </trkpt>
      <trkpt lat="43.449886322021484" lon="-3.8420193195343018">
        <ele>22.083648681640625</ele>
        <time>2021-04-04T20:05:42Z</time>
      </trkpt>
      <trkpt lat="43.44987487792969" lon="-3.84209942817688">
        <ele>22.083648681640625</ele>
        <time>2021-04-04T20:05:43Z</time>
      </trkpt>
      <trkpt lat="43.44986343383789" lon="-3.842181444168091">
        <ele>22.083648681640625</ele>
        <time>2021-04-04T20:05:44Z</time>
      </trkpt>
      <trkpt lat="43.449851989746094" lon="-3.8422698974609375">
        <ele>22.083648681640625</ele>
        <time>2021-04-04T20:05:45Z</time>
      </trkpt>
      <trkpt lat="43.4498405456543" lon="-3.8423573970794678">
        <ele>22.083648681640625</ele>
        <time>2021-04-04T20:05:46Z</time>
      </trkpt>
      <trkpt lat="43.4498291015625" lon="-3.8424439430236816">
        <ele>22.083648681640625</ele>
        <time>2021-04-04T20:05:47Z</time>
      </trkpt>
      <trkpt lat="43.4498176574707" lon="-3.842529773712158">
        <ele>22.083648681640625</ele>
        <time>2021-04-04T20:05:48Z</time>
      </trkpt>
      <trkpt lat="43.449806213378906" lon="-3.8426144123077393">
        <ele>22.083648681640625</ele>
        <time>2021-04-04T20:05:49Z</time>
      </trkpt>
      <trkpt lat="43.44979476928711" lon="-3.8426976203918457">
        <ele>22.083648681640625</ele>
        <time>2021-04-04T20:05:50Z</time>
      </trkpt>
      <trkpt lat="43.44978332519531" lon="-3.8427810668945313">
        <ele>22.083648681640625</ele>
        <time>2021-04-04T20:05:51Z</time>
      </trkpt>
      <trkpt lat="43.449771881103516" lon="-3.842864751815796">
        <ele>22.083648681640625</ele>
        <time>2021-04-04T20:05:52Z</time>
      </trkpt>
      <trkpt lat="43.44976043701172" lon="-3.8429489135742188">
        <ele>22.083648681640625</ele>
        <time>2021-04-04T20:05:53Z</time>
      </trkpt>
      <trkpt lat="43.449745178222656" lon="-3.8430325984954834">
        <ele>22.083648681640625</ele>
        <time>2021-04-04T20:05:54Z</time>
      </trkpt>
      <trkpt lat="43.44973373413086" lon="-3.8431169986724854">
        <ele>22.083648681640625</ele>
        <time>2021-04-04T20:05:55Z</time>
      </trkpt>
      <trkpt lat="43.44972229003906" lon="-3.84320068359375">
        <ele>22.083648681640625</ele>
        <time>2021-04-04T20:05:56Z</time>
      </trkpt>
      <trkpt lat="43.449710845947266" lon="-3.8432843685150146">
        <ele>22.083648681640625</ele>
        <time>2021-04-04T20:05:57Z</time>
      </trkpt>
      <trkpt lat="43.44969940185547" lon="-3.843367576599121">
        <ele>22.083648681640625</ele>
        <time>2021-04-04T20:05:58Z</time>
      </trkpt>
      <trkpt lat="43.449684143066406" lon="-3.8434510231018066">
        <ele>22.083648681640625</ele>
        <time>2021-04-04T20:05:59Z</time>
      </trkpt>
      <trkpt lat="43.44967269897461" lon="-3.843534231185913">
        <ele>22.083648681640625</ele>
        <time>2021-04-04T20:06:00Z</time>
      </trkpt>
      <trkpt lat="43.44966125488281" lon="-3.8436169624328613">
        <ele>22.083648681640625</ele>
        <time>2021-04-04T20:06:01Z</time>
      </trkpt>
      <trkpt lat="43.449649810791016" lon="-3.8436992168426514">
        <ele>22.083648681640625</ele>
        <time>2021-04-04T20:06:02Z</time>
      </trkpt>
      <trkpt lat="43.44963836669922" lon="-3.843780994415283">
        <ele>23.265466690063477</ele>
        <time>2021-04-04T20:06:03Z</time>
      </trkpt>
      <trkpt lat="43.449623107910156" lon="-3.8438570499420166">
        <ele>23.265466690063477</ele>
        <time>2021-04-04T20:06:04Z</time>
      </trkpt>
      <trkpt lat="43.44961166381836" lon="-3.843940019607544">
        <ele>23.265466690063477</ele>
        <time>2021-04-04T20:06:05Z</time>
      </trkpt>
      <trkpt lat="43.44960021972656" lon="-3.8440229892730713">
        <ele>23.265466690063477</ele>
        <time>2021-04-04T20:06:06Z</time>
      </trkpt>
      <trkpt lat="43.44959259033203" lon="-3.8441057205200195">
        <ele>23.265466690063477</ele>
        <time>2021-04-04T20:06:07Z</time>
      </trkpt>
      <trkpt lat="43.449581146240234" lon="-3.844188928604126">
        <ele>23.265466690063477</ele>
        <time>2021-04-04T20:06:08Z</time>
      </trkpt>
      <trkpt lat="43.4495735168457" lon="-3.8442723751068115">
        <ele>23.265466690063477</ele>
        <time>2021-04-04T20:06:09Z</time>
      </trkpt>
      <trkpt lat="43.44956588745117" lon="-3.8443551063537598">
        <ele>23.265466690063477</ele>
        <time>2021-04-04T20:06:10Z</time>
      </trkpt>
      <trkpt lat="43.44955825805664" lon="-3.8444325923919678">
        <ele>23.265466690063477</ele>
        <time>2021-04-04T20:06:11Z</time>
      </trkpt>
      <trkpt lat="43.44955062866211" lon="-3.8445162773132324">
        <ele>23.265466690063477</ele>
        <time>2021-04-04T20:06:12Z</time>
      </trkpt>
      <trkpt lat="43.44953918457031" lon="-3.844599962234497">
        <ele>23.265466690063477</ele>
        <time>2021-04-04T20:06:13Z</time>
      </trkpt>
      <trkpt lat="43.44953536987305" lon="-3.8446826934814453">
        <ele>23.265466690063477</ele>
        <time>2021-04-04T20:06:14Z</time>
      </trkpt>
      <trkpt lat="43.449527740478516" lon="-3.8447656631469727">
        <ele>23.265466690063477</ele>
        <time>2021-04-04T20:06:15Z</time>
      </trkpt>
      <trkpt lat="43.449520111083984" lon="-3.844849109649658">
        <ele>23.265466690063477</ele>
        <time>2021-04-04T20:06:16Z</time>
      </trkpt>
      <trkpt lat="43.44951248168945" lon="-3.844933032989502">
        <ele>23.265466690063477</ele>
        <time>2021-04-04T20:06:17Z</time>
      </trkpt>
      <trkpt lat="43.44950866699219" lon="-3.845017671585083">
        <ele>23.265466690063477</ele>
        <time>2021-04-04T20:06:18Z</time>
      </trkpt>
      <trkpt lat="43.449501037597656" lon="-3.8451030254364014">
        <ele>23.265466690063477</ele>
        <time>2021-04-04T20:06:19Z</time>
      </trkpt>
      <trkpt lat="43.44949722290039" lon="-3.8451828956604004">
        <ele>23.265466690063477</ele>
        <time>2021-04-04T20:06:20Z</time>
      </trkpt>
      <trkpt lat="43.449493408203125" lon="-3.8452699184417725">
        <ele>23.265466690063477</ele>
        <time>2021-04-04T20:06:21Z</time>
      </trkpt>
      <trkpt lat="43.449485778808594" lon="-3.845355749130249">
        <ele>23.265466690063477</ele>
        <time>2021-04-04T20:06:22Z</time>
      </trkpt>
      <trkpt lat="43.44948196411133" lon="-3.8454413414001465">
        <ele>23.265466690063477</ele>
        <time>2021-04-04T20:06:23Z</time>
      </trkpt>
      <trkpt lat="43.44947814941406" lon="-3.845526695251465">
        <ele>23.265466690063477</ele>
        <time>2021-04-04T20:06:24Z</time>
      </trkpt>
      <trkpt lat="43.44947814941406" lon="-3.845611572265625">
        <ele>23.265466690063477</ele>
        <time>2021-04-04T20:06:25Z</time>
      </trkpt>
      <trkpt lat="43.44947814941406" lon="-3.8456976413726807">
        <ele>23.265466690063477</ele>
        <time>2021-04-04T20:06:26Z</time>
      </trkpt>
      <trkpt lat="43.44948196411133" lon="-3.8457822799682617">
        <ele>23.265466690063477</ele>
        <time>2021-04-04T20:06:27Z</time>
      </trkpt>
      <trkpt lat="43.44948196411133" lon="-3.8458681106567383">
        <ele>23.265466690063477</ele>
        <time>2021-04-04T20:06:28Z</time>
      </trkpt>
      <trkpt lat="43.449485778808594" lon="-3.8459537029266357">
        <ele>23.265466690063477</ele>
        <time>2021-04-04T20:06:29Z</time>
      </trkpt>
      <trkpt lat="43.449485778808594" lon="-3.8460400104522705">
        <ele>23.265466690063477</ele>
        <time>2021-04-04T20:06:30Z</time>
      </trkpt>
      <trkpt lat="43.44948196411133" lon="-3.846125364303589">
        <ele>23.265466690063477</ele>
        <time>2021-04-04T20:06:31Z</time>
      </trkpt>
      <trkpt lat="43.44948196411133" lon="-3.846210241317749">
        <ele>23.265466690063477</ele>
        <time>2021-04-04T20:06:32Z</time>
      </trkpt>
      <trkpt lat="43.44947814941406" lon="-3.846295118331909">
        <ele>23.265466690063477</ele>
        <time>2021-04-04T20:06:33Z</time>
      </trkpt>
      <trkpt lat="43.4494743347168" lon="-3.846379041671753">
        <ele>23.265466690063477</ele>
        <time>2021-04-04T20:06:34Z</time>
      </trkpt>
      <trkpt lat="43.44947052001953" lon="-3.8464622497558594">
        <ele>23.265466690063477</ele>
        <time>2021-04-04T20:06:35Z</time>
      </trkpt>
      <trkpt lat="43.449466705322266" lon="-3.846545696258545">
        <ele>23.265466690063477</ele>
        <time>2021-04-04T20:06:36Z</time>
      </trkpt>
      <trkpt lat="43.449462890625" lon="-3.846627950668335">
        <ele>23.265466690063477</ele>
        <time>2021-04-04T20:06:37Z</time>
      </trkpt>
      <trkpt lat="43.449459075927734" lon="-3.846709966659546">
        <ele>23.265466690063477</ele>
        <time>2021-04-04T20:06:38Z</time>
      </trkpt>
      <trkpt lat="43.44945526123047" lon="-3.846791982650757">
        <ele>23.265466690063477</ele>
        <time>2021-04-04T20:06:39Z</time>
      </trkpt>
      <trkpt lat="43.4494514465332" lon="-3.846872091293335">
        <ele>23.265466690063477</ele>
        <time>2021-04-04T20:06:40Z</time>
      </trkpt>
      <trkpt lat="43.44944763183594" lon="-3.8469526767730713">
        <ele>23.265466690063477</ele>
        <time>2021-04-04T20:06:41Z</time>
      </trkpt>
      <trkpt lat="43.44944381713867" lon="-3.847039222717285">
        <ele>24.447284698486328</ele>
        <time>2021-04-04T20:06:42Z</time>
      </trkpt>
      <trkpt lat="43.449440002441406" lon="-3.847118616104126">
        <ele>24.447284698486328</ele>
        <time>2021-04-04T20:06:43Z</time>
      </trkpt>
      <trkpt lat="43.44943618774414" lon="-3.847198247909546">
        <ele>24.447284698486328</ele>
        <time>2021-04-04T20:06:44Z</time>
      </trkpt>
      <trkpt lat="43.449432373046875" lon="-3.8472795486450195">
        <ele>24.447284698486328</ele>
        <time>2021-04-04T20:06:45Z</time>
      </trkpt>
      <trkpt lat="43.44942855834961" lon="-3.847362756729126">
        <ele>24.447284698486328</ele>
        <time>2021-04-04T20:06:46Z</time>
      </trkpt>
      <trkpt lat="43.449424743652344" lon="-3.8474459648132324">
        <ele>24.447284698486328</ele>
        <time>2021-04-04T20:06:47Z</time>
      </trkpt>
      <trkpt lat="43.44942092895508" lon="-3.8475286960601807">
        <ele>24.447284698486328</ele>
        <time>2021-04-04T20:06:48Z</time>
      </trkpt>
      <trkpt lat="43.44941711425781" lon="-3.8476109504699707">
        <ele>24.447284698486328</ele>
        <time>2021-04-04T20:06:49Z</time>
      </trkpt>
      <trkpt lat="43.44941329956055" lon="-3.847693681716919">
        <ele>24.447284698486328</ele>
        <time>2021-04-04T20:06:50Z</time>
      </trkpt>
      <trkpt lat="43.44940948486328" lon="-3.8477766513824463">
        <ele>24.447284698486328</ele>
        <time>2021-04-04T20:06:51Z</time>
      </trkpt>
      <trkpt lat="43.449405670166016" lon="-3.8478589057922363">
        <ele>24.447284698486328</ele>
        <time>2021-04-04T20:06:52Z</time>
      </trkpt>
      <trkpt lat="43.449405670166016" lon="-3.847942352294922">
        <ele>24.447284698486328</ele>
        <time>2021-04-04T20:06:53Z</time>
      </trkpt>
      <trkpt lat="43.44940185546875" lon="-3.848020553588867">
        <ele>24.447284698486328</ele>
        <time>2021-04-04T20:06:54Z</time>
      </trkpt>
      <trkpt lat="43.449398040771484" lon="-3.848107099533081">
        <ele>24.447284698486328</ele>
        <time>2021-04-04T20:06:55Z</time>
      </trkpt>
      <trkpt lat="43.44939422607422" lon="-3.8481929302215576">
        <ele>24.447284698486328</ele>
        <time>2021-04-04T20:06:56Z</time>
      </trkpt>
      <trkpt lat="43.44939422607422" lon="-3.8482799530029297">
        <ele>24.447284698486328</ele>
        <time>2021-04-04T20:06:57Z</time>
      </trkpt>
      <trkpt lat="43.44939041137695" lon="-3.848367214202881">
        <ele>24.447284698486328</ele>
        <time>2021-04-04T20:06:58Z</time>
      </trkpt>
      <trkpt lat="43.44938659667969" lon="-3.848453998565674">
        <ele>24.447284698486328</ele>
        <time>2021-04-04T20:06:59Z</time>
      </trkpt>
      <trkpt lat="43.44938278198242" lon="-3.8485400676727295">
        <ele>25.62910270690918</ele>
        <time>2021-04-04T20:07:00Z</time>
      </trkpt>
      <trkpt lat="43.449378967285156" lon="-3.848625659942627">
        <ele>25.62910270690918</ele>
        <time>2021-04-04T20:07:01Z</time>
      </trkpt>
      <trkpt lat="43.44937515258789" lon="-3.8487112522125244">
        <ele>25.62910270690918</ele>
        <time>2021-04-04T20:07:02Z</time>
      </trkpt>
      <trkpt lat="43.449371337890625" lon="-3.848794937133789">
        <ele>25.62910270690918</ele>
        <time>2021-04-04T20:07:03Z</time>
      </trkpt>
      <trkpt lat="43.44936752319336" lon="-3.8488779067993164">
        <ele>25.62910270690918</ele>
        <time>2021-04-04T20:07:04Z</time>
      </trkpt>
      <trkpt lat="43.449363708496094" lon="-3.848961114883423">
        <ele>25.62910270690918</ele>
        <time>2021-04-04T20:07:05Z</time>
      </trkpt>
      <trkpt lat="43.44935989379883" lon="-3.8490443229675293">
        <ele>25.62910270690918</ele>
        <time>2021-04-04T20:07:06Z</time>
      </trkpt>
      <trkpt lat="43.44935607910156" lon="-3.8491263389587402">
        <ele>25.62910270690918</ele>
        <time>2021-04-04T20:07:07Z</time>
      </trkpt>
      <trkpt lat="43.4493522644043" lon="-3.8492074012756348">
        <ele>25.62910270690918</ele>
        <time>2021-04-04T20:07:08Z</time>
      </trkpt>
      <trkpt lat="43.44934844970703" lon="-3.849287271499634">
        <ele>25.62910270690918</ele>
        <time>2021-04-04T20:07:09Z</time>
      </trkpt>
      <trkpt lat="43.449344635009766" lon="-3.8493664264678955">
        <ele>26.901830673217773</ele>
        <time>2021-04-04T20:07:10Z</time>
      </trkpt>
      <trkpt lat="43.4493408203125" lon="-3.849444627761841">
        <ele>26.901830673217773</ele>
        <time>2021-04-04T20:07:11Z</time>
      </trkpt>
      <trkpt lat="43.449337005615234" lon="-3.849522352218628">
        <ele>26.901830673217773</ele>
        <time>2021-04-04T20:07:12Z</time>
      </trkpt>
      <trkpt lat="43.44933319091797" lon="-3.8495986461639404">
        <ele>26.901830673217773</ele>
        <time>2021-04-04T20:07:13Z</time>
      </trkpt>
      <trkpt lat="43.4493293762207" lon="-3.8496742248535156">
        <ele>26.901830673217773</ele>
        <time>2021-04-04T20:07:14Z</time>
      </trkpt>
      <trkpt lat="43.44932174682617" lon="-3.849750280380249">
        <ele>26.901830673217773</ele>
        <time>2021-04-04T20:07:15Z</time>
      </trkpt>
      <trkpt lat="43.44931411743164" lon="-3.849827289581299">
        <ele>26.901830673217773</ele>
        <time>2021-04-04T20:07:16Z</time>
      </trkpt>
      <trkpt lat="43.44930648803711" lon="-3.849903106689453">
        <ele>28.174558639526367</ele>
        <time>2021-04-04T20:07:17Z</time>
      </trkpt>
      <trkpt lat="43.449302673339844" lon="-3.8499722480773926">
        <ele>28.174558639526367</ele>
        <time>2021-04-04T20:07:18Z</time>
      </trkpt>
      <trkpt lat="43.44929504394531" lon="-3.8500471115112305">
        <ele>28.174558639526367</ele>
        <time>2021-04-04T20:07:19Z</time>
      </trkpt>
      <trkpt lat="43.44929122924805" lon="-3.850119113922119">
        <ele>28.174558639526367</ele>
        <time>2021-04-04T20:07:20Z</time>
      </trkpt>
      <trkpt lat="43.44928741455078" lon="-3.850189685821533">
        <ele>28.174558639526367</ele>
        <time>2021-04-04T20:07:21Z</time>
      </trkpt>
      <trkpt lat="43.449283599853516" lon="-3.8502581119537354">
        <ele>28.174558639526367</ele>
        <time>2021-04-04T20:07:22Z</time>
      </trkpt>
      <trkpt lat="43.44927978515625" lon="-3.85038161277771">
        <ele>28.174558639526367</ele>
        <time>2021-04-04T20:07:24Z</time>
      </trkpt>
      <trkpt lat="43.44927215576172" lon="-3.8504979610443115">
        <ele>28.174558639526367</ele>
        <time>2021-04-04T20:07:26Z</time>
      </trkpt>
      <trkpt lat="43.449256896972656" lon="-3.8506033420562744">
        <ele>28.174558639526367</ele>
        <time>2021-04-04T20:07:28Z</time>
      </trkpt>
      <trkpt lat="43.4492301940918" lon="-3.850684881210327">
        <ele>26.901830673217773</ele>
        <time>2021-04-04T20:07:30Z</time>
      </trkpt>
      <trkpt lat="43.44919967651367" lon="-3.850722551345825">
        <ele>25.447284698486328</ele>
        <time>2021-04-04T20:07:32Z</time>
      </trkpt>
      <trkpt lat="43.44914627075195" lon="-3.850710391998291">
        <ele>25.447284698486328</ele>
        <time>2021-04-04T20:07:35Z</time>
      </trkpt>
      <trkpt lat="43.4491081237793" lon="-3.8506319522857666">
        <ele>23.901830673217773</ele>
        <time>2021-04-04T20:07:38Z</time>
      </trkpt>
      <trkpt lat="43.449092864990234" lon="-3.850555896759033">
        <ele>22.447284698486328</ele>
        <time>2021-04-04T20:07:40Z</time>
      </trkpt>
      <trkpt lat="43.44908142089844" lon="-3.8504862785339355">
        <ele>22.447284698486328</ele>
        <time>2021-04-04T20:07:42Z</time>
      </trkpt>
      <trkpt lat="43.449058532714844" lon="-3.8504106998443604">
        <ele>21.083648681640625</ele>
        <time>2021-04-04T20:07:45Z</time>
      </trkpt>
      <trkpt lat="43.449005126953125" lon="-3.850374937057495">
        <ele>21.083648681640625</ele>
        <time>2021-04-04T20:07:48Z</time>
      </trkpt>
      <trkpt lat="43.44892120361328" lon="-3.8503646850585938">
        <ele>21.083648681640625</ele>
        <time>2021-04-04T20:07:51Z</time>
      </trkpt>
      <trkpt lat="43.448848724365234" lon="-3.8503494262695313">
        <ele>19.901830673217773</ele>
        <time>2021-04-04T20:07:53Z</time>
      </trkpt>
      <trkpt lat="43.44876480102539" lon="-3.850325345993042">
        <ele>19.901830673217773</ele>
        <time>2021-04-04T20:07:55Z</time>
      </trkpt>
      <trkpt lat="43.44868469238281" lon="-3.850296974182129">
        <ele>19.901830673217773</ele>
        <time>2021-04-04T20:07:57Z</time>
      </trkpt>
      <trkpt lat="43.448612213134766" lon="-3.8502540588378906">
        <ele>19.901830673217773</ele>
        <time>2021-04-04T20:07:59Z</time>
      </trkpt>
      <trkpt lat="43.44855499267578" lon="-3.850196599960327">
        <ele>19.901830673217773</ele>
        <time>2021-04-04T20:08:01Z</time>
      </trkpt>
      <trkpt lat="43.44850158691406" lon="-3.8501293659210205">
        <ele>19.901830673217773</ele>
        <time>2021-04-04T20:08:03Z</time>
      </trkpt>
      <trkpt lat="43.44844055175781" lon="-3.850066900253296">
        <ele>19.901830673217773</ele>
        <time>2021-04-04T20:08:05Z</time>
      </trkpt>
      <trkpt lat="43.44837951660156" lon="-3.850019693374634">
        <ele>19.901830673217773</ele>
        <time>2021-04-04T20:08:07Z</time>
      </trkpt>
      <trkpt lat="43.44831085205078" lon="-3.8499855995178223">
        <ele>19.901830673217773</ele>
        <time>2021-04-04T20:08:09Z</time>
      </trkpt>
      <trkpt lat="43.448238372802734" lon="-3.8499603271484375">
        <ele>19.901830673217773</ele>
        <time>2021-04-04T20:08:11Z</time>
      </trkpt>
      <trkpt lat="43.44816207885742" lon="-3.8499391078948975">
        <ele>19.901830673217773</ele>
        <time>2021-04-04T20:08:13Z</time>
      </trkpt>
      <trkpt lat="43.448089599609375" lon="-3.849919557571411">
        <ele>19.901830673217773</ele>
        <time>2021-04-04T20:08:15Z</time>
      </trkpt>
      <trkpt lat="43.448028564453125" lon="-3.8499019145965576">
        <ele>19.901830673217773</ele>
        <time>2021-04-04T20:08:17Z</time>
      </trkpt>
      <trkpt lat="43.4479866027832" lon="-3.84989333152771">
        <ele>19.901830673217773</ele>
        <time>2021-04-04T20:08:19Z</time>
      </trkpt>
      <trkpt lat="43.44793701171875" lon="-3.849902629852295">
        <ele>21.083648681640625</ele>
        <time>2021-04-04T20:08:28Z</time>
      </trkpt>
      <trkpt lat="43.44792175292969" lon="-3.849855422973633">
        <ele>21.083648681640625</ele>
        <time>2021-04-04T20:08:39Z</time>
      </trkpt>
      <trkpt lat="43.447837829589844" lon="-3.8497674465179443">
        <ele>21.083648681640625</ele>
        <time>2021-04-04T20:08:55Z</time>
      </trkpt>
      <trkpt lat="43.44779968261719" lon="-3.8497064113616943">
        <ele>21.083648681640625</ele>
        <time>2021-04-04T20:08:59Z</time>
      </trkpt>
      <trkpt lat="43.44773864746094" lon="-3.849670648574829">
        <ele>21.083648681640625</ele>
        <time>2021-04-04T20:09:03Z</time>
      </trkpt>
      <trkpt lat="43.44768524169922" lon="-3.8496487140655518">
        <ele>21.083648681640625</ele>
        <time>2021-04-04T20:09:06Z</time>
      </trkpt>
      <trkpt lat="43.447628021240234" lon="-3.8496243953704834">
        <ele>21.083648681640625</ele>
        <time>2021-04-04T20:09:09Z</time>
      </trkpt>
      <trkpt lat="43.447566986083984" lon="-3.8495993614196777">
        <ele>21.083648681640625</ele>
        <time>2021-04-04T20:09:12Z</time>
      </trkpt>
      <trkpt lat="43.447513580322266" lon="-3.8495659828186035">
        <ele>21.083648681640625</ele>
        <time>2021-04-04T20:09:15Z</time>
      </trkpt>
      <trkpt lat="43.44746017456055" lon="-3.849522352218628">
        <ele>21.083648681640625</ele>
        <time>2021-04-04T20:09:18Z</time>
      </trkpt>
      <trkpt lat="43.44740676879883" lon="-3.8494653701782227">
        <ele>21.083648681640625</ele>
        <time>2021-04-04T20:09:21Z</time>
      </trkpt>
      <trkpt lat="43.44734573364258" lon="-3.8494133949279785">
        <ele>21.083648681640625</ele>
        <time>2021-04-04T20:09:24Z</time>
      </trkpt>
      <trkpt lat="43.447296142578125" lon="-3.8493707180023193">
        <ele>21.083648681640625</ele>
        <time>2021-04-04T20:09:27Z</time>
      </trkpt>
      <trkpt lat="43.44724655151367" lon="-3.849337577819824">
        <ele>21.083648681640625</ele>
        <time>2021-04-04T20:09:30Z</time>
      </trkpt>
      <trkpt lat="43.447174072265625" lon="-3.849273920059204">
        <ele>21.083648681640625</ele>
        <time>2021-04-04T20:09:38Z</time>
      </trkpt>
      <trkpt lat="43.4471549987793" lon="-3.8491880893707275">
        <ele>21.083648681640625</ele>
        <time>2021-04-04T20:09:41Z</time>
      </trkpt>
      <trkpt lat="43.44715881347656" lon="-3.849099636077881">
        <ele>21.083648681640625</ele>
        <time>2021-04-04T20:09:43Z</time>
      </trkpt>
      <trkpt lat="43.447166442871094" lon="-3.8489999771118164">
        <ele>21.083648681640625</ele>
        <time>2021-04-04T20:09:45Z</time>
      </trkpt>
      <trkpt lat="43.44717788696289" lon="-3.8488876819610596">
        <ele>21.083648681640625</ele>
        <time>2021-04-04T20:09:47Z</time>
      </trkpt>
      <trkpt lat="43.44719696044922" lon="-3.8487672805786133">
        <ele>21.083648681640625</ele>
        <time>2021-04-04T20:09:49Z</time>
      </trkpt>
      <trkpt lat="43.44721221923828" lon="-3.848651885986328">
        <ele>21.083648681640625</ele>
        <time>2021-04-04T20:09:51Z</time>
      </trkpt>
      <trkpt lat="43.44723129272461" lon="-3.8485240936279297">
        <ele>21.083648681640625</ele>
        <time>2021-04-04T20:09:53Z</time>
      </trkpt>
      <trkpt lat="43.44724655151367" lon="-3.848404884338379">
        <ele>21.083648681640625</ele>
        <time>2021-04-04T20:09:55Z</time>
      </trkpt>
      <trkpt lat="43.447265625" lon="-3.848273992538452">
        <ele>21.083648681640625</ele>
        <time>2021-04-04T20:09:57Z</time>
      </trkpt>
      <trkpt lat="43.4472770690918" lon="-3.8482069969177246">
        <ele>21.083648681640625</ele>
        <time>2021-04-04T20:09:58Z</time>
      </trkpt>
      <trkpt lat="43.44729995727539" lon="-3.8480794429779053">
        <ele>21.083648681640625</ele>
        <time>2021-04-04T20:10:00Z</time>
      </trkpt>
      <trkpt lat="43.44731903076172" lon="-3.8479514122009277">
        <ele>21.083648681640625</ele>
        <time>2021-04-04T20:10:02Z</time>
      </trkpt>
      <trkpt lat="43.447330474853516" lon="-3.8478856086730957">
        <ele>21.083648681640625</ele>
        <time>2021-04-04T20:10:03Z</time>
      </trkpt>
      <trkpt lat="43.44734573364258" lon="-3.847761631011963">
        <ele>21.083648681640625</ele>
        <time>2021-04-04T20:10:05Z</time>
      </trkpt>
      <trkpt lat="43.44733810424805" lon="-3.8476357460021973">
        <ele>21.083648681640625</ele>
        <time>2021-04-04T20:10:07Z</time>
      </trkpt>
      <trkpt lat="43.44731903076172" lon="-3.8475236892700195">
        <ele>21.083648681640625</ele>
        <time>2021-04-04T20:10:09Z</time>
      </trkpt>
      <trkpt lat="43.44727325439453" lon="-3.847426652908325">
        <ele>21.083648681640625</ele>
        <time>2021-04-04T20:10:11Z</time>
      </trkpt>
      <trkpt lat="43.44721984863281" lon="-3.847362756729126">
        <ele>21.083648681640625</ele>
        <time>2021-04-04T20:10:13Z</time>
      </trkpt>
      <trkpt lat="43.44715118408203" lon="-3.84731125831604">
        <ele>21.083648681640625</ele>
        <time>2021-04-04T20:10:15Z</time>
      </trkpt>
      <trkpt lat="43.44710159301758" lon="-3.847254753112793">
        <ele>21.083648681640625</ele>
        <time>2021-04-04T20:10:17Z</time>
      </trkpt>
      <trkpt lat="43.44707489013672" lon="-3.847191095352173">
        <time>2021-04-04T20:10:19Z</time>
      </trkpt>
      <trkpt lat="43.44705581665039" lon="-3.847123622894287">
        <time>2021-04-04T20:10:21Z</time>
      </trkpt>
      <trkpt lat="43.447044372558594" lon="-3.8470370769500732">
        <time>2021-04-04T20:10:24Z</time>
      </trkpt>
      <trkpt lat="43.44705581665039" lon="-3.84696888923645">
        <time>2021-04-04T20:10:26Z</time>
      </trkpt>
      <trkpt lat="43.447086334228516" lon="-3.846874713897705">
        <time>2021-04-04T20:10:29Z</time>
      </trkpt>
      <trkpt lat="43.44710922241211" lon="-3.846787929534912">
        <time>2021-04-04T20:10:32Z</time>
      </trkpt>
      <trkpt lat="43.44710922241211" lon="-3.846709966659546">
        <time>2021-04-04T20:10:35Z</time>
      </trkpt>
      <trkpt lat="43.44709396362305" lon="-3.846641778945923">
        <time>2021-04-04T20:10:39Z</time>
      </trkpt>
    </trkseg>
  </trk>
</gpx>
